PWSweather.com
Personal Weather Stations
Station Observations
GHWX1
Golden Heights, Sturgeon County, AB T0A1N5

Golden HeightsSturgeon County, AB T0A1N5

Lat: 53.919, Lon: -113.37

Elevation: 2159

Station Type:

http://www.ghwx.ca

High Low Average
Temperature 50.3°F10.2°C 19.7°F-6.8°C 34.3°F1.3°C
Dew Point 38.9°F3.8°C 18.5°F-7.5°C 29.6°F-1.3°C
Winds 6.0 mph 9.7 kmh Calm Calm 1.0 mph WSW1.6 kmh WSW
Wind Gusts -- -- --
Humidity 96% 63% 84%
Pressure 29.93 in1013.5 mb 29.81 in1009.5 mb -
Precipitation 0.00 in0.0 mm - -
Hour Temp Dew Point Humidity Winds Wind Gusts Pressure Precip Precip Rate Daily Precip Total
12:01 AM 29.6°F-1.3°C 28.4°F-2.0°C 95% 3.0 mph ESE4.8 kmh ESE -- 29.94 in1013.9 mb 0.00 in0.0 mm 0.00 in0.0 mm 0.00 in0.0 mm
12:02 AM 29.6°F-1.3°C 28.4°F-2.0°C 95% 2.0 mph ESE3.2 kmh ESE -- 29.93 in1013.5 mb 0.00 in0.0 mm 0.00 in0.0 mm 0.00 in0.0 mm
12:03 AM 29.6°F-1.3°C 28.4°F-2.0°C 95% 3.0 mph ESE4.8 kmh ESE -- 29.94 in1013.9 mb 0.00 in0.0 mm 0.00 in0.0 mm 0.00 in0.0 mm
12:04 AM 29.6°F-1.3°C 28.4°F-2.0°C 95% 2.0 mph ESE3.2 kmh ESE -- 29.94 in1013.9 mb 0.00 in0.0 mm 0.00 in0.0 mm 0.00 in0.0 mm
12:05 AM 29.6°F-1.3°C 28.4°F-2.0°C 95% Calm Calm -- 29.94 in1013.9 mb 0.00 in0.0 mm 0.00 in0.0 mm 0.00 in0.0 mm
12:06 AM 29.6°F-1.3°C 28.4°F-2.0°C 95% Calm Calm -- 29.94 in1013.9 mb 0.00 in0.0 mm 0.00 in0.0 mm 0.00 in0.0 mm
12:07 AM 29.6°F-1.3°C 28.4°F-2.0°C 95% Calm Calm -- 29.94 in1013.9 mb 0.00 in0.0 mm 0.00 in0.0 mm 0.00 in0.0 mm
12:09 AM 29.6°F-1.3°C 28.4°F-2.0°C 95% Calm Calm -- 29.94 in1013.9 mb 0.00 in0.0 mm 0.00 in0.0 mm 0.00 in0.0 mm
12:13 AM 29.6°F-1.3°C 28.4°F-2.0°C 95% 1.0 mph ESE1.6 kmh ESE -- 29.93 in1013.5 mb 0.00 in0.0 mm 0.00 in0.0 mm 0.00 in0.0 mm
12:14 AM 29.6°F-1.3°C 28.4°F-2.0°C 95% Calm Calm -- 29.93 in1013.5 mb 0.00 in0.0 mm 0.00 in0.0 mm 0.00 in0.0 mm
12:16 AM 29.6°F-1.3°C 28.4°F-2.0°C 95% Calm Calm -- 29.94 in1013.9 mb 0.00 in0.0 mm 0.00 in0.0 mm 0.00 in0.0 mm
12:17 AM 29.7°F-1.3°C 28.4°F-2.0°C 95% Calm Calm -- 29.94 in1013.9 mb 0.00 in0.0 mm 0.00 in0.0 mm 0.00 in0.0 mm
12:18 AM 29.5°F-1.4°C 28.2°F-2.1°C 95% Calm Calm -- 29.94 in1013.9 mb 0.00 in0.0 mm 0.00 in0.0 mm 0.00 in0.0 mm
12:19 AM 29.5°F-1.4°C 28.2°F-2.1°C 95% 2.0 mph ESE3.2 kmh ESE -- 29.94 in1013.9 mb 0.00 in0.0 mm 0.00 in0.0 mm 0.00 in0.0 mm
12:20 AM 29.5°F-1.4°C 28.2°F-2.1°C 95% 1.0 mph ESE1.6 kmh ESE -- 29.94 in1013.9 mb 0.00 in0.0 mm 0.00 in0.0 mm 0.00 in0.0 mm
12:22 AM 29.5°F-1.4°C 28.2°F-2.1°C 95% Calm Calm -- 29.93 in1013.5 mb 0.00 in0.0 mm 0.00 in0.0 mm 0.00 in0.0 mm
12:23 AM 29.5°F-1.4°C 28.2°F-2.1°C 95% Calm Calm -- 29.93 in1013.5 mb 0.00 in0.0 mm 0.00 in0.0 mm 0.00 in0.0 mm
12:24 AM 29.2°F-1.6°C 27.8°F-2.3°C 95% Calm Calm -- 29.93 in1013.5 mb 0.00 in0.0 mm 0.00 in0.0 mm 0.00 in0.0 mm
12:25 AM 29.2°F-1.6°C 27.8°F-2.3°C 95% 1.0 mph E1.6 kmh E -- 29.93 in1013.5 mb 0.00 in0.0 mm 0.00 in0.0 mm 0.00 in0.0 mm
12:26 AM 29.2°F-1.6°C 27.8°F-2.3°C 95% 2.0 mph E3.2 kmh E -- 29.93 in1013.5 mb 0.00 in0.0 mm 0.00 in0.0 mm 0.00 in0.0 mm
12:27 AM 29.2°F-1.6°C 27.8°F-2.3°C 95% 2.0 mph ESE3.2 kmh ESE -- 29.93 in1013.5 mb 0.00 in0.0 mm 0.00 in0.0 mm 0.00 in0.0 mm
12:29 AM 29.2°F-1.6°C 27.8°F-2.3°C 95% 2.0 mph ESE3.2 kmh ESE -- 29.94 in1013.9 mb 0.00 in0.0 mm 0.00 in0.0 mm 0.00 in0.0 mm
12:30 AM 29.2°F-1.6°C 27.8°F-2.3°C 95% 2.0 mph ESE3.2 kmh ESE -- 29.93 in1013.5 mb 0.00 in0.0 mm 0.00 in0.0 mm 0.00 in0.0 mm
12:32 AM 29.2°F-1.6°C 27.8°F-2.3°C 95% 1.0 mph ESE1.6 kmh ESE -- 29.93 in1013.5 mb 0.00 in0.0 mm 0.00 in0.0 mm 0.00 in0.0 mm
12:33 AM 29.2°F-1.6°C 27.8°F-2.3°C 95% Calm Calm -- 29.93 in1013.5 mb 0.00 in0.0 mm 0.00 in0.0 mm 0.00 in0.0 mm
12:34 AM 29.2°F-1.6°C 27.8°F-2.3°C 95% Calm Calm -- 29.93 in1013.5 mb 0.00 in0.0 mm 0.00 in0.0 mm 0.00 in0.0 mm
12:36 AM 29.1°F-1.6°C 27.8°F-2.3°C 95% Calm Calm -- 29.93 in1013.5 mb 0.00 in0.0 mm 0.00 in0.0 mm 0.00 in0.0 mm
12:40 AM 28.8°F-1.8°C 27.5°F-2.5°C 95% Calm Calm -- 29.93 in1013.5 mb 0.00 in0.0 mm 0.00 in0.0 mm 0.00 in0.0 mm
12:41 AM 28.8°F-1.8°C 27.5°F-2.5°C 95% Calm Calm -- 29.93 in1013.5 mb 0.00 in0.0 mm 0.00 in0.0 mm 0.00 in0.0 mm
12:42 AM 28.8°F-1.8°C 27.5°F-2.5°C 95% Calm Calm -- 29.93 in1013.5 mb 0.00 in0.0 mm 0.00 in0.0 mm 0.00 in0.0 mm
12:44 AM 28.7°F-1.8°C 27.5°F-2.5°C 95% Calm Calm -- 29.93 in1013.5 mb 0.00 in0.0 mm 0.00 in0.0 mm 0.00 in0.0 mm
12:45 AM 28.7°F-1.8°C 27.5°F-2.5°C 95% Calm Calm -- 29.93 in1013.5 mb 0.00 in0.0 mm 0.00 in0.0 mm 0.00 in0.0 mm
12:48 AM 28.7°F-1.8°C 27.5°F-2.5°C 95% Calm Calm -- 29.93 in1013.5 mb 0.00 in0.0 mm 0.00 in0.0 mm 0.00 in0.0 mm
12:50 AM 28.7°F-1.8°C 27.5°F-2.5°C 95% Calm Calm -- 29.93 in1013.5 mb 0.00 in0.0 mm 0.00 in0.0 mm 0.00 in0.0 mm
12:53 AM 28.7°F-1.8°C 27.5°F-2.5°C 95% Calm Calm -- 29.93 in1013.5 mb 0.00 in0.0 mm 0.00 in0.0 mm 0.00 in0.0 mm
12:58 AM 28.6°F-1.9°C 27.3°F-2.6°C 95% Calm Calm -- 29.93 in1013.5 mb 0.00 in0.0 mm 0.00 in0.0 mm 0.00 in0.0 mm
01:02 AM 28.3°F-2.1°C 27.0°F-2.8°C 95% Calm Calm -- 29.93 in1013.5 mb 0.00 in0.0 mm 0.00 in0.0 mm 0.00 in0.0 mm
01:04 AM 28.2°F-2.1°C 27.0°F-2.8°C 95% Calm Calm -- 29.92 in1013.2 mb 0.00 in0.0 mm 0.00 in0.0 mm 0.00 in0.0 mm
01:07 AM 27.9°F-2.3°C 26.6°F-3.0°C 95% Calm Calm -- 29.92 in1013.2 mb 0.00 in0.0 mm 0.00 in0.0 mm 0.00 in0.0 mm
01:08 AM 27.9°F-2.3°C 26.6°F-3.0°C 95% Calm Calm -- 29.92 in1013.2 mb 0.00 in0.0 mm 0.00 in0.0 mm 0.00 in0.0 mm
01:10 AM 27.9°F-2.3°C 26.6°F-3.0°C 95% Calm Calm -- 29.93 in1013.5 mb 0.00 in0.0 mm 0.00 in0.0 mm 0.00 in0.0 mm
01:12 AM 27.8°F-2.3°C 26.6°F-3.0°C 95% Calm Calm -- 29.92 in1013.2 mb 0.00 in0.0 mm 0.00 in0.0 mm 0.00 in0.0 mm
01:13 AM 27.6°F-2.4°C 26.4°F-3.1°C 95% Calm Calm -- 29.92 in1013.2 mb 0.00 in0.0 mm 0.00 in0.0 mm 0.00 in0.0 mm
01:19 AM 27.6°F-2.4°C 26.4°F-3.1°C 95% Calm Calm -- 29.92 in1013.2 mb 0.00 in0.0 mm 0.00 in0.0 mm 0.00 in0.0 mm
01:20 AM 27.5°F-2.5°C 26.2°F-3.2°C 95% Calm Calm -- 29.92 in1013.2 mb 0.00 in0.0 mm 0.00 in0.0 mm 0.00 in0.0 mm
01:22 AM 27.3°F-2.6°C 26.1°F-3.3°C 95% Calm Calm -- 29.92 in1013.2 mb 0.00 in0.0 mm 0.00 in0.0 mm 0.00 in0.0 mm
01:23 AM 27.3°F-2.6°C 26.1°F-3.3°C 95% Calm Calm -- 29.92 in1013.2 mb 0.00 in0.0 mm 0.00 in0.0 mm 0.00 in0.0 mm
01:24 AM 27.3°F-2.6°C 26.1°F-3.3°C 95% Calm Calm -- 29.92 in1013.2 mb 0.00 in0.0 mm 0.00 in0.0 mm 0.00 in0.0 mm
01:25 AM 27.5°F-2.5°C 26.2°F-3.2°C 95% Calm Calm -- 29.91 in1012.9 mb 0.00 in0.0 mm 0.00 in0.0 mm 0.00 in0.0 mm
01:30 AM 27.5°F-2.5°C 26.2°F-3.2°C 95% Calm Calm -- 29.91 in1012.9 mb 0.00 in0.0 mm 0.00 in0.0 mm 0.00 in0.0 mm
01:31 AM 27.3°F-2.6°C 26.1°F-3.3°C 95% Calm Calm -- 29.91 in1012.9 mb 0.00 in0.0 mm 0.00 in0.0 mm 0.00 in0.0 mm
01:42 AM 27.5°F-2.5°C 26.2°F-3.2°C 95% Calm Calm -- 29.91 in1012.9 mb 0.00 in0.0 mm 0.00 in0.0 mm 0.00 in0.0 mm
01:43 AM 27.5°F-2.5°C 26.2°F-3.2°C 95% 2.0 mph ESE3.2 kmh ESE -- 29.91 in1012.9 mb 0.00 in0.0 mm 0.00 in0.0 mm 0.00 in0.0 mm
01:44 AM 27.5°F-2.5°C 26.5°F-3.1°C 96% 1.0 mph ESE1.6 kmh ESE -- 29.91 in1012.9 mb 0.00 in0.0 mm 0.00 in0.0 mm 0.00 in0.0 mm
01:45 AM 27.5°F-2.5°C 26.5°F-3.1°C 96% Calm Calm -- 29.91 in1012.9 mb 0.00 in0.0 mm 0.00 in0.0 mm 0.00 in0.0 mm
01:48 AM 27.5°F-2.5°C 26.5°F-3.1°C 96% Calm Calm -- 29.90 in1012.5 mb 0.00 in0.0 mm 0.00 in0.0 mm 0.00 in0.0 mm
01:51 AM 27.5°F-2.5°C 26.5°F-3.1°C 96% Calm Calm -- 29.91 in1012.9 mb 0.00 in0.0 mm 0.00 in0.0 mm 0.00 in0.0 mm
01:52 AM 27.5°F-2.5°C 26.5°F-3.1°C 96% Calm Calm -- 29.90 in1012.5 mb 0.00 in0.0 mm 0.00 in0.0 mm 0.00 in0.0 mm
01:53 AM 27.5°F-2.5°C 26.5°F-3.1°C 96% Calm Calm -- 29.90 in1012.5 mb 0.00 in0.0 mm 0.00 in0.0 mm 0.00 in0.0 mm
01:55 AM 27.5°F-2.5°C 26.5°F-3.1°C 96% Calm Calm -- 29.90 in1012.5 mb 0.00 in0.0 mm 0.00 in0.0 mm 0.00 in0.0 mm
01:57 AM 27.3°F-2.6°C 26.3°F-3.2°C 96% Calm Calm -- 29.90 in1012.5 mb 0.00 in0.0 mm 0.00 in0.0 mm 0.00 in0.0 mm
02:00 AM 27.1°F-2.7°C 26.1°F-3.3°C 96% Calm Calm -- 29.90 in1012.5 mb 0.00 in0.0 mm 0.00 in0.0 mm 0.00 in0.0 mm
02:11 AM 27.0°F-2.8°C 26.0°F-3.3°C 96% Calm Calm -- 29.90 in1012.5 mb 0.00 in0.0 mm 0.00 in0.0 mm 0.00 in0.0 mm
02:12 AM 27.0°F-2.8°C 26.0°F-3.3°C 96% Calm Calm -- 29.90 in1012.5 mb 0.00 in0.0 mm 0.00 in0.0 mm 0.00 in0.0 mm
02:16 AM 26.7°F-2.9°C 25.8°F-3.4°C 96% Calm Calm -- 29.90 in1012.5 mb 0.00 in0.0 mm 0.00 in0.0 mm 0.00 in0.0 mm
02:17 AM 26.7°F-2.9°C 25.8°F-3.4°C 96% Calm Calm -- 29.90 in1012.5 mb 0.00 in0.0 mm 0.00 in0.0 mm 0.00 in0.0 mm
02:21 AM 26.6°F-3.0°C 25.6°F-3.6°C 96% Calm Calm -- 29.90 in1012.5 mb 0.00 in0.0 mm 0.00 in0.0 mm 0.00 in0.0 mm
02:24 AM 26.3°F-3.2°C 25.2°F-3.8°C 96% Calm Calm -- 29.90 in1012.5 mb 0.00 in0.0 mm 0.00 in0.0 mm 0.00 in0.0 mm
02:25 AM 26.2°F-3.2°C 25.0°F-3.9°C 95% Calm Calm -- 29.89 in1012.2 mb 0.00 in0.0 mm 0.00 in0.0 mm 0.00 in0.0 mm
02:27 AM 26.1°F-3.3°C 24.8°F-4.0°C 95% Calm Calm -- 29.89 in1012.2 mb 0.00 in0.0 mm 0.00 in0.0 mm 0.00 in0.0 mm
02:28 AM 26.1°F-3.3°C 24.8°F-4.0°C 95% Calm Calm -- 29.90 in1012.5 mb 0.00 in0.0 mm 0.00 in0.0 mm 0.00 in0.0 mm
02:30 AM 26.1°F-3.3°C 24.8°F-4.0°C 95% Calm Calm -- 29.89 in1012.2 mb 0.00 in0.0 mm 0.00 in0.0 mm 0.00 in0.0 mm
02:31 AM 25.9°F-3.4°C 24.6°F-4.1°C 95% Calm Calm -- 29.89 in1012.2 mb 0.00 in0.0 mm 0.00 in0.0 mm 0.00 in0.0 mm
02:32 AM 25.9°F-3.4°C 24.6°F-4.1°C 95% Calm Calm -- 29.90 in1012.5 mb 0.00 in0.0 mm 0.00 in0.0 mm 0.00 in0.0 mm
02:33 AM 25.7°F-3.5°C 24.4°F-4.2°C 95% Calm Calm -- 29.90 in1012.5 mb 0.00 in0.0 mm 0.00 in0.0 mm 0.00 in0.0 mm
02:34 AM 25.7°F-3.5°C 24.4°F-4.2°C 95% Calm Calm -- 29.89 in1012.2 mb 0.00 in0.0 mm 0.00 in0.0 mm 0.00 in0.0 mm
02:35 AM 25.4°F-3.7°C 24.1°F-4.4°C 95% Calm Calm -- 29.89 in1012.2 mb 0.00 in0.0 mm 0.00 in0.0 mm 0.00 in0.0 mm
02:37 AM 25.2°F-3.8°C 23.9°F-4.5°C 95% Calm Calm -- 29.89 in1012.2 mb 0.00 in0.0 mm 0.00 in0.0 mm 0.00 in0.0 mm
02:41 AM 25.1°F-3.8°C 23.9°F-4.5°C 95% Calm Calm -- 29.89 in1012.2 mb 0.00 in0.0 mm 0.00 in0.0 mm 0.00 in0.0 mm
02:45 AM 25.0°F-3.9°C 23.7°F-4.6°C 95% Calm Calm -- 29.89 in1012.2 mb 0.00 in0.0 mm 0.00 in0.0 mm 0.00 in0.0 mm
02:48 AM 25.0°F-3.9°C 23.7°F-4.6°C 95% Calm Calm -- 29.89 in1012.2 mb 0.00 in0.0 mm 0.00 in0.0 mm 0.00 in0.0 mm
02:49 AM 25.0°F-3.9°C 23.7°F-4.6°C 95% Calm Calm -- 29.89 in1012.2 mb 0.00 in0.0 mm 0.00 in0.0 mm 0.00 in0.0 mm
02:50 AM 24.8°F-4.0°C 23.6°F-4.7°C 95% Calm Calm -- 29.89 in1012.2 mb 0.00 in0.0 mm 0.00 in0.0 mm 0.00 in0.0 mm
02:51 AM 24.8°F-4.0°C 23.6°F-4.7°C 95% Calm Calm -- 29.89 in1012.2 mb 0.00 in0.0 mm 0.00 in0.0 mm 0.00 in0.0 mm
02:52 AM 25.0°F-3.9°C 23.7°F-4.6°C 95% Calm Calm -- 29.89 in1012.2 mb 0.00 in0.0 mm 0.00 in0.0 mm 0.00 in0.0 mm
02:53 AM 25.0°F-3.9°C 23.7°F-4.6°C 95% Calm Calm -- 29.89 in1012.2 mb 0.00 in0.0 mm 0.00 in0.0 mm 0.00 in0.0 mm
02:55 AM 25.0°F-3.9°C 23.7°F-4.6°C 95% Calm Calm -- 29.89 in1012.2 mb 0.00 in0.0 mm 0.00 in0.0 mm 0.00 in0.0 mm
03:01 AM 24.8°F-4.0°C 23.6°F-4.7°C 95% Calm Calm -- 29.89 in1012.2 mb 0.00 in0.0 mm 0.00 in0.0 mm 0.00 in0.0 mm
03:03 AM 24.6°F-4.1°C 23.4°F-4.8°C 95% Calm Calm -- 29.89 in1012.2 mb 0.00 in0.0 mm 0.00 in0.0 mm 0.00 in0.0 mm
03:05 AM 24.6°F-4.1°C 23.4°F-4.8°C 95% Calm Calm -- 29.89 in1012.2 mb 0.00 in0.0 mm 0.00 in0.0 mm 0.00 in0.0 mm
03:06 AM 24.4°F-4.2°C 23.2°F-4.9°C 95% Calm Calm -- 29.89 in1012.2 mb 0.00 in0.0 mm 0.00 in0.0 mm 0.00 in0.0 mm
03:07 AM 24.4°F-4.2°C 23.2°F-4.9°C 95% 1.0 mph W1.6 kmh W -- 29.89 in1012.2 mb 0.00 in0.0 mm 0.00 in0.0 mm 0.00 in0.0 mm
03:08 AM 24.4°F-4.2°C 23.2°F-4.9°C 95% Calm Calm -- 29.89 in1012.2 mb 0.00 in0.0 mm 0.00 in0.0 mm 0.00 in0.0 mm
03:09 AM 24.2°F-4.3°C 23.0°F-5.0°C 95% Calm Calm -- 29.89 in1012.2 mb 0.00 in0.0 mm 0.00 in0.0 mm 0.00 in0.0 mm
03:11 AM 24.2°F-4.3°C 23.0°F-5.0°C 95% 1.0 mph W1.6 kmh W -- 29.89 in1012.2 mb 0.00 in0.0 mm 0.00 in0.0 mm 0.00 in0.0 mm
03:12 AM 24.2°F-4.3°C 23.0°F-5.0°C 95% 1.0 mph WNW1.6 kmh WNW -- 29.89 in1012.2 mb 0.00 in0.0 mm 0.00 in0.0 mm 0.00 in0.0 mm
03:13 AM 24.2°F-4.3°C 23.0°F-5.0°C 95% Calm Calm -- 29.89 in1012.2 mb 0.00 in0.0 mm 0.00 in0.0 mm 0.00 in0.0 mm
03:15 AM 24.2°F-4.3°C 23.0°F-5.0°C 95% Calm Calm -- 29.89 in1012.2 mb 0.00 in0.0 mm 0.00 in0.0 mm 0.00 in0.0 mm
03:17 AM 24.1°F-4.4°C 22.8°F-5.1°C 95% Calm Calm -- 29.89 in1012.2 mb 0.00 in0.0 mm 0.00 in0.0 mm 0.00 in0.0 mm
03:18 AM 23.8°F-4.6°C 22.5°F-5.3°C 95% Calm Calm -- 29.90 in1012.5 mb 0.00 in0.0 mm 0.00 in0.0 mm 0.00 in0.0 mm
03:19 AM 23.8°F-4.6°C 22.5°F-5.3°C 95% Calm Calm -- 29.89 in1012.2 mb 0.00 in0.0 mm 0.00 in0.0 mm 0.00 in0.0 mm
03:20 AM 23.8°F-4.6°C 22.5°F-5.3°C 95% Calm Calm -- 29.90 in1012.5 mb 0.00 in0.0 mm 0.00 in0.0 mm 0.00 in0.0 mm
03:21 AM 23.8°F-4.6°C 22.5°F-5.3°C 95% Calm Calm -- 29.89 in1012.2 mb 0.00 in0.0 mm 0.00 in0.0 mm 0.00 in0.0 mm
03:22 AM 23.8°F-4.6°C 22.5°F-5.3°C 95% Calm Calm -- 29.89 in1012.2 mb 0.00 in0.0 mm 0.00 in0.0 mm 0.00 in0.0 mm
03:23 AM 23.8°F-4.6°C 22.5°F-5.3°C 95% Calm Calm -- 29.90 in1012.5 mb 0.00 in0.0 mm 0.00 in0.0 mm 0.00 in0.0 mm
03:24 AM 23.8°F-4.6°C 22.5°F-5.3°C 95% Calm Calm -- 29.89 in1012.2 mb 0.00 in0.0 mm 0.00 in0.0 mm 0.00 in0.0 mm
03:27 AM 23.7°F-4.6°C 22.5°F-5.3°C 95% Calm Calm -- 29.90 in1012.5 mb 0.00 in0.0 mm 0.00 in0.0 mm 0.00 in0.0 mm
03:29 AM 23.4°F-4.8°C 22.1°F-5.5°C 95% Calm Calm -- 29.89 in1012.2 mb 0.00 in0.0 mm 0.00 in0.0 mm 0.00 in0.0 mm
03:31 AM 23.3°F-4.8°C 22.1°F-5.5°C 95% Calm Calm -- 29.89 in1012.2 mb 0.00 in0.0 mm 0.00 in0.0 mm 0.00 in0.0 mm
03:34 AM 23.2°F-4.9°C 21.9°F-5.6°C 95% Calm Calm -- 29.89 in1012.2 mb 0.00 in0.0 mm 0.00 in0.0 mm 0.00 in0.0 mm
03:35 AM 23.2°F-4.9°C 21.9°F-5.6°C 95% Calm Calm -- 29.89 in1012.2 mb 0.00 in0.0 mm 0.00 in0.0 mm 0.00 in0.0 mm
03:37 AM 22.9°F-5.1°C 21.6°F-5.8°C 95% Calm Calm -- 29.89 in1012.2 mb 0.00 in0.0 mm 0.00 in0.0 mm 0.00 in0.0 mm
03:41 AM 22.7°F-5.2°C 21.4°F-5.9°C 95% Calm Calm -- 29.89 in1012.2 mb 0.00 in0.0 mm 0.00 in0.0 mm 0.00 in0.0 mm
03:43 AM 22.7°F-5.2°C 21.4°F-5.9°C 95% Calm Calm -- 29.89 in1012.2 mb 0.00 in0.0 mm 0.00 in0.0 mm 0.00 in0.0 mm
03:48 AM 22.5°F-5.3°C 21.2°F-6.0°C 95% Calm Calm -- 29.89 in1012.2 mb 0.00 in0.0 mm 0.00 in0.0 mm 0.00 in0.0 mm
03:54 AM 22.3°F-5.4°C 21.0°F-6.1°C 95% Calm Calm -- 29.89 in1012.2 mb 0.00 in0.0 mm 0.00 in0.0 mm 0.00 in0.0 mm
03:57 AM 22.3°F-5.4°C 21.0°F-6.1°C 95% Calm Calm -- 29.88 in1011.9 mb 0.00 in0.0 mm 0.00 in0.0 mm 0.00 in0.0 mm
03:59 AM 22.3°F-5.4°C 21.0°F-6.1°C 95% Calm Calm -- 29.89 in1012.2 mb 0.00 in0.0 mm 0.00 in0.0 mm 0.00 in0.0 mm
04:00 AM 22.3°F-5.4°C 21.0°F-6.1°C 95% Calm Calm -- 29.88 in1011.9 mb 0.00 in0.0 mm 0.00 in0.0 mm 0.00 in0.0 mm
04:01 AM 22.1°F-5.5°C 20.9°F-6.2°C 95% Calm Calm -- 29.88 in1011.9 mb 0.00 in0.0 mm 0.00 in0.0 mm 0.00 in0.0 mm
04:05 AM 21.9°F-5.6°C 20.7°F-6.3°C 95% Calm Calm -- 29.88 in1011.9 mb 0.00 in0.0 mm 0.00 in0.0 mm 0.00 in0.0 mm
04:13 AM 21.7°F-5.7°C 20.5°F-6.4°C 95% Calm Calm -- 29.88 in1011.9 mb 0.00 in0.0 mm 0.00 in0.0 mm 0.00 in0.0 mm
04:25 AM 21.6°F-5.8°C 20.3°F-6.5°C 95% Calm Calm -- 29.88 in1011.9 mb 0.00 in0.0 mm 0.00 in0.0 mm 0.00 in0.0 mm
04:27 AM 21.6°F-5.8°C 20.3°F-6.5°C 95% Calm Calm -- 29.87 in1011.5 mb 0.00 in0.0 mm 0.00 in0.0 mm 0.00 in0.0 mm
04:30 AM 21.6°F-5.8°C 20.3°F-6.5°C 95% Calm Calm -- 29.88 in1011.9 mb 0.00 in0.0 mm 0.00 in0.0 mm 0.00 in0.0 mm
04:34 AM 21.3°F-5.9°C 20.2°F-6.6°C 95% Calm Calm -- 29.87 in1011.5 mb 0.00 in0.0 mm 0.00 in0.0 mm 0.00 in0.0 mm
04:36 AM 21.3°F-5.9°C 20.2°F-6.6°C 95% Calm Calm -- 29.88 in1011.9 mb 0.00 in0.0 mm 0.00 in0.0 mm 0.00 in0.0 mm
04:37 AM 21.2°F-6.0°C 20.0°F-6.7°C 95% Calm Calm -- 29.88 in1011.9 mb 0.00 in0.0 mm 0.00 in0.0 mm 0.00 in0.0 mm
04:39 AM 21.2°F-6.0°C 20.0°F-6.7°C 95% Calm Calm -- 29.87 in1011.5 mb 0.00 in0.0 mm 0.00 in0.0 mm 0.00 in0.0 mm
04:44 AM 21.2°F-6.0°C 20.0°F-6.7°C 95% Calm Calm -- 29.87 in1011.5 mb 0.00 in0.0 mm 0.00 in0.0 mm 0.00 in0.0 mm
04:47 AM 21.6°F-5.8°C 20.6°F-6.3°C 96% Calm Calm -- 29.87 in1011.5 mb 0.00 in0.0 mm 0.00 in0.0 mm 0.00 in0.0 mm
04:48 AM 21.9°F-5.6°C 20.9°F-6.2°C 96% Calm Calm -- 29.87 in1011.5 mb 0.00 in0.0 mm 0.00 in0.0 mm 0.00 in0.0 mm
04:51 AM 21.7°F-5.7°C 20.8°F-6.2°C 96% Calm Calm -- 29.87 in1011.5 mb 0.00 in0.0 mm 0.00 in0.0 mm 0.00 in0.0 mm
04:52 AM 21.6°F-5.8°C 20.6°F-6.3°C 96% Calm Calm -- 29.87 in1011.5 mb 0.00 in0.0 mm 0.00 in0.0 mm 0.00 in0.0 mm
04:55 AM 21.6°F-5.8°C 20.6°F-6.3°C 96% Calm Calm -- 29.87 in1011.5 mb 0.00 in0.0 mm 0.00 in0.0 mm 0.00 in0.0 mm
04:56 AM 21.2°F-6.0°C 20.2°F-6.6°C 96% Calm Calm -- 29.87 in1011.5 mb 0.00 in0.0 mm 0.00 in0.0 mm 0.00 in0.0 mm
04:58 AM 20.9°F-6.2°C 19.9°F-6.7°C 96% Calm Calm -- 29.87 in1011.5 mb 0.00 in0.0 mm 0.00 in0.0 mm 0.00 in0.0 mm
04:59 AM 20.9°F-6.2°C 19.9°F-6.7°C 96% Calm Calm -- 29.87 in1011.5 mb 0.00 in0.0 mm 0.00 in0.0 mm 0.00 in0.0 mm
05:00 AM 20.9°F-6.2°C 19.9°F-6.7°C 96% Calm Calm -- 29.87 in1011.5 mb 0.00 in0.0 mm 0.00 in0.0 mm 0.00 in0.0 mm
05:03 AM 20.9°F-6.2°C 19.9°F-6.7°C 96% Calm Calm -- 29.86 in1011.2 mb 0.00 in0.0 mm 0.00 in0.0 mm 0.00 in0.0 mm
05:04 AM 20.9°F-6.2°C 19.9°F-6.7°C 96% Calm Calm -- 29.87 in1011.5 mb 0.00 in0.0 mm 0.00 in0.0 mm 0.00 in0.0 mm
05:15 AM 20.9°F-6.2°C 19.9°F-6.7°C 96% Calm Calm -- 29.86 in1011.2 mb 0.00 in0.0 mm 0.00 in0.0 mm 0.00 in0.0 mm
05:19 AM 20.9°F-6.2°C 19.9°F-6.7°C 96% Calm Calm -- 29.87 in1011.5 mb 0.00 in0.0 mm 0.00 in0.0 mm 0.00 in0.0 mm
05:20 AM 20.9°F-6.2°C 19.9°F-6.7°C 96% Calm Calm -- 29.87 in1011.5 mb 0.00 in0.0 mm 0.00 in0.0 mm 0.00 in0.0 mm
05:21 AM 20.9°F-6.2°C 19.9°F-6.7°C 96% Calm Calm -- 29.86 in1011.2 mb 0.00 in0.0 mm 0.00 in0.0 mm 0.00 in0.0 mm
05:23 AM 20.9°F-6.2°C 19.9°F-6.7°C 96% Calm Calm -- 29.86 in1011.2 mb 0.00 in0.0 mm 0.00 in0.0 mm 0.00 in0.0 mm
05:25 AM 20.9°F-6.2°C 19.9°F-6.7°C 96% Calm Calm -- 29.87 in1011.5 mb 0.00 in0.0 mm 0.00 in0.0 mm 0.00 in0.0 mm
05:27 AM 20.9°F-6.2°C 19.9°F-6.7°C 96% Calm Calm -- 29.86 in1011.2 mb 0.00 in0.0 mm 0.00 in0.0 mm 0.00 in0.0 mm
05:28 AM 20.9°F-6.2°C 19.9°F-6.7°C 96% Calm Calm -- 29.86 in1011.2 mb 0.00 in0.0 mm 0.00 in0.0 mm 0.00 in0.0 mm
05:29 AM 20.7°F-6.3°C 19.7°F-6.8°C 96% Calm Calm -- 29.86 in1011.2 mb 0.00 in0.0 mm 0.00 in0.0 mm 0.00 in0.0 mm
05:35 AM 20.4°F-6.4°C 19.5°F-6.9°C 96% Calm Calm -- 29.86 in1011.2 mb 0.00 in0.0 mm 0.00 in0.0 mm 0.00 in0.0 mm
05:38 AM 20.2°F-6.6°C 18.9°F-7.3°C 95% Calm Calm -- 29.86 in1011.2 mb 0.00 in0.0 mm 0.00 in0.0 mm 0.00 in0.0 mm
05:42 AM 20.2°F-6.6°C 18.9°F-7.3°C 95% Calm Calm -- 29.86 in1011.2 mb 0.00 in0.0 mm 0.00 in0.0 mm 0.00 in0.0 mm
05:43 AM 20.2°F-6.6°C 18.9°F-7.3°C 95% Calm Calm -- 29.86 in1011.2 mb 0.00 in0.0 mm 0.00 in0.0 mm 0.00 in0.0 mm
05:44 AM 20.2°F-6.6°C 18.9°F-7.3°C 95% Calm Calm -- 29.86 in1011.2 mb 0.00 in0.0 mm 0.00 in0.0 mm 0.00 in0.0 mm
05:46 AM 20.2°F-6.6°C 18.9°F-7.3°C 95% Calm Calm -- 29.86 in1011.2 mb 0.00 in0.0 mm 0.00 in0.0 mm 0.00 in0.0 mm
05:48 AM 20.2°F-6.6°C 18.9°F-7.3°C 95% Calm Calm -- 29.86 in1011.2 mb 0.00 in0.0 mm 0.00 in0.0 mm 0.00 in0.0 mm
05:49 AM 20.2°F-6.6°C 18.9°F-7.3°C 95% Calm Calm -- 29.86 in1011.2 mb 0.00 in0.0 mm 0.00 in0.0 mm 0.00 in0.0 mm
05:50 AM 20.2°F-6.6°C 18.9°F-7.3°C 95% Calm Calm -- 29.86 in1011.2 mb 0.00 in0.0 mm 0.00 in0.0 mm 0.00 in0.0 mm
05:51 AM 20.2°F-6.6°C 18.9°F-7.3°C 95% Calm Calm -- 29.86 in1011.2 mb 0.00 in0.0 mm 0.00 in0.0 mm 0.00 in0.0 mm
05:53 AM 20.2°F-6.6°C 18.9°F-7.3°C 95% Calm Calm -- 29.86 in1011.2 mb 0.00 in0.0 mm 0.00 in0.0 mm 0.00 in0.0 mm
06:05 AM 20.4°F-6.4°C 19.3°F-7.1°C 95% Calm Calm -- 29.86 in1011.2 mb 0.00 in0.0 mm 0.00 in0.0 mm 0.00 in0.0 mm
06:06 AM 20.7°F-6.3°C 19.4°F-7.0°C 95% Calm Calm -- 29.86 in1011.2 mb 0.00 in0.0 mm 0.00 in0.0 mm 0.00 in0.0 mm
06:07 AM 20.7°F-6.3°C 19.4°F-7.0°C 95% Calm Calm -- 29.86 in1011.2 mb 0.00 in0.0 mm 0.00 in0.0 mm 0.00 in0.0 mm
06:08 AM 20.4°F-6.4°C 19.3°F-7.1°C 95% Calm Calm -- 29.86 in1011.2 mb 0.00 in0.0 mm 0.00 in0.0 mm 0.00 in0.0 mm
06:10 AM 20.0°F-6.7°C 18.7°F-7.4°C 95% Calm Calm -- 29.86 in1011.2 mb 0.00 in0.0 mm 0.00 in0.0 mm 0.00 in0.0 mm
06:11 AM 19.8°F-6.8°C 18.5°F-7.5°C 95% Calm Calm -- 29.86 in1011.2 mb 0.00 in0.0 mm 0.00 in0.0 mm 0.00 in0.0 mm
06:13 AM 19.8°F-6.8°C 18.5°F-7.5°C 95% Calm Calm -- 29.86 in1011.2 mb 0.00 in0.0 mm 0.00 in0.0 mm 0.00 in0.0 mm
06:16 AM 19.8°F-6.8°C 18.5°F-7.5°C 95% Calm Calm -- 29.86 in1011.2 mb 0.00 in0.0 mm 0.00 in0.0 mm 0.00 in0.0 mm
06:18 AM 19.8°F-6.8°C 18.5°F-7.5°C 95% Calm Calm -- 29.86 in1011.2 mb 0.00 in0.0 mm 0.00 in0.0 mm 0.00 in0.0 mm
06:23 AM 19.8°F-6.8°C 18.5°F-7.5°C 95% Calm Calm -- 29.86 in1011.2 mb 0.00 in0.0 mm 0.00 in0.0 mm 0.00 in0.0 mm
06:25 AM 19.8°F-6.8°C 18.5°F-7.5°C 95% Calm Calm -- 29.86 in1011.2 mb 0.00 in0.0 mm 0.00 in0.0 mm 0.00 in0.0 mm
06:28 AM 19.8°F-6.8°C 18.5°F-7.5°C 95% Calm Calm -- 29.86 in1011.2 mb 0.00 in0.0 mm 0.00 in0.0 mm 0.00 in0.0 mm
06:30 AM 19.8°F-6.8°C 18.5°F-7.5°C 95% Calm Calm -- 29.86 in1011.2 mb 0.00 in0.0 mm 0.00 in0.0 mm 0.00 in0.0 mm
06:31 AM 19.8°F-6.8°C 18.5°F-7.5°C 95% Calm Calm -- 29.86 in1011.2 mb 0.00 in0.0 mm 0.00 in0.0 mm 0.00 in0.0 mm
06:33 AM 19.8°F-6.8°C 18.5°F-7.5°C 95% Calm Calm -- 29.85 in1010.8 mb 0.00 in0.0 mm 0.00 in0.0 mm 0.00 in0.0 mm
06:34 AM 19.8°F-6.8°C 18.5°F-7.5°C 95% Calm Calm -- 29.86 in1011.2 mb 0.00 in0.0 mm 0.00 in0.0 mm 0.00 in0.0 mm
06:36 AM 19.8°F-6.8°C 18.5°F-7.5°C 95% Calm Calm -- 29.86 in1011.2 mb 0.00 in0.0 mm 0.00 in0.0 mm 0.00 in0.0 mm
06:37 AM 20.0°F-6.7°C 18.7°F-7.4°C 95% Calm Calm -- 29.86 in1011.2 mb 0.00 in0.0 mm 0.00 in0.0 mm 0.00 in0.0 mm
06:38 AM 20.2°F-6.6°C 18.9°F-7.3°C 95% Calm Calm -- 29.86 in1011.2 mb 0.00 in0.0 mm 0.00 in0.0 mm 0.00 in0.0 mm
06:39 AM 20.2°F-6.6°C 18.9°F-7.3°C 95% Calm Calm -- 29.85 in1010.8 mb 0.00 in0.0 mm 0.00 in0.0 mm 0.00 in0.0 mm
06:40 AM 20.2°F-6.6°C 18.9°F-7.3°C 95% Calm Calm -- 29.86 in1011.2 mb 0.00 in0.0 mm 0.00 in0.0 mm 0.00 in0.0 mm
06:41 AM 20.4°F-6.4°C 19.5°F-6.9°C 96% Calm Calm -- 29.86 in1011.2 mb 0.00 in0.0 mm 0.00 in0.0 mm 0.00 in0.0 mm
06:42 AM 20.4°F-6.4°C 19.5°F-6.9°C 96% Calm Calm -- 29.86 in1011.2 mb 0.00 in0.0 mm 0.00 in0.0 mm 0.00 in0.0 mm
06:43 AM 20.4°F-6.4°C 19.5°F-6.9°C 96% Calm Calm -- 29.85 in1010.8 mb 0.00 in0.0 mm 0.00 in0.0 mm 0.00 in0.0 mm
06:44 AM 20.4°F-6.4°C 19.5°F-6.9°C 96% Calm Calm -- 29.86 in1011.2 mb 0.00 in0.0 mm 0.00 in0.0 mm 0.00 in0.0 mm
06:45 AM 20.4°F-6.4°C 19.5°F-6.9°C 96% Calm Calm -- 29.85 in1010.8 mb 0.00 in0.0 mm 0.00 in0.0 mm 0.00 in0.0 mm
06:47 AM 20.4°F-6.4°C 19.5°F-6.9°C 96% Calm Calm -- 29.86 in1011.2 mb 0.00 in0.0 mm 0.00 in0.0 mm 0.00 in0.0 mm
06:48 AM 20.2°F-6.6°C 19.1°F-7.2°C 96% Calm Calm -- 29.86 in1011.2 mb 0.00 in0.0 mm 0.00 in0.0 mm 0.00 in0.0 mm
06:49 AM 20.2°F-6.6°C 19.1°F-7.2°C 96% Calm Calm -- 29.85 in1010.8 mb 0.00 in0.0 mm 0.00 in0.0 mm 0.00 in0.0 mm
06:57 AM 20.0°F-6.7°C 19.0°F-7.2°C 96% Calm Calm -- 29.85 in1010.8 mb 0.00 in0.0 mm 0.00 in0.0 mm 0.00 in0.0 mm
07:03 AM 19.8°F-6.8°C 18.8°F-7.3°C 96% Calm Calm -- 29.85 in1010.8 mb 0.00 in0.0 mm 0.00 in0.0 mm 0.00 in0.0 mm
07:12 AM 19.9°F-6.7°C 19.0°F-7.2°C 96% Calm Calm -- 29.85 in1010.8 mb 0.00 in0.0 mm 0.00 in0.0 mm 0.00 in0.0 mm
07:13 AM 19.8°F-6.8°C 18.8°F-7.3°C 96% Calm Calm -- 29.85 in1010.8 mb 0.00 in0.0 mm 0.00 in0.0 mm 0.00 in0.0 mm
07:14 AM 19.8°F-6.8°C 18.8°F-7.3°C 96% Calm Calm -- 29.85 in1010.8 mb 0.00 in0.0 mm 0.00 in0.0 mm 0.00 in0.0 mm
07:15 AM 19.7°F-6.8°C 18.8°F-7.3°C 96% Calm Calm -- 29.85 in1010.8 mb 0.00 in0.0 mm 0.00 in0.0 mm 0.00 in0.0 mm
07:16 AM 19.7°F-6.8°C 18.5°F-7.5°C 95% Calm Calm -- 29.85 in1010.8 mb 0.00 in0.0 mm 0.00 in0.0 mm 0.00 in0.0 mm
07:17 AM 19.7°F-6.8°C 18.5°F-7.5°C 95% Calm Calm -- 29.85 in1010.8 mb 0.00 in0.0 mm 0.00 in0.0 mm 0.00 in0.0 mm
07:18 AM 19.8°F-6.8°C 18.5°F-7.5°C 95% Calm Calm -- 29.85 in1010.8 mb 0.00 in0.0 mm 0.00 in0.0 mm 0.00 in0.0 mm
07:19 AM 19.8°F-6.8°C 18.5°F-7.5°C 95% Calm Calm -- 29.85 in1010.8 mb 0.00 in0.0 mm 0.00 in0.0 mm 0.00 in0.0 mm
07:20 AM 19.8°F-6.8°C 18.5°F-7.5°C 95% Calm Calm -- 29.85 in1010.8 mb 0.00 in0.0 mm 0.00 in0.0 mm 0.00 in0.0 mm
07:24 AM 19.8°F-6.8°C 18.5°F-7.5°C 95% Calm Calm -- 29.85 in1010.8 mb 0.00 in0.0 mm 0.00 in0.0 mm 0.00 in0.0 mm
07:26 AM 19.8°F-6.8°C 18.5°F-7.5°C 95% Calm Calm -- 29.85 in1010.8 mb 0.00 in0.0 mm 0.00 in0.0 mm 0.00 in0.0 mm
07:27 AM 19.8°F-6.8°C 18.5°F-7.5°C 95% Calm Calm -- 29.85 in1010.8 mb 0.00 in0.0 mm 0.00 in0.0 mm 0.00 in0.0 mm
07:29 AM 19.8°F-6.8°C 18.5°F-7.5°C 95% Calm Calm -- 29.84 in1010.5 mb 0.00 in0.0 mm 0.00 in0.0 mm 0.00 in0.0 mm
07:32 AM 19.8°F-6.8°C 18.5°F-7.5°C 95% Calm Calm -- 29.85 in1010.8 mb 0.00 in0.0 mm 0.00 in0.0 mm 0.00 in0.0 mm
07:33 AM 19.8°F-6.8°C 18.5°F-7.5°C 95% Calm Calm -- 29.84 in1010.5 mb 0.00 in0.0 mm 0.00 in0.0 mm 0.00 in0.0 mm
07:35 AM 19.8°F-6.8°C 18.5°F-7.5°C 95% Calm Calm -- 29.84 in1010.5 mb 0.00 in0.0 mm 0.00 in0.0 mm 0.00 in0.0 mm
07:36 AM 19.8°F-6.8°C 18.5°F-7.5°C 95% Calm Calm -- 29.85 in1010.8 mb 0.00 in0.0 mm 0.00 in0.0 mm 0.00 in0.0 mm
07:39 AM 19.8°F-6.8°C 18.5°F-7.5°C 95% Calm Calm -- 29.84 in1010.5 mb 0.00 in0.0 mm 0.00 in0.0 mm 0.00 in0.0 mm
07:40 AM 19.8°F-6.8°C 18.5°F-7.5°C 95% Calm Calm -- 29.84 in1010.5 mb 0.00 in0.0 mm 0.00 in0.0 mm 0.00 in0.0 mm
07:41 AM 20.0°F-6.7°C 18.7°F-7.4°C 95% Calm Calm -- 29.84 in1010.5 mb 0.00 in0.0 mm 0.00 in0.0 mm 0.00 in0.0 mm
07:43 AM 20.0°F-6.7°C 18.7°F-7.4°C 95% Calm Calm -- 29.85 in1010.8 mb 0.00 in0.0 mm 0.00 in0.0 mm 0.00 in0.0 mm
07:45 AM 20.0°F-6.7°C 18.7°F-7.4°C 95% Calm Calm -- 29.84 in1010.5 mb 0.00 in0.0 mm 0.00 in0.0 mm 0.00 in0.0 mm
07:46 AM 20.0°F-6.7°C 18.7°F-7.4°C 95% Calm Calm -- 29.84 in1010.5 mb 0.00 in0.0 mm 0.00 in0.0 mm 0.00 in0.0 mm
07:47 AM 20.0°F-6.7°C 18.7°F-7.4°C 95% Calm Calm -- 29.84 in1010.5 mb 0.00 in0.0 mm 0.00 in0.0 mm 0.00 in0.0 mm
07:51 AM 20.2°F-6.6°C 18.9°F-7.3°C 95% Calm Calm -- 29.85 in1010.8 mb 0.00 in0.0 mm 0.00 in0.0 mm 0.00 in0.0 mm
07:52 AM 20.2°F-6.6°C 18.9°F-7.3°C 95% Calm Calm -- 29.84 in1010.5 mb 0.00 in0.0 mm 0.00 in0.0 mm 0.00 in0.0 mm
07:55 AM 20.2°F-6.6°C 18.9°F-7.3°C 95% Calm Calm -- 29.85 in1010.8 mb 0.00 in0.0 mm 0.00 in0.0 mm 0.00 in0.0 mm
07:56 AM 20.4°F-6.4°C 19.3°F-7.1°C 95% Calm Calm -- 29.84 in1010.5 mb 0.00 in0.0 mm 0.00 in0.0 mm 0.00 in0.0 mm
07:57 AM 20.4°F-6.4°C 19.3°F-7.1°C 95% Calm Calm -- 29.85 in1010.8 mb 0.00 in0.0 mm 0.00 in0.0 mm 0.00 in0.0 mm
07:58 AM 20.7°F-6.3°C 19.4°F-7.0°C 95% Calm Calm -- 29.84 in1010.5 mb 0.00 in0.0 mm 0.00 in0.0 mm 0.00 in0.0 mm
07:59 AM 20.7°F-6.3°C 19.4°F-7.0°C 95% Calm Calm -- 29.85 in1010.8 mb 0.00 in0.0 mm 0.00 in0.0 mm 0.00 in0.0 mm
08:02 AM 20.7°F-6.3°C 19.4°F-7.0°C 95% Calm Calm -- 29.84 in1010.5 mb 0.00 in0.0 mm 0.00 in0.0 mm 0.00 in0.0 mm
08:05 AM 20.7°F-6.3°C 19.4°F-7.0°C 95% Calm Calm -- 29.85 in1010.8 mb 0.00 in0.0 mm 0.00 in0.0 mm 0.00 in0.0 mm
08:06 AM 20.7°F-6.3°C 19.4°F-7.0°C 95% Calm Calm -- 29.85 in1010.8 mb 0.00 in0.0 mm 0.00 in0.0 mm 0.00 in0.0 mm
08:07 AM 20.9°F-6.2°C 19.6°F-6.9°C 95% Calm Calm -- 29.85 in1010.8 mb 0.00 in0.0 mm 0.00 in0.0 mm 0.00 in0.0 mm
08:10 AM 21.2°F-6.0°C 20.0°F-6.7°C 95% Calm Calm -- 29.85 in1010.8 mb 0.00 in0.0 mm 0.00 in0.0 mm 0.00 in0.0 mm
08:13 AM 21.3°F-5.9°C 20.2°F-6.6°C 95% Calm Calm -- 29.85 in1010.8 mb 0.00 in0.0 mm 0.00 in0.0 mm 0.00 in0.0 mm
08:15 AM 21.6°F-5.8°C 20.3°F-6.5°C 95% Calm Calm -- 29.85 in1010.8 mb 0.00 in0.0 mm 0.00 in0.0 mm 0.00 in0.0 mm
08:16 AM 21.9°F-5.6°C 20.9°F-6.2°C 96% Calm Calm -- 29.85 in1010.8 mb 0.00 in0.0 mm 0.00 in0.0 mm 0.00 in0.0 mm
08:17 AM 21.9°F-5.6°C 20.9°F-6.2°C 96% Calm Calm -- 29.85 in1010.8 mb 0.00 in0.0 mm 0.00 in0.0 mm 0.00 in0.0 mm
08:18 AM 21.9°F-5.6°C 20.9°F-6.2°C 96% Calm Calm -- 29.85 in1010.8 mb 0.00 in0.0 mm 0.00 in0.0 mm 0.00 in0.0 mm
08:20 AM 21.9°F-5.6°C 20.9°F-6.2°C 96% Calm Calm -- 29.84 in1010.5 mb 0.00 in0.0 mm 0.00 in0.0 mm 0.00 in0.0 mm
08:21 AM 21.9°F-5.6°C 20.9°F-6.2°C 96% Calm Calm -- 29.85 in1010.8 mb 0.00 in0.0 mm 0.00 in0.0 mm 0.00 in0.0 mm
08:22 AM 22.1°F-5.5°C 21.1°F-6.1°C 96% Calm Calm -- 29.85 in1010.8 mb 0.00 in0.0 mm 0.00 in0.0 mm 0.00 in0.0 mm
08:23 AM 22.1°F-5.5°C 21.1°F-6.1°C 96% Calm Calm -- 29.85 in1010.8 mb 0.00 in0.0 mm 0.00 in0.0 mm 0.00 in0.0 mm
08:24 AM 22.3°F-5.4°C 21.3°F-5.9°C 96% Calm Calm -- 29.85 in1010.8 mb 0.00 in0.0 mm 0.00 in0.0 mm 0.00 in0.0 mm
08:25 AM 22.5°F-5.3°C 21.5°F-5.8°C 96% Calm Calm -- 29.85 in1010.8 mb 0.00 in0.0 mm 0.00 in0.0 mm 0.00 in0.0 mm
08:26 AM 22.5°F-5.3°C 21.5°F-5.8°C 96% Calm Calm -- 29.84 in1010.5 mb 0.00 in0.0 mm 0.00 in0.0 mm 0.00 in0.0 mm
08:28 AM 22.5°F-5.3°C 21.5°F-5.8°C 96% Calm Calm -- 29.85 in1010.8 mb 0.00 in0.0 mm 0.00 in0.0 mm 0.00 in0.0 mm
08:30 AM 22.9°F-5.1°C 21.8°F-5.7°C 96% Calm Calm -- 29.84 in1010.5 mb 0.00 in0.0 mm 0.00 in0.0 mm 0.00 in0.0 mm
08:31 AM 22.9°F-5.1°C 21.8°F-5.7°C 96% Calm Calm -- 29.84 in1010.5 mb 0.00 in0.0 mm 0.00 in0.0 mm 0.00 in0.0 mm
08:32 AM 23.2°F-4.9°C 22.2°F-5.4°C 96% Calm Calm -- 29.85 in1010.8 mb 0.00 in0.0 mm 0.00 in0.0 mm 0.00 in0.0 mm
08:34 AM 23.3°F-4.8°C 22.4°F-5.3°C 96% Calm Calm -- 29.85 in1010.8 mb 0.00 in0.0 mm 0.00 in0.0 mm 0.00 in0.0 mm
08:36 AM 23.3°F-4.8°C 22.4°F-5.3°C 96% Calm Calm -- 29.84 in1010.5 mb 0.00 in0.0 mm 0.00 in0.0 mm 0.00 in0.0 mm
08:37 AM 23.4°F-4.8°C 22.4°F-5.3°C 96% Calm Calm -- 29.85 in1010.8 mb 0.00 in0.0 mm 0.00 in0.0 mm 0.00 in0.0 mm
08:38 AM 23.7°F-4.6°C 22.7°F-5.2°C 96% Calm Calm -- 29.84 in1010.5 mb 0.00 in0.0 mm 0.00 in0.0 mm 0.00 in0.0 mm
08:39 AM 23.7°F-4.6°C 22.7°F-5.2°C 96% Calm Calm -- 29.84 in1010.5 mb 0.00 in0.0 mm 0.00 in0.0 mm 0.00 in0.0 mm
08:40 AM 23.7°F-4.6°C 22.7°F-5.2°C 96% Calm Calm -- 29.85 in1010.8 mb 0.00 in0.0 mm 0.00 in0.0 mm 0.00 in0.0 mm
08:41 AM 23.8°F-4.6°C 22.7°F-5.2°C 96% Calm Calm -- 29.84 in1010.5 mb 0.00 in0.0 mm 0.00 in0.0 mm 0.00 in0.0 mm
08:43 AM 24.1°F-4.4°C 23.1°F-4.9°C 96% Calm Calm -- 29.84 in1010.5 mb 0.00 in0.0 mm 0.00 in0.0 mm 0.00 in0.0 mm
08:45 AM 24.1°F-4.4°C 23.1°F-4.9°C 96% Calm Calm -- 29.84 in1010.5 mb 0.00 in0.0 mm 0.00 in0.0 mm 0.00 in0.0 mm
08:46 AM 24.2°F-4.3°C 23.3°F-4.8°C 96% Calm Calm -- 29.84 in1010.5 mb 0.00 in0.0 mm 0.00 in0.0 mm 0.00 in0.0 mm
08:47 AM 24.2°F-4.3°C 23.3°F-4.8°C 96% Calm Calm -- 29.84 in1010.5 mb 0.00 in0.0 mm 0.00 in0.0 mm 0.00 in0.0 mm
08:48 AM 24.2°F-4.3°C 23.3°F-4.8°C 96% Calm Calm -- 29.84 in1010.5 mb 0.00 in0.0 mm 0.00 in0.0 mm 0.00 in0.0 mm
08:49 AM 24.4°F-4.2°C 23.4°F-4.8°C 96% Calm Calm -- 29.84 in1010.5 mb 0.00 in0.0 mm 0.00 in0.0 mm 0.00 in0.0 mm
08:50 AM 24.6°F-4.1°C 23.6°F-4.7°C 96% Calm Calm -- 29.84 in1010.5 mb 0.00 in0.0 mm 0.00 in0.0 mm 0.00 in0.0 mm
08:51 AM 24.8°F-4.0°C 23.8°F-4.6°C 96% Calm Calm -- 29.84 in1010.5 mb 0.00 in0.0 mm 0.00 in0.0 mm 0.00 in0.0 mm
08:53 AM 25.0°F-3.9°C 24.0°F-4.4°C 96% Calm Calm -- 29.84 in1010.5 mb 0.00 in0.0 mm 0.00 in0.0 mm 0.00 in0.0 mm
08:54 AM 25.0°F-3.9°C 24.0°F-4.4°C 96% Calm Calm -- 29.84 in1010.5 mb 0.00 in0.0 mm 0.00 in0.0 mm 0.00 in0.0 mm
08:55 AM 25.1°F-3.8°C 24.2°F-4.3°C 96% Calm Calm -- 29.84 in1010.5 mb 0.00 in0.0 mm 0.00 in0.0 mm 0.00 in0.0 mm
08:56 AM 25.2°F-3.8°C 24.2°F-4.3°C 96% Calm Calm -- 29.84 in1010.5 mb 0.00 in0.0 mm 0.00 in0.0 mm 0.00 in0.0 mm
08:57 AM 25.2°F-3.8°C 24.2°F-4.3°C 96% Calm Calm -- 29.84 in1010.5 mb 0.00 in0.0 mm 0.00 in0.0 mm 0.00 in0.0 mm
08:59 AM 25.2°F-3.8°C 24.2°F-4.3°C 96% Calm Calm -- 29.84 in1010.5 mb 0.00 in0.0 mm 0.00 in0.0 mm 0.00 in0.0 mm
09:01 AM 25.7°F-3.5°C 24.7°F-4.1°C 96% Calm Calm -- 29.84 in1010.5 mb 0.00 in0.0 mm 0.00 in0.0 mm 0.00 in0.0 mm
09:02 AM 25.7°F-3.5°C 24.7°F-4.1°C 96% Calm Calm -- 29.84 in1010.5 mb 0.00 in0.0 mm 0.00 in0.0 mm 0.00 in0.0 mm
09:03 AM 25.7°F-3.5°C 24.7°F-4.1°C 96% Calm Calm -- 29.84 in1010.5 mb 0.00 in0.0 mm 0.00 in0.0 mm 0.00 in0.0 mm
09:04 AM 25.7°F-3.5°C 24.7°F-4.1°C 96% Calm Calm -- 29.84 in1010.5 mb 0.00 in0.0 mm 0.00 in0.0 mm 0.00 in0.0 mm
09:06 AM 25.7°F-3.5°C 24.7°F-4.1°C 96% Calm Calm -- 29.84 in1010.5 mb 0.00 in0.0 mm 0.00 in0.0 mm 0.00 in0.0 mm
09:07 AM 25.7°F-3.5°C 24.7°F-4.1°C 96% Calm Calm -- 29.84 in1010.5 mb 0.00 in0.0 mm 0.00 in0.0 mm 0.00 in0.0 mm
09:08 AM 25.7°F-3.5°C 24.7°F-4.1°C 96% Calm Calm -- 29.84 in1010.5 mb 0.00 in0.0 mm 0.00 in0.0 mm 0.00 in0.0 mm
09:09 AM 25.7°F-3.5°C 24.4°F-4.2°C 95% Calm Calm -- 29.84 in1010.5 mb 0.00 in0.0 mm 0.00 in0.0 mm 0.00 in0.0 mm
09:10 AM 25.7°F-3.5°C 24.4°F-4.2°C 95% Calm Calm -- 29.85 in1010.8 mb 0.00 in0.0 mm 0.00 in0.0 mm 0.00 in0.0 mm
09:12 AM 24.8°F-4.0°C 23.0°F-5.0°C 93% Calm Calm -- 29.84 in1010.5 mb 0.00 in0.0 mm 0.00 in0.0 mm 0.00 in0.0 mm
09:13 AM 24.4°F-4.2°C 22.7°F-5.2°C 93% Calm Calm -- 29.84 in1010.5 mb 0.00 in0.0 mm 0.00 in0.0 mm 0.00 in0.0 mm
09:14 AM 24.2°F-4.3°C 22.5°F-5.3°C 93% Calm Calm -- 29.84 in1010.5 mb 0.00 in0.0 mm 0.00 in0.0 mm 0.00 in0.0 mm
09:15 AM 24.2°F-4.3°C 23.0°F-5.0°C 95% Calm Calm -- 29.84 in1010.5 mb 0.00 in0.0 mm 0.00 in0.0 mm 0.00 in0.0 mm
09:16 AM 24.4°F-4.2°C 23.2°F-4.9°C 95% Calm Calm -- 29.84 in1010.5 mb 0.00 in0.0 mm 0.00 in0.0 mm 0.00 in0.0 mm
09:17 AM 24.4°F-4.2°C 23.2°F-4.9°C 95% Calm Calm -- 29.85 in1010.8 mb 0.00 in0.0 mm 0.00 in0.0 mm 0.00 in0.0 mm
09:18 AM 24.6°F-4.1°C 23.4°F-4.8°C 95% Calm Calm -- 29.84 in1010.5 mb 0.00 in0.0 mm 0.00 in0.0 mm 0.00 in0.0 mm
09:19 AM 24.4°F-4.2°C 23.2°F-4.9°C 95% Calm Calm -- 29.84 in1010.5 mb 0.00 in0.0 mm 0.00 in0.0 mm 0.00 in0.0 mm
09:20 AM 24.6°F-4.1°C 23.6°F-4.7°C 96% Calm Calm -- 29.84 in1010.5 mb 0.00 in0.0 mm 0.00 in0.0 mm 0.00 in0.0 mm
09:22 AM 24.8°F-4.0°C 23.8°F-4.6°C 96% Calm Calm -- 29.84 in1010.5 mb 0.00 in0.0 mm 0.00 in0.0 mm 0.00 in0.0 mm
09:24 AM 24.8°F-4.0°C 23.8°F-4.6°C 96% Calm Calm -- 29.84 in1010.5 mb 0.00 in0.0 mm 0.00 in0.0 mm 0.00 in0.0 mm
09:26 AM 25.0°F-3.9°C 24.0°F-4.4°C 96% Calm Calm -- 29.84 in1010.5 mb 0.00 in0.0 mm 0.00 in0.0 mm 0.00 in0.0 mm
09:28 AM 25.2°F-3.8°C 24.2°F-4.3°C 96% Calm Calm -- 29.84 in1010.5 mb 0.00 in0.0 mm 0.00 in0.0 mm 0.00 in0.0 mm
09:29 AM 25.2°F-3.8°C 24.2°F-4.3°C 96% Calm Calm -- 29.84 in1010.5 mb 0.00 in0.0 mm 0.00 in0.0 mm 0.00 in0.0 mm
09:30 AM 25.1°F-3.8°C 24.2°F-4.3°C 96% Calm Calm -- 29.84 in1010.5 mb 0.00 in0.0 mm 0.00 in0.0 mm 0.00 in0.0 mm
09:31 AM 25.1°F-3.8°C 24.2°F-4.3°C 96% Calm Calm -- 29.84 in1010.5 mb 0.00 in0.0 mm 0.00 in0.0 mm 0.00 in0.0 mm
09:32 AM 25.1°F-3.8°C 24.2°F-4.3°C 96% Calm Calm -- 29.84 in1010.5 mb 0.00 in0.0 mm 0.00 in0.0 mm 0.00 in0.0 mm
09:33 AM 25.2°F-3.8°C 24.2°F-4.3°C 96% Calm Calm -- 29.84 in1010.5 mb 0.00 in0.0 mm 0.00 in0.0 mm 0.00 in0.0 mm
09:35 AM 25.2°F-3.8°C 24.2°F-4.3°C 96% Calm Calm -- 29.84 in1010.5 mb 0.00 in0.0 mm 0.00 in0.0 mm 0.00 in0.0 mm
09:37 AM 25.4°F-3.7°C 24.3°F-4.3°C 96% Calm Calm -- 29.84 in1010.5 mb 0.00 in0.0 mm 0.00 in0.0 mm 0.00 in0.0 mm
09:39 AM 25.2°F-3.8°C 24.2°F-4.3°C 96% Calm Calm -- 29.84 in1010.5 mb 0.00 in0.0 mm 0.00 in0.0 mm 0.00 in0.0 mm
09:41 AM 25.4°F-3.7°C 24.3°F-4.3°C 96% Calm Calm -- 29.84 in1010.5 mb 0.00 in0.0 mm 0.00 in0.0 mm 0.00 in0.0 mm
09:42 AM 25.7°F-3.5°C 24.7°F-4.1°C 96% Calm Calm -- 29.84 in1010.5 mb 0.00 in0.0 mm 0.00 in0.0 mm 0.00 in0.0 mm
09:43 AM 25.9°F-3.4°C 24.9°F-3.9°C 96% Calm Calm -- 29.84 in1010.5 mb 0.00 in0.0 mm 0.00 in0.0 mm 0.00 in0.0 mm
09:44 AM 25.9°F-3.4°C 24.9°F-3.9°C 96% Calm Calm -- 29.84 in1010.5 mb 0.00 in0.0 mm 0.00 in0.0 mm 0.00 in0.0 mm
09:45 AM 25.9°F-3.4°C 24.9°F-3.9°C 96% Calm Calm -- 29.84 in1010.5 mb 0.00 in0.0 mm 0.00 in0.0 mm 0.00 in0.0 mm
09:46 AM 25.9°F-3.4°C 24.9°F-3.9°C 96% Calm Calm -- 29.84 in1010.5 mb 0.00 in0.0 mm 0.00 in0.0 mm 0.00 in0.0 mm
09:47 AM 25.9°F-3.4°C 24.9°F-3.9°C 96% Calm Calm -- 29.84 in1010.5 mb 0.00 in0.0 mm 0.00 in0.0 mm 0.00 in0.0 mm
09:48 AM 26.1°F-3.3°C 25.1°F-3.8°C 96% Calm Calm -- 29.84 in1010.5 mb 0.00 in0.0 mm 0.00 in0.0 mm 0.00 in0.0 mm
09:52 AM 26.1°F-3.3°C 25.1°F-3.8°C 96% Calm Calm -- 29.84 in1010.5 mb 0.00 in0.0 mm 0.00 in0.0 mm 0.00 in0.0 mm
09:53 AM 26.1°F-3.3°C 25.1°F-3.8°C 96% Calm Calm -- 29.84 in1010.5 mb 0.00 in0.0 mm 0.00 in0.0 mm 0.00 in0.0 mm
09:54 AM 26.1°F-3.3°C 25.1°F-3.8°C 96% Calm Calm -- 29.84 in1010.5 mb 0.00 in0.0 mm 0.00 in0.0 mm 0.00 in0.0 mm
09:55 AM 26.1°F-3.3°C 25.1°F-3.8°C 96% Calm Calm -- 29.84 in1010.5 mb 0.00 in0.0 mm 0.00 in0.0 mm 0.00 in0.0 mm
09:56 AM 26.2°F-3.2°C 25.2°F-3.8°C 96% Calm Calm -- 29.84 in1010.5 mb 0.00 in0.0 mm 0.00 in0.0 mm 0.00 in0.0 mm
09:58 AM 26.2°F-3.2°C 25.2°F-3.8°C 96% Calm Calm -- 29.84 in1010.5 mb 0.00 in0.0 mm 0.00 in0.0 mm 0.00 in0.0 mm
09:59 AM 26.3°F-3.2°C 25.0°F-3.9°C 95% Calm Calm -- 29.84 in1010.5 mb 0.00 in0.0 mm 0.00 in0.0 mm 0.00 in0.0 mm
10:01 AM 26.3°F-3.2°C 25.0°F-3.9°C 95% Calm Calm -- 29.83 in1010.2 mb 0.00 in0.0 mm 0.00 in0.0 mm 0.00 in0.0 mm
10:02 AM 26.6°F-3.0°C 25.6°F-3.6°C 96% Calm Calm -- 29.84 in1010.5 mb 0.00 in0.0 mm 0.00 in0.0 mm 0.00 in0.0 mm
10:04 AM 26.7°F-2.9°C 25.8°F-3.4°C 96% Calm Calm -- 29.84 in1010.5 mb 0.00 in0.0 mm 0.00 in0.0 mm 0.00 in0.0 mm
10:05 AM 27.0°F-2.8°C 26.0°F-3.3°C 96% Calm Calm -- 29.84 in1010.5 mb 0.00 in0.0 mm 0.00 in0.0 mm 0.00 in0.0 mm
10:07 AM 27.5°F-2.5°C 26.5°F-3.1°C 96% Calm Calm -- 29.83 in1010.2 mb 0.00 in0.0 mm 0.00 in0.0 mm 0.00 in0.0 mm
10:08 AM 27.5°F-2.5°C 26.5°F-3.1°C 96% Calm Calm -- 29.84 in1010.5 mb 0.00 in0.0 mm 0.00 in0.0 mm 0.00 in0.0 mm
10:09 AM 27.6°F-2.4°C 26.7°F-2.9°C 96% Calm Calm -- 29.84 in1010.5 mb 0.00 in0.0 mm 0.00 in0.0 mm 0.00 in0.0 mm
10:10 AM 28.3°F-2.1°C 27.2°F-2.7°C 96% Calm Calm -- 29.83 in1010.2 mb 0.00 in0.0 mm 0.00 in0.0 mm 0.00 in0.0 mm
10:11 AM 28.2°F-2.1°C 27.2°F-2.7°C 96% Calm Calm -- 29.83 in1010.2 mb 0.00 in0.0 mm 0.00 in0.0 mm 0.00 in0.0 mm
10:12 AM 27.9°F-2.3°C 26.9°F-2.8°C 96% Calm Calm -- 29.83 in1010.2 mb 0.00 in0.0 mm 0.00 in0.0 mm 0.00 in0.0 mm
10:13 AM 27.6°F-2.4°C 26.7°F-2.9°C 96% Calm Calm -- 29.83 in1010.2 mb 0.00 in0.0 mm 0.00 in0.0 mm 0.00 in0.0 mm
10:14 AM 28.2°F-2.1°C 27.2°F-2.7°C 96% Calm Calm -- 29.83 in1010.2 mb 0.00 in0.0 mm 0.00 in0.0 mm 0.00 in0.0 mm
10:15 AM 28.2°F-2.1°C 27.2°F-2.7°C 96% Calm Calm -- 29.83 in1010.2 mb 0.00 in0.0 mm 0.00 in0.0 mm 0.00 in0.0 mm
10:16 AM 28.2°F-2.1°C 27.2°F-2.7°C 96% Calm Calm -- 29.83 in1010.2 mb 0.00 in0.0 mm 0.00 in0.0 mm 0.00 in0.0 mm
10:17 AM 28.3°F-2.1°C 27.2°F-2.7°C 96% Calm Calm -- 29.84 in1010.5 mb 0.00 in0.0 mm 0.00 in0.0 mm 0.00 in0.0 mm
10:18 AM 28.7°F-1.8°C 27.7°F-2.4°C 96% Calm Calm -- 29.84 in1010.5 mb 0.00 in0.0 mm 0.00 in0.0 mm 0.00 in0.0 mm
10:19 AM 28.7°F-1.8°C 27.7°F-2.4°C 96% Calm Calm -- 29.83 in1010.2 mb 0.00 in0.0 mm 0.00 in0.0 mm 0.00 in0.0 mm
10:21 AM 28.7°F-1.8°C 27.7°F-2.4°C 96% Calm Calm -- 29.83 in1010.2 mb 0.00 in0.0 mm 0.00 in0.0 mm 0.00 in0.0 mm
10:22 AM 28.8°F-1.8°C 27.7°F-2.4°C 96% Calm Calm -- 29.83 in1010.2 mb 0.00 in0.0 mm 0.00 in0.0 mm 0.00 in0.0 mm
10:23 AM 28.7°F-1.8°C 27.5°F-2.5°C 95% Calm Calm -- 29.83 in1010.2 mb 0.00 in0.0 mm 0.00 in0.0 mm 0.00 in0.0 mm
10:24 AM 28.7°F-1.8°C 27.5°F-2.5°C 95% Calm Calm -- 29.84 in1010.5 mb 0.00 in0.0 mm 0.00 in0.0 mm 0.00 in0.0 mm
10:25 AM 28.6°F-1.9°C 27.3°F-2.6°C 95% Calm Calm -- 29.83 in1010.2 mb 0.00 in0.0 mm 0.00 in0.0 mm 0.00 in0.0 mm
10:26 AM 28.6°F-1.9°C 27.3°F-2.6°C 95% Calm Calm -- 29.83 in1010.2 mb 0.00 in0.0 mm 0.00 in0.0 mm 0.00 in0.0 mm
10:28 AM 28.6°F-1.9°C 27.3°F-2.6°C 95% Calm Calm -- 29.84 in1010.5 mb 0.00 in0.0 mm 0.00 in0.0 mm 0.00 in0.0 mm
10:29 AM 28.6°F-1.9°C 27.3°F-2.6°C 95% Calm Calm -- 29.84 in1010.5 mb 0.00 in0.0 mm 0.00 in0.0 mm 0.00 in0.0 mm
10:30 AM 28.3°F-2.1°C 27.0°F-2.8°C 95% 4.0 mph NNW6.4 kmh NNW -- 29.84 in1010.5 mb 0.00 in0.0 mm 0.00 in0.0 mm 0.00 in0.0 mm
10:31 AM 28.3°F-2.1°C 26.4°F-3.1°C 93% 4.0 mph NW6.4 kmh NW -- 29.83 in1010.2 mb 0.00 in0.0 mm 0.00 in0.0 mm 0.00 in0.0 mm
10:32 AM 28.2°F-2.1°C 26.4°F-3.1°C 93% 3.0 mph WNW4.8 kmh WNW -- 29.83 in1010.2 mb 0.00 in0.0 mm 0.00 in0.0 mm 0.00 in0.0 mm
10:33 AM 28.2°F-2.1°C 26.4°F-3.1°C 93% 4.0 mph NW6.4 kmh NW -- 29.83 in1010.2 mb 0.00 in0.0 mm 0.00 in0.0 mm 0.00 in0.0 mm
10:35 AM 28.2°F-2.1°C 26.4°F-3.1°C 93% 3.0 mph NW4.8 kmh NW -- 29.84 in1010.5 mb 0.00 in0.0 mm 0.00 in0.0 mm 0.00 in0.0 mm
10:36 AM 28.3°F-2.1°C 26.4°F-3.1°C 93% 4.0 mph NW6.4 kmh NW -- 29.84 in1010.5 mb 0.00 in0.0 mm 0.00 in0.0 mm 0.00 in0.0 mm
10:37 AM 28.6°F-1.9°C 26.8°F-2.9°C 93% 3.0 mph NW4.8 kmh NW -- 29.84 in1010.5 mb 0.00 in0.0 mm 0.00 in0.0 mm 0.00 in0.0 mm
10:38 AM 28.6°F-1.9°C 26.8°F-2.9°C 93% 5.0 mph WNW8.0 kmh WNW -- 29.84 in1010.5 mb 0.00 in0.0 mm 0.00 in0.0 mm 0.00 in0.0 mm
10:39 AM 28.7°F-1.8°C 27.0°F-2.8°C 93% 5.0 mph NW8.0 kmh NW -- 29.84 in1010.5 mb 0.00 in0.0 mm 0.00 in0.0 mm 0.00 in0.0 mm
10:40 AM 28.7°F-1.8°C 27.0°F-2.8°C 93% 2.0 mph WNW3.2 kmh WNW -- 29.84 in1010.5 mb 0.00 in0.0 mm 0.00 in0.0 mm 0.00 in0.0 mm
10:41 AM 28.8°F-1.8°C 27.0°F-2.8°C 93% 2.0 mph 3.2 kmh -- 29.84 in1010.5 mb 0.00 in0.0 mm 0.00 in0.0 mm 0.00 in0.0 mm
10:42 AM 29.1°F-1.6°C 27.8°F-2.3°C 95% 5.0 mph NW8.0 kmh NW -- 29.84 in1010.5 mb 0.00 in0.0 mm 0.00 in0.0 mm 0.00 in0.0 mm
10:43 AM 29.1°F-1.6°C 27.8°F-2.3°C 95% 2.0 mph NW3.2 kmh NW -- 29.84 in1010.5 mb 0.00 in0.0 mm 0.00 in0.0 mm 0.00 in0.0 mm
10:44 AM 29.1°F-1.6°C 27.8°F-2.3°C 95% 6.0 mph WNW9.7 kmh WNW -- 29.84 in1010.5 mb 0.00 in0.0 mm 0.00 in0.0 mm 0.00 in0.0 mm
10:45 AM 28.8°F-1.8°C 27.0°F-2.8°C 93% 4.0 mph SSW6.4 kmh SSW -- 29.84 in1010.5 mb 0.00 in0.0 mm 0.00 in0.0 mm 0.00 in0.0 mm
10:46 AM 28.8°F-1.8°C 27.0°F-2.8°C 93% 3.0 mph WNW4.8 kmh WNW -- 29.84 in1010.5 mb 0.00 in0.0 mm 0.00 in0.0 mm 0.00 in0.0 mm
10:47 AM 28.8°F-1.8°C 27.0°F-2.8°C 93% 4.0 mph WNW6.4 kmh WNW -- 29.84 in1010.5 mb 0.00 in0.0 mm 0.00 in0.0 mm 0.00 in0.0 mm
10:48 AM 28.8°F-1.8°C 27.0°F-2.8°C 93% 4.0 mph W6.4 kmh W -- 29.84 in1010.5 mb 0.00 in0.0 mm 0.00 in0.0 mm 0.00 in0.0 mm
10:49 AM 28.7°F-1.8°C 27.0°F-2.8°C 93% 3.0 mph WNW4.8 kmh WNW -- 29.84 in1010.5 mb 0.00 in0.0 mm 0.00 in0.0 mm 0.00 in0.0 mm
10:50 AM 29.1°F-1.6°C 27.3°F-2.6°C 93% 4.0 mph WNW6.4 kmh WNW -- 29.85 in1010.8 mb 0.00 in0.0 mm 0.00 in0.0 mm 0.00 in0.0 mm
10:52 AM 29.1°F-1.6°C 27.3°F-2.6°C 93% 5.0 mph WNW8.0 kmh WNW -- 29.84 in1010.5 mb 0.00 in0.0 mm 0.00 in0.0 mm 0.00 in0.0 mm
10:53 AM 29.1°F-1.6°C 27.3°F-2.6°C 93% 6.0 mph NW9.7 kmh NW -- 29.84 in1010.5 mb 0.00 in0.0 mm 0.00 in0.0 mm 0.00 in0.0 mm
10:54 AM 29.1°F-1.6°C 27.3°F-2.6°C 93% 5.0 mph WNW8.0 kmh WNW -- 29.84 in1010.5 mb 0.00 in0.0 mm 0.00 in0.0 mm 0.00 in0.0 mm
10:55 AM 28.8°F-1.8°C 27.0°F-2.8°C 93% 4.0 mph W6.4 kmh W -- 29.84 in1010.5 mb 0.00 in0.0 mm 0.00 in0.0 mm 0.00 in0.0 mm
10:56 AM 28.8°F-1.8°C 27.0°F-2.8°C 93% 3.0 mph W4.8 kmh W -- 29.85 in1010.8 mb 0.00 in0.0 mm 0.00 in0.0 mm 0.00 in0.0 mm
10:57 AM 28.8°F-1.8°C 27.0°F-2.8°C 93% 5.0 mph WNW8.0 kmh WNW -- 29.84 in1010.5 mb 0.00 in0.0 mm 0.00 in0.0 mm 0.00 in0.0 mm
10:58 AM 28.8°F-1.8°C 27.0°F-2.8°C 93% 4.0 mph WNW6.4 kmh WNW -- 29.84 in1010.5 mb 0.00 in0.0 mm 0.00 in0.0 mm 0.00 in0.0 mm
10:59 AM 29.1°F-1.6°C 27.3°F-2.6°C 93% 3.0 mph WNW4.8 kmh WNW -- 29.84 in1010.5 mb 0.00 in0.0 mm 0.00 in0.0 mm 0.00 in0.0 mm
11:00 AM 29.2°F-1.6°C 27.3°F-2.6°C 93% 3.0 mph NW4.8 kmh NW -- 29.84 in1010.5 mb 0.00 in0.0 mm 0.00 in0.0 mm 0.00 in0.0 mm
11:01 AM 29.2°F-1.6°C 27.3°F-2.6°C 93% 2.0 mph WNW3.2 kmh WNW -- 29.84 in1010.5 mb 0.00 in0.0 mm 0.00 in0.0 mm 0.00 in0.0 mm
11:02 AM 29.5°F-1.4°C 27.7°F-2.4°C 93% 3.0 mph NNW4.8 kmh NNW -- 29.84 in1010.5 mb 0.00 in0.0 mm 0.00 in0.0 mm 0.00 in0.0 mm
11:03 AM 29.5°F-1.4°C 27.7°F-2.4°C 93% 4.0 mph WNW6.4 kmh WNW -- 29.84 in1010.5 mb 0.00 in0.0 mm 0.00 in0.0 mm 0.00 in0.0 mm
11:04 AM 29.5°F-1.4°C 27.7°F-2.4°C 93% 3.0 mph WNW4.8 kmh WNW -- 29.84 in1010.5 mb 0.00 in0.0 mm 0.00 in0.0 mm 0.00 in0.0 mm
11:05 AM 29.5°F-1.4°C 27.7°F-2.4°C 93% 3.0 mph NW4.8 kmh NW -- 29.84 in1010.5 mb 0.00 in0.0 mm 0.00 in0.0 mm 0.00 in0.0 mm
11:06 AM 29.6°F-1.3°C 27.9°F-2.3°C 93% 2.0 mph WNW3.2 kmh WNW -- 29.85 in1010.8 mb 0.00 in0.0 mm 0.00 in0.0 mm 0.00 in0.0 mm
11:07 AM 29.8°F-1.2°C 28.0°F-2.2°C 93% 3.0 mph WNW4.8 kmh WNW -- 29.84 in1010.5 mb 0.00 in0.0 mm 0.00 in0.0 mm 0.00 in0.0 mm
11:08 AM 29.8°F-1.2°C 28.0°F-2.2°C 93% 3.0 mph NW4.8 kmh NW -- 29.84 in1010.5 mb 0.00 in0.0 mm 0.00 in0.0 mm 0.00 in0.0 mm
11:09 AM 29.6°F-1.3°C 27.9°F-2.3°C 93% 3.0 mph WNW4.8 kmh WNW -- 29.84 in1010.5 mb 0.00 in0.0 mm 0.00 in0.0 mm 0.00 in0.0 mm
11:10 AM 29.6°F-1.3°C 27.9°F-2.3°C 93% 5.0 mph WNW8.0 kmh WNW -- 29.84 in1010.5 mb 0.00 in0.0 mm 0.00 in0.0 mm 0.00 in0.0 mm
11:11 AM 29.8°F-1.2°C 28.0°F-2.2°C 93% 2.0 mph NNE3.2 kmh NNE -- 29.84 in1010.5 mb 0.00 in0.0 mm 0.00 in0.0 mm 0.00 in0.0 mm
11:12 AM 29.8°F-1.2°C 28.0°F-2.2°C 93% 4.0 mph WNW6.4 kmh WNW -- 29.84 in1010.5 mb 0.00 in0.0 mm 0.00 in0.0 mm 0.00 in0.0 mm
11:13 AM 29.8°F-1.2°C 28.0°F-2.2°C 93% 3.0 mph WNW4.8 kmh WNW -- 29.84 in1010.5 mb 0.00 in0.0 mm 0.00 in0.0 mm 0.00 in0.0 mm
11:14 AM 30.0°F-1.1°C 28.2°F-2.1°C 93% 4.0 mph NW6.4 kmh NW -- 29.84 in1010.5 mb 0.00 in0.0 mm 0.00 in0.0 mm 0.00 in0.0 mm
11:15 AM 30.1°F-1.1°C 28.2°F-2.1°C 93% 5.0 mph WNW8.0 kmh WNW -- 29.84 in1010.5 mb 0.00 in0.0 mm 0.00 in0.0 mm 0.00 in0.0 mm
11:16 AM 30.1°F-1.1°C 28.2°F-2.1°C 93% 4.0 mph WNW6.4 kmh WNW -- 29.84 in1010.5 mb 0.00 in0.0 mm 0.00 in0.0 mm 0.00 in0.0 mm
11:17 AM 30.3°F-0.9°C 28.6°F-1.9°C 93% 2.0 mph NNE3.2 kmh NNE -- 29.84 in1010.5 mb 0.00 in0.0 mm 0.00 in0.0 mm 0.00 in0.0 mm
11:18 AM 30.3°F-0.9°C 28.6°F-1.9°C 93% 2.0 mph WNW3.2 kmh WNW -- 29.84 in1010.5 mb 0.00 in0.0 mm 0.00 in0.0 mm 0.00 in0.0 mm
11:19 AM 30.7°F-0.7°C 28.9°F-1.7°C 93% 2.0 mph WNW3.2 kmh WNW -- 29.84 in1010.5 mb 0.00 in0.0 mm 0.00 in0.0 mm 0.00 in0.0 mm
11:20 AM 30.8°F-0.7°C 28.9°F-1.7°C 93% 3.0 mph WNW4.8 kmh WNW -- 29.84 in1010.5 mb 0.00 in0.0 mm 0.00 in0.0 mm 0.00 in0.0 mm
11:21 AM 30.8°F-0.7°C 28.9°F-1.7°C 93% 3.0 mph W4.8 kmh W -- 29.84 in1010.5 mb 0.00 in0.0 mm 0.00 in0.0 mm 0.00 in0.0 mm
11:22 AM 31.1°F-0.5°C 29.3°F-1.5°C 93% 1.0 mph W1.6 kmh W -- 29.84 in1010.5 mb 0.00 in0.0 mm 0.00 in0.0 mm 0.00 in0.0 mm
11:23 AM 30.8°F-0.7°C 28.9°F-1.7°C 93% 2.0 mph W3.2 kmh W -- 29.84 in1010.5 mb 0.00 in0.0 mm 0.00 in0.0 mm 0.00 in0.0 mm
11:24 AM 30.8°F-0.7°C 28.9°F-1.7°C 93% 2.0 mph NW3.2 kmh NW -- 29.84 in1010.5 mb 0.00 in0.0 mm 0.00 in0.0 mm 0.00 in0.0 mm
11:25 AM 31.1°F-0.5°C 29.3°F-1.5°C 93% 1.0 mph WNW1.6 kmh WNW -- 29.84 in1010.5 mb 0.00 in0.0 mm 0.00 in0.0 mm 0.00 in0.0 mm
11:26 AM 31.5°F-0.3°C 29.6°F-1.3°C 93% 2.0 mph WNW3.2 kmh WNW -- 29.84 in1010.5 mb 0.00 in0.0 mm 0.00 in0.0 mm 0.00 in0.0 mm
11:27 AM 31.2°F-0.4°C 28.9°F-1.7°C 91% 3.0 mph W4.8 kmh W -- 29.85 in1010.8 mb 0.00 in0.0 mm 0.00 in0.0 mm 0.00 in0.0 mm
11:28 AM 31.1°F-0.5°C 28.7°F-1.8°C 91% 2.0 mph WNW3.2 kmh WNW -- 29.84 in1010.5 mb 0.00 in0.0 mm 0.00 in0.0 mm 0.00 in0.0 mm
11:29 AM 31.2°F-0.4°C 28.9°F-1.7°C 91% 3.0 mph NW4.8 kmh NW -- 29.84 in1010.5 mb 0.00 in0.0 mm 0.00 in0.0 mm 0.00 in0.0 mm
11:30 AM 31.2°F-0.4°C 28.9°F-1.7°C 91% 2.0 mph NW3.2 kmh NW -- 29.84 in1010.5 mb 0.00 in0.0 mm 0.00 in0.0 mm 0.00 in0.0 mm
11:31 AM 31.2°F-0.4°C 28.9°F-1.7°C 91% 2.0 mph NW3.2 kmh NW -- 29.85 in1010.8 mb 0.00 in0.0 mm 0.00 in0.0 mm 0.00 in0.0 mm
11:32 AM 31.2°F-0.4°C 28.9°F-1.7°C 91% 3.0 mph NNW4.8 kmh NNW -- 29.85 in1010.8 mb 0.00 in0.0 mm 0.00 in0.0 mm 0.00 in0.0 mm
11:33 AM 31.2°F-0.4°C 28.9°F-1.7°C 91% 3.0 mph NW4.8 kmh NW -- 29.84 in1010.5 mb 0.00 in0.0 mm 0.00 in0.0 mm 0.00 in0.0 mm
11:34 AM 31.5°F-0.3°C 29.1°F-1.6°C 91% 2.0 mph NNW3.2 kmh NNW -- 29.84 in1010.5 mb 0.00 in0.0 mm 0.00 in0.0 mm 0.00 in0.0 mm
11:35 AM 31.6°F-0.2°C 29.3°F-1.5°C 91% 4.0 mph NW6.4 kmh NW -- 29.85 in1010.8 mb 0.00 in0.0 mm 0.00 in0.0 mm 0.00 in0.0 mm
11:36 AM 31.6°F-0.2°C 29.3°F-1.5°C 91% 2.0 mph WNW3.2 kmh WNW -- 29.85 in1010.8 mb 0.00 in0.0 mm 0.00 in0.0 mm 0.00 in0.0 mm
11:37 AM 31.7°F-0.2°C 29.3°F-1.5°C 91% 2.0 mph NNW3.2 kmh NNW -- 29.84 in1010.5 mb 0.00 in0.0 mm 0.00 in0.0 mm 0.00 in0.0 mm
11:38 AM 31.9°F-0.1°C 29.2°F-1.6°C 90% 4.0 mph NNW6.4 kmh NNW -- 29.84 in1010.5 mb 0.00 in0.0 mm 0.00 in0.0 mm 0.00 in0.0 mm
11:39 AM 31.7°F-0.2°C 29.0°F-1.7°C 90% 3.0 mph NNW4.8 kmh NNW -- 29.84 in1010.5 mb 0.00 in0.0 mm 0.00 in0.0 mm 0.00 in0.0 mm
11:40 AM 31.7°F-0.2°C 29.0°F-1.7°C 90% 2.0 mph W3.2 kmh W -- 29.85 in1010.8 mb 0.00 in0.0 mm 0.00 in0.0 mm 0.00 in0.0 mm
11:41 AM 32.5°F0.3°C 30.2°F-1.0°C 91% Calm Calm -- 29.84 in1010.5 mb 0.00 in0.0 mm 0.00 in0.0 mm 0.00 in0.0 mm
11:42 AM 32.9°F0.5°C 29.7°F-1.3°C 88% 3.0 mph NNW4.8 kmh NNW -- 29.84 in1010.5 mb 0.00 in0.0 mm 0.00 in0.0 mm 0.00 in0.0 mm
11:43 AM 32.6°F0.3°C 29.3°F-1.5°C 88% 3.0 mph NW4.8 kmh NW -- 29.84 in1010.5 mb 0.00 in0.0 mm 0.00 in0.0 mm 0.00 in0.0 mm
11:44 AM 32.5°F0.3°C 29.9°F-1.2°C 90% 2.0 mph WNW3.2 kmh WNW -- 29.84 in1010.5 mb 0.00 in0.0 mm 0.00 in0.0 mm 0.00 in0.0 mm
11:45 AM 32.6°F0.3°C 29.9°F-1.2°C 90% 1.0 mph NNW1.6 kmh NNW -- 29.84 in1010.5 mb 0.00 in0.0 mm 0.00 in0.0 mm 0.00 in0.0 mm
11:46 AM 32.6°F0.3°C 29.9°F-1.2°C 90% 2.0 mph NW3.2 kmh NW -- 29.84 in1010.5 mb 0.00 in0.0 mm 0.00 in0.0 mm 0.00 in0.0 mm
11:47 AM 32.9°F0.5°C 29.7°F-1.3°C 88% 2.0 mph NW3.2 kmh NW -- 29.84 in1010.5 mb 0.00 in0.0 mm 0.00 in0.0 mm 0.00 in0.0 mm
11:48 AM 32.9°F0.5°C 29.7°F-1.3°C 88% 1.0 mph WNW1.6 kmh WNW -- 29.84 in1010.5 mb 0.00 in0.0 mm 0.00 in0.0 mm 0.00 in0.0 mm
11:49 AM 32.9°F0.5°C 29.7°F-1.3°C 88% 2.0 mph W3.2 kmh W -- 29.84 in1010.5 mb 0.00 in0.0 mm 0.00 in0.0 mm 0.00 in0.0 mm
11:50 AM 33.2°F0.7°C 30.0°F-1.1°C 88% 3.0 mph NW4.8 kmh NW -- 29.84 in1010.5 mb 0.00 in0.0 mm 0.00 in0.0 mm 0.00 in0.0 mm
11:51 AM 33.2°F0.7°C 30.0°F-1.1°C 88% 2.0 mph WNW3.2 kmh WNW -- 29.84 in1010.5 mb 0.00 in0.0 mm 0.00 in0.0 mm 0.00 in0.0 mm
11:52 AM 33.4°F0.8°C 30.2°F-1.0°C 88% 2.0 mph WNW3.2 kmh WNW -- 29.84 in1010.5 mb 0.00 in0.0 mm 0.00 in0.0 mm 0.00 in0.0 mm
11:53 AM 33.0°F0.6°C 29.9°F-1.2°C 88% 2.0 mph W3.2 kmh W -- 29.84 in1010.5 mb 0.00 in0.0 mm 0.00 in0.0 mm 0.00 in0.0 mm
11:54 AM 33.2°F0.7°C 30.0°F-1.1°C 88% 3.0 mph NNW4.8 kmh NNW -- 29.84 in1010.5 mb 0.00 in0.0 mm 0.00 in0.0 mm 0.00 in0.0 mm
11:55 AM 33.5°F0.8°C 30.2°F-1.0°C 88% 3.0 mph W4.8 kmh W -- 29.84 in1010.5 mb 0.00 in0.0 mm 0.00 in0.0 mm 0.00 in0.0 mm
11:56 AM 33.5°F0.8°C 29.7°F-1.3°C 86% 2.0 mph NNE3.2 kmh NNE -- 29.84 in1010.5 mb 0.00 in0.0 mm 0.00 in0.0 mm 0.00 in0.0 mm
11:57 AM 33.8°F1.0°C 30.0°F-1.1°C 86% 2.0 mph NNW3.2 kmh NNW -- 29.84 in1010.5 mb 0.00 in0.0 mm 0.00 in0.0 mm 0.00 in0.0 mm
11:58 AM 33.4°F0.8°C 29.7°F-1.3°C 86% 3.0 mph NW4.8 kmh NW -- 29.84 in1010.5 mb 0.00 in0.0 mm 0.00 in0.0 mm 0.00 in0.0 mm
11:59 AM 33.2°F0.7°C 29.5°F-1.4°C 86% 2.0 mph WNW3.2 kmh WNW -- 29.84 in1010.5 mb 0.00 in0.0 mm 0.00 in0.0 mm 0.00 in0.0 mm
12:00 PM 33.2°F0.7°C 30.0°F-1.1°C 88% 3.0 mph W4.8 kmh W -- 29.84 in1010.5 mb 0.00 in0.0 mm 0.00 in0.0 mm 0.00 in0.0 mm
12:01 PM 33.2°F0.7°C 30.0°F-1.1°C 88% 1.0 mph NW1.6 kmh NW -- 29.83 in1010.2 mb 0.00 in0.0 mm 0.00 in0.0 mm 0.00 in0.0 mm
12:02 PM 33.2°F0.7°C 30.0°F-1.1°C 88% 2.0 mph NNW3.2 kmh NNW -- 29.83 in1010.2 mb 0.00 in0.0 mm 0.00 in0.0 mm 0.00 in0.0 mm
12:03 PM 33.4°F0.8°C 30.2°F-1.0°C 88% 2.0 mph WSW3.2 kmh WSW -- 29.84 in1010.5 mb 0.00 in0.0 mm 0.00 in0.0 mm 0.00 in0.0 mm
12:04 PM 33.5°F0.8°C 30.2°F-1.0°C 88% 3.0 mph WNW4.8 kmh WNW -- 29.84 in1010.5 mb 0.00 in0.0 mm 0.00 in0.0 mm 0.00 in0.0 mm
12:05 PM 33.5°F0.8°C 30.2°F-1.0°C 88% 2.0 mph W3.2 kmh W -- 29.84 in1010.5 mb 0.00 in0.0 mm 0.00 in0.0 mm 0.00 in0.0 mm
12:06 PM 33.8°F1.0°C 30.0°F-1.1°C 86% 2.0 mph NW3.2 kmh NW -- 29.84 in1010.5 mb 0.00 in0.0 mm 0.00 in0.0 mm 0.00 in0.0 mm
12:07 PM 34.0°F1.1°C 30.2°F-1.0°C 86% 1.0 mph NW1.6 kmh NW -- 29.84 in1010.5 mb 0.00 in0.0 mm 0.00 in0.0 mm 0.00 in0.0 mm
12:08 PM 34.2°F1.2°C 30.4°F-0.9°C 86% Calm Calm -- 29.84 in1010.5 mb 0.00 in0.0 mm 0.00 in0.0 mm 0.00 in0.0 mm
12:09 PM 34.2°F1.2°C 30.4°F-0.9°C 86% 3.0 mph NNW4.8 kmh NNW -- 29.84 in1010.5 mb 0.00 in0.0 mm 0.00 in0.0 mm 0.00 in0.0 mm
12:10 PM 34.2°F1.2°C 30.4°F-0.9°C 86% 3.0 mph NW4.8 kmh NW -- 29.83 in1010.2 mb 0.00 in0.0 mm 0.00 in0.0 mm 0.00 in0.0 mm
12:11 PM 34.2°F1.2°C 30.4°F-0.9°C 86% 2.0 mph WNW3.2 kmh WNW -- 29.84 in1010.5 mb 0.00 in0.0 mm 0.00 in0.0 mm 0.00 in0.0 mm
12:12 PM 34.7°F1.5°C 30.9°F-0.6°C 86% 1.0 mph WNW1.6 kmh WNW -- 29.84 in1010.5 mb 0.00 in0.0 mm 0.00 in0.0 mm 0.00 in0.0 mm
12:13 PM 35.0°F1.7°C 31.2°F-0.4°C 86% 1.0 mph NW1.6 kmh NW -- 29.84 in1010.5 mb 0.00 in0.0 mm 0.00 in0.0 mm 0.00 in0.0 mm
12:14 PM 35.0°F1.7°C 31.2°F-0.4°C 86% 1.0 mph W1.6 kmh W -- 29.84 in1010.5 mb 0.00 in0.0 mm 0.00 in0.0 mm 0.00 in0.0 mm
12:15 PM 35.5°F1.9°C 31.3°F-0.4°C 85% 2.0 mph 3.2 kmh -- 29.84 in1010.5 mb 0.00 in0.0 mm 0.00 in0.0 mm 0.00 in0.0 mm
12:16 PM 35.7°F2.1°C 31.1°F-0.5°C 83% 3.0 mph WNW4.8 kmh WNW -- 29.84 in1010.5 mb 0.00 in0.0 mm 0.00 in0.0 mm 0.00 in0.0 mm
12:17 PM 35.4°F1.9°C 30.7°F-0.7°C 83% 2.0 mph NW3.2 kmh NW -- 29.84 in1010.5 mb 0.00 in0.0 mm 0.00 in0.0 mm 0.00 in0.0 mm
12:18 PM 34.9°F1.6°C 30.8°F-0.7°C 85% Calm Calm -- 29.84 in1010.5 mb 0.00 in0.0 mm 0.00 in0.0 mm 0.00 in0.0 mm
12:19 PM 34.9°F1.6°C 31.1°F-0.5°C 86% 1.0 mph NNW1.6 kmh NNW -- 29.84 in1010.5 mb 0.00 in0.0 mm 0.00 in0.0 mm 0.00 in0.0 mm
12:20 PM 34.9°F1.6°C 31.1°F-0.5°C 86% 2.0 mph NNW3.2 kmh NNW -- 29.84 in1010.5 mb 0.00 in0.0 mm 0.00 in0.0 mm 0.00 in0.0 mm
12:21 PM 35.4°F1.9°C 31.6°F-0.2°C 86% Calm Calm -- 29.84 in1010.5 mb 0.00 in0.0 mm 0.00 in0.0 mm 0.00 in0.0 mm
12:22 PM 35.4°F1.9°C 31.3°F-0.4°C 85% 2.0 mph W3.2 kmh W -- 29.84 in1010.5 mb 0.00 in0.0 mm 0.00 in0.0 mm 0.00 in0.0 mm
12:23 PM 34.2°F1.2°C 30.4°F-0.9°C 86% 3.0 mph W4.8 kmh W -- 29.84 in1010.5 mb 0.00 in0.0 mm 0.00 in0.0 mm 0.00 in0.0 mm
12:25 PM 34.2°F1.2°C 30.4°F-0.9°C 86% 2.0 mph WNW3.2 kmh WNW -- 29.83 in1010.2 mb 0.00 in0.0 mm 0.00 in0.0 mm 0.00 in0.0 mm
12:26 PM 34.2°F1.2°C 30.4°F-0.9°C 86% Calm Calm -- 29.84 in1010.5 mb 0.00 in0.0 mm 0.00 in0.0 mm 0.00 in0.0 mm
12:27 PM 35.4°F1.9°C 31.6°F-0.2°C 86% Calm Calm -- 29.84 in1010.5 mb 0.00 in0.0 mm 0.00 in0.0 mm 0.00 in0.0 mm
12:28 PM 35.4°F1.9°C 31.6°F-0.2°C 86% 2.0 mph NW3.2 kmh NW -- 29.84 in1010.5 mb 0.00 in0.0 mm 0.00 in0.0 mm 0.00 in0.0 mm
12:29 PM 35.4°F1.9°C 31.3°F-0.4°C 85% 2.0 mph WNW3.2 kmh WNW -- 29.84 in1010.5 mb 0.00 in0.0 mm 0.00 in0.0 mm 0.00 in0.0 mm
12:30 PM 36.2°F2.3°C 32.0°F0.0°C 85% 1.0 mph NW1.6 kmh NW -- 29.84 in1010.5 mb 0.00 in0.0 mm 0.00 in0.0 mm 0.00 in0.0 mm
12:31 PM 36.7°F2.6°C 31.9°F-0.1°C 83% 1.0 mph NNW1.6 kmh NNW -- 29.84 in1010.5 mb 0.00 in0.0 mm 0.00 in0.0 mm 0.00 in0.0 mm
12:32 PM 37.0°F2.8°C 32.3°F0.2°C 83% 4.0 mph W6.4 kmh W -- 29.84 in1010.5 mb 0.00 in0.0 mm 0.00 in0.0 mm 0.00 in0.0 mm
12:33 PM 35.9°F2.2°C 31.2°F-0.4°C 83% 3.0 mph WSW4.8 kmh WSW -- 29.84 in1010.5 mb 0.00 in0.0 mm 0.00 in0.0 mm 0.00 in0.0 mm
12:34 PM 35.7°F2.1°C 31.1°F-0.5°C 83% 3.0 mph WNW4.8 kmh WNW -- 29.84 in1010.5 mb 0.00 in0.0 mm 0.00 in0.0 mm 0.00 in0.0 mm
12:35 PM 35.9°F2.2°C 31.2°F-0.4°C 83% 3.0 mph WNW4.8 kmh WNW -- 29.84 in1010.5 mb 0.00 in0.0 mm 0.00 in0.0 mm 0.00 in0.0 mm
12:36 PM 35.9°F2.2°C 31.2°F-0.4°C 83% 2.0 mph NW3.2 kmh NW -- 29.84 in1010.5 mb 0.00 in0.0 mm 0.00 in0.0 mm 0.00 in0.0 mm
12:37 PM 36.2°F2.3°C 31.4°F-0.3°C 83% 2.0 mph NW3.2 kmh NW -- 29.83 in1010.2 mb 0.00 in0.0 mm 0.00 in0.0 mm 0.00 in0.0 mm
12:38 PM 36.9°F2.7°C 32.1°F0.1°C 83% 3.0 mph NW4.8 kmh NW -- 29.83 in1010.2 mb 0.00 in0.0 mm 0.00 in0.0 mm 0.00 in0.0 mm
12:39 PM 36.9°F2.7°C 32.1°F0.1°C 83% 4.0 mph WNW6.4 kmh WNW -- 29.84 in1010.5 mb 0.00 in0.0 mm 0.00 in0.0 mm 0.00 in0.0 mm
12:40 PM 36.2°F2.3°C 31.4°F-0.3°C 83% 4.0 mph W6.4 kmh W -- 29.84 in1010.5 mb 0.00 in0.0 mm 0.00 in0.0 mm 0.00 in0.0 mm
12:41 PM 36.2°F2.3°C 31.4°F-0.3°C 83% 3.0 mph W4.8 kmh W -- 29.84 in1010.5 mb 0.00 in0.0 mm 0.00 in0.0 mm 0.00 in0.0 mm
12:42 PM 36.3°F2.4°C 31.9°F-0.1°C 84% 3.0 mph W4.8 kmh W -- 29.84 in1010.5 mb 0.00 in0.0 mm 0.00 in0.0 mm 0.00 in0.0 mm
12:43 PM 36.5°F2.5°C 31.8°F-0.1°C 83% 3.0 mph W4.8 kmh W -- 29.84 in1010.5 mb 0.00 in0.0 mm 0.00 in0.0 mm 0.00 in0.0 mm
12:44 PM 35.9°F2.2°C 31.2°F-0.4°C 83% 3.0 mph W4.8 kmh W -- 29.84 in1010.5 mb 0.00 in0.0 mm 0.00 in0.0 mm 0.00 in0.0 mm
12:45 PM 35.7°F2.1°C 31.7°F-0.2°C 85% 3.0 mph WNW4.8 kmh WNW -- 29.84 in1010.5 mb 0.00 in0.0 mm 0.00 in0.0 mm 0.00 in0.0 mm
12:46 PM 35.9°F2.2°C 31.8°F-0.1°C 85% 2.0 mph W3.2 kmh W -- 29.84 in1010.5 mb 0.00 in0.0 mm 0.00 in0.0 mm 0.00 in0.0 mm
12:47 PM 36.7°F2.6°C 32.5°F0.3°C 85% 3.0 mph W4.8 kmh W -- 29.84 in1010.5 mb 0.00 in0.0 mm 0.00 in0.0 mm 0.00 in0.0 mm
12:48 PM 36.1°F2.3°C 32.0°F0.0°C 85% 2.0 mph W3.2 kmh W -- 29.84 in1010.5 mb 0.00 in0.0 mm 0.00 in0.0 mm 0.00 in0.0 mm
12:49 PM 35.4°F1.9°C 31.6°F-0.2°C 86% 2.0 mph W3.2 kmh W -- 29.84 in1010.5 mb 0.00 in0.0 mm 0.00 in0.0 mm 0.00 in0.0 mm
12:50 PM 35.5°F1.9°C 31.6°F-0.2°C 86% 2.0 mph WSW3.2 kmh WSW -- 29.84 in1010.5 mb 0.00 in0.0 mm 0.00 in0.0 mm 0.00 in0.0 mm
12:51 PM 35.7°F2.1°C 32.0°F0.0°C 86% 2.0 mph NNW3.2 kmh NNW -- 29.84 in1010.5 mb 0.00 in0.0 mm 0.00 in0.0 mm 0.00 in0.0 mm
12:52 PM 37.0°F2.8°C 32.9°F0.5°C 85% 2.0 mph WNW3.2 kmh WNW -- 29.84 in1010.5 mb 0.00 in0.0 mm 0.00 in0.0 mm 0.00 in0.0 mm
12:53 PM 37.5°F3.1°C 32.8°F0.4°C 83% 2.0 mph WNW3.2 kmh WNW -- 29.83 in1010.2 mb 0.00 in0.0 mm 0.00 in0.0 mm 0.00 in0.0 mm
12:54 PM 37.7°F3.2°C 33.0°F0.6°C 83% 1.0 mph NNW1.6 kmh NNW -- 29.83 in1010.2 mb 0.00 in0.0 mm 0.00 in0.0 mm 0.00 in0.0 mm
12:55 PM 38.2°F3.4°C 32.7°F0.4°C 81% Calm Calm -- 29.83 in1010.2 mb 0.00 in0.0 mm 0.00 in0.0 mm 0.00 in0.0 mm
12:57 PM 38.7°F3.7°C 33.3°F0.7°C 81% Calm Calm -- 29.84 in1010.5 mb 0.00 in0.0 mm 0.00 in0.0 mm 0.00 in0.0 mm
12:58 PM 39.2°F4.0°C 33.8°F1.0°C 81% Calm Calm -- 29.84 in1010.5 mb 0.00 in0.0 mm 0.00 in0.0 mm 0.00 in0.0 mm
12:59 PM 39.5°F4.2°C 34.1°F1.2°C 81% Calm Calm -- 29.83 in1010.2 mb 0.00 in0.0 mm 0.00 in0.0 mm 0.00 in0.0 mm
01:00 PM 39.5°F4.2°C 33.8°F1.0°C 80% Calm Calm -- 29.84 in1010.5 mb 0.00 in0.0 mm 0.00 in0.0 mm 0.00 in0.0 mm
01:01 PM 39.4°F4.1°C 34.0°F1.1°C 81% 2.0 mph W3.2 kmh W -- 29.84 in1010.5 mb 0.00 in0.0 mm 0.00 in0.0 mm 0.00 in0.0 mm
01:02 PM 38.7°F3.7°C 33.3°F0.7°C 81% 3.0 mph W4.8 kmh W -- 29.84 in1010.5 mb 0.00 in0.0 mm 0.00 in0.0 mm 0.00 in0.0 mm
01:03 PM 38.7°F3.7°C 33.9°F1.1°C 83% 2.0 mph S3.2 kmh S -- 29.83 in1010.2 mb 0.00 in0.0 mm 0.00 in0.0 mm 0.00 in0.0 mm
01:04 PM 39.2°F4.0°C 33.8°F1.0°C 81% 2.0 mph WNW3.2 kmh WNW -- 29.84 in1010.5 mb 0.00 in0.0 mm 0.00 in0.0 mm 0.00 in0.0 mm
01:05 PM 39.2°F4.0°C 33.8°F1.0°C 81% 2.0 mph W3.2 kmh W -- 29.84 in1010.5 mb 0.00 in0.0 mm 0.00 in0.0 mm 0.00 in0.0 mm
01:06 PM 39.2°F4.0°C 33.8°F1.0°C 81% 3.0 mph WSW4.8 kmh WSW -- 29.83 in1010.2 mb 0.00 in0.0 mm 0.00 in0.0 mm 0.00 in0.0 mm
01:07 PM 38.7°F3.7°C 33.3°F0.7°C 81% 2.0 mph WSW3.2 kmh WSW -- 29.83 in1010.2 mb 0.00 in0.0 mm 0.00 in0.0 mm 0.00 in0.0 mm
01:08 PM 39.2°F4.0°C 33.8°F1.0°C 81% 4.0 mph W6.4 kmh W -- 29.83 in1010.2 mb 0.00 in0.0 mm 0.00 in0.0 mm 0.00 in0.0 mm
01:10 PM 39.2°F4.0°C 33.8°F1.0°C 81% 2.0 mph W3.2 kmh W -- 29.84 in1010.5 mb 0.00 in0.0 mm 0.00 in0.0 mm 0.00 in0.0 mm
01:11 PM 39.7°F4.3°C 34.0°F1.1°C 80% 2.0 mph W3.2 kmh W -- 29.84 in1010.5 mb 0.00 in0.0 mm 0.00 in0.0 mm 0.00 in0.0 mm
01:12 PM 39.5°F4.2°C 33.8°F1.0°C 80% 2.0 mph W3.2 kmh W -- 29.84 in1010.5 mb 0.00 in0.0 mm 0.00 in0.0 mm 0.00 in0.0 mm
01:13 PM 40.0°F4.4°C 34.2°F1.2°C 80% 4.0 mph W6.4 kmh W -- 29.84 in1010.5 mb 0.00 in0.0 mm 0.00 in0.0 mm 0.00 in0.0 mm
01:14 PM 40.0°F4.4°C 34.2°F1.2°C 80% 3.0 mph W4.8 kmh W -- 29.83 in1010.2 mb 0.00 in0.0 mm 0.00 in0.0 mm 0.00 in0.0 mm
01:15 PM 39.7°F4.3°C 34.0°F1.1°C 80% 4.0 mph W6.4 kmh W -- 29.84 in1010.5 mb 0.00 in0.0 mm 0.00 in0.0 mm 0.00 in0.0 mm
01:16 PM 39.5°F4.2°C 34.1°F1.2°C 81% 4.0 mph W6.4 kmh W -- 29.83 in1010.2 mb 0.00 in0.0 mm 0.00 in0.0 mm 0.00 in0.0 mm
01:18 PM 39.0°F3.9°C 33.6°F0.9°C 81% 3.0 mph W4.8 kmh W -- 29.83 in1010.2 mb 0.00 in0.0 mm 0.00 in0.0 mm 0.00 in0.0 mm
01:19 PM 38.7°F3.7°C 33.3°F0.7°C 81% 3.0 mph W4.8 kmh W -- 29.83 in1010.2 mb 0.00 in0.0 mm 0.00 in0.0 mm 0.00 in0.0 mm
01:20 PM 38.4°F3.6°C 33.1°F0.6°C 81% 2.0 mph W3.2 kmh W -- 29.83 in1010.2 mb 0.00 in0.0 mm 0.00 in0.0 mm 0.00 in0.0 mm
01:21 PM 38.7°F3.7°C 33.3°F0.7°C 81% 2.0 mph W3.2 kmh W -- 29.83 in1010.2 mb 0.00 in0.0 mm 0.00 in0.0 mm 0.00 in0.0 mm
01:22 PM 39.2°F4.0°C 33.8°F1.0°C 81% 2.0 mph WNW3.2 kmh WNW -- 29.83 in1010.2 mb 0.00 in0.0 mm 0.00 in0.0 mm 0.00 in0.0 mm
01:23 PM 39.5°F4.2°C 33.8°F1.0°C 80% 2.0 mph W3.2 kmh W -- 29.83 in1010.2 mb 0.00 in0.0 mm 0.00 in0.0 mm 0.00 in0.0 mm
01:24 PM 39.5°F4.2°C 33.8°F1.0°C 80% 4.0 mph W6.4 kmh W -- 29.83 in1010.2 mb 0.00 in0.0 mm 0.00 in0.0 mm 0.00 in0.0 mm
01:25 PM 40.0°F4.4°C 34.2°F1.2°C 80% 1.0 mph W1.6 kmh W -- 29.83 in1010.2 mb 0.00 in0.0 mm 0.00 in0.0 mm 0.00 in0.0 mm
01:27 PM 39.7°F4.3°C 34.0°F1.1°C 80% 4.0 mph W6.4 kmh W -- 29.83 in1010.2 mb 0.00 in0.0 mm 0.00 in0.0 mm 0.00 in0.0 mm
01:29 PM 40.2°F4.6°C 34.5°F1.4°C 80% 2.0 mph W3.2 kmh W -- 29.83 in1010.2 mb 0.00 in0.0 mm 0.00 in0.0 mm 0.00 in0.0 mm
01:30 PM 40.5°F4.7°C 34.7°F1.5°C 80% 2.0 mph WSW3.2 kmh WSW -- 29.83 in1010.2 mb 0.00 in0.0 mm 0.00 in0.0 mm 0.00 in0.0 mm
01:31 PM 40.5°F4.7°C 34.4°F1.3°C 79% 3.0 mph W4.8 kmh W -- 29.83 in1010.2 mb 0.00 in0.0 mm 0.00 in0.0 mm 0.00 in0.0 mm
01:32 PM 39.9°F4.4°C 34.2°F1.2°C 80% 3.0 mph W4.8 kmh W -- 29.83 in1010.2 mb 0.00 in0.0 mm 0.00 in0.0 mm 0.00 in0.0 mm
01:33 PM 40.0°F4.4°C 34.2°F1.2°C 80% 4.0 mph W6.4 kmh W -- 29.84 in1010.5 mb 0.00 in0.0 mm 0.00 in0.0 mm 0.00 in0.0 mm
01:34 PM 39.9°F4.4°C 34.2°F1.2°C 80% 4.0 mph W6.4 kmh W -- 29.83 in1010.2 mb 0.00 in0.0 mm 0.00 in0.0 mm 0.00 in0.0 mm
01:35 PM 40.5°F4.7°C 34.7°F1.5°C 80% 3.0 mph NNW4.8 kmh NNW -- 29.83 in1010.2 mb 0.00 in0.0 mm 0.00 in0.0 mm 0.00 in0.0 mm
01:36 PM 41.7°F5.4°C 35.3°F1.8°C 78% 3.0 mph W4.8 kmh W -- 29.84 in1010.5 mb 0.00 in0.0 mm 0.00 in0.0 mm 0.00 in0.0 mm
01:37 PM 41.7°F5.4°C 34.6°F1.4°C 76% 2.0 mph W3.2 kmh W -- 29.84 in1010.5 mb 0.00 in0.0 mm 0.00 in0.0 mm 0.00 in0.0 mm
01:39 PM 43.2°F6.2°C 35.7°F2.1°C 75% 3.0 mph W4.8 kmh W -- 29.83 in1010.2 mb 0.00 in0.0 mm 0.00 in0.0 mm 0.00 in0.0 mm
01:40 PM 42.5°F5.8°C 35.0°F1.7°C 75% 2.0 mph W3.2 kmh W -- 29.83 in1010.2 mb 0.00 in0.0 mm 0.00 in0.0 mm 0.00 in0.0 mm
01:41 PM 42.5°F5.8°C 35.0°F1.7°C 75% 2.0 mph NW3.2 kmh NW -- 29.83 in1010.2 mb 0.00 in0.0 mm 0.00 in0.0 mm 0.00 in0.0 mm
01:42 PM 42.7°F5.9°C 35.2°F1.8°C 75% 1.0 mph W1.6 kmh W -- 29.84 in1010.5 mb 0.00 in0.0 mm 0.00 in0.0 mm 0.00 in0.0 mm
01:43 PM 41.9°F5.5°C 34.5°F1.4°C 75% 3.0 mph W4.8 kmh W -- 29.83 in1010.2 mb 0.00 in0.0 mm 0.00 in0.0 mm 0.00 in0.0 mm
01:44 PM 41.7°F5.4°C 34.3°F1.3°C 75% 2.0 mph W3.2 kmh W -- 29.84 in1010.5 mb 0.00 in0.0 mm 0.00 in0.0 mm 0.00 in0.0 mm
01:45 PM 41.9°F5.5°C 34.5°F1.4°C 75% 2.0 mph NW3.2 kmh NW -- 29.84 in1010.5 mb 0.00 in0.0 mm 0.00 in0.0 mm 0.00 in0.0 mm
01:46 PM 42.5°F5.8°C 35.3°F1.8°C 76% 1.0 mph W1.6 kmh W -- 29.84 in1010.5 mb 0.00 in0.0 mm 0.00 in0.0 mm 0.00 in0.0 mm
01:47 PM 42.5°F5.8°C 35.0°F1.7°C 75% 2.0 mph W3.2 kmh W -- 29.83 in1010.2 mb 0.00 in0.0 mm 0.00 in0.0 mm 0.00 in0.0 mm
01:48 PM 43.0°F6.1°C 35.5°F1.9°C 75% 1.0 mph W1.6 kmh W -- 29.83 in1010.2 mb 0.00 in0.0 mm 0.00 in0.0 mm 0.00 in0.0 mm
01:49 PM 42.7°F5.9°C 35.2°F1.8°C 75% 2.0 mph NNW3.2 kmh NNW -- 29.83 in1010.2 mb 0.00 in0.0 mm 0.00 in0.0 mm 0.00 in0.0 mm
01:50 PM 42.7°F5.9°C 35.2°F1.8°C 75% 2.0 mph NW3.2 kmh NW -- 29.83 in1010.2 mb 0.00 in0.0 mm 0.00 in0.0 mm 0.00 in0.0 mm
01:51 PM 43.2°F6.2°C 36.0°F2.2°C 76% 1.0 mph NW1.6 kmh NW -- 29.83 in1010.2 mb 0.00 in0.0 mm 0.00 in0.0 mm 0.00 in0.0 mm
01:52 PM 43.4°F6.3°C 35.9°F2.2°C 75% 2.0 mph W3.2 kmh W -- 29.83 in1010.2 mb 0.00 in0.0 mm 0.00 in0.0 mm 0.00 in0.0 mm
01:53 PM 43.9°F6.6°C 36.4°F2.4°C 75% 1.0 mph W1.6 kmh W -- 29.83 in1010.2 mb 0.00 in0.0 mm 0.00 in0.0 mm 0.00 in0.0 mm
01:54 PM 44.2°F6.8°C 36.0°F2.2°C 73% 3.0 mph NNW4.8 kmh NNW -- 29.84 in1010.5 mb 0.00 in0.0 mm 0.00 in0.0 mm 0.00 in0.0 mm
01:55 PM 43.6°F6.4°C 35.7°F2.1°C 74% 1.0 mph NW1.6 kmh NW -- 29.83 in1010.2 mb 0.00 in0.0 mm 0.00 in0.0 mm 0.00 in0.0 mm
01:56 PM 44.4°F6.9°C 36.6°F2.6°C 74% 3.0 mph NNE4.8 kmh NNE -- 29.84 in1010.5 mb 0.00 in0.0 mm 0.00 in0.0 mm 0.00 in0.0 mm
01:57 PM 44.2°F6.8°C 36.4°F2.4°C 74% 2.0 mph WNW3.2 kmh WNW -- 29.84 in1010.5 mb 0.00 in0.0 mm 0.00 in0.0 mm 0.00 in0.0 mm
01:58 PM 44.2°F6.8°C 36.4°F2.4°C 74% 2.0 mph WNW3.2 kmh WNW -- 29.83 in1010.2 mb 0.00 in0.0 mm 0.00 in0.0 mm 0.00 in0.0 mm
01:59 PM 44.2°F6.8°C 36.4°F2.4°C 74% 2.0 mph W3.2 kmh W -- 29.83 in1010.2 mb 0.00 in0.0 mm 0.00 in0.0 mm 0.00 in0.0 mm
02:00 PM 43.9°F6.6°C 36.0°F2.2°C 74% 3.0 mph W4.8 kmh W -- 29.83 in1010.2 mb 0.00 in0.0 mm 0.00 in0.0 mm 0.00 in0.0 mm
02:01 PM 43.9°F6.6°C 36.0°F2.2°C 74% 2.0 mph WNW3.2 kmh WNW -- 29.83 in1010.2 mb 0.00 in0.0 mm 0.00 in0.0 mm 0.00 in0.0 mm
02:02 PM 43.6°F6.4°C 36.0°F2.2°C 75% 2.0 mph NNW3.2 kmh NNW -- 29.83 in1010.2 mb 0.00 in0.0 mm 0.00 in0.0 mm 0.00 in0.0 mm
02:03 PM 43.4°F6.3°C 35.9°F2.2°C 75% 3.0 mph W4.8 kmh W -- 29.83 in1010.2 mb 0.00 in0.0 mm 0.00 in0.0 mm 0.00 in0.0 mm
02:04 PM 43.2°F6.2°C 35.7°F2.1°C 75% 2.0 mph NNE3.2 kmh NNE -- 29.83 in1010.2 mb 0.00 in0.0 mm 0.00 in0.0 mm 0.00 in0.0 mm
02:05 PM 44.2°F6.8°C 36.4°F2.4°C 74% 2.0 mph SW3.2 kmh SW -- 29.83 in1010.2 mb 0.00 in0.0 mm 0.00 in0.0 mm 0.00 in0.0 mm
02:06 PM 44.2°F6.8°C 36.4°F2.4°C 74% 3.0 mph WNW4.8 kmh WNW -- 29.83 in1010.2 mb 0.00 in0.0 mm 0.00 in0.0 mm 0.00 in0.0 mm
02:07 PM 43.9°F6.6°C 36.0°F2.2°C 74% 2.0 mph WSW3.2 kmh WSW -- 29.83 in1010.2 mb 0.00 in0.0 mm 0.00 in0.0 mm 0.00 in0.0 mm
02:08 PM 45.5°F7.5°C 37.3°F2.9°C 73% 2.0 mph NE3.2 kmh NE -- 29.83 in1010.2 mb 0.00 in0.0 mm 0.00 in0.0 mm 0.00 in0.0 mm
02:09 PM 45.7°F7.6°C 36.7°F2.6°C 71% 2.0 mph W3.2 kmh W -- 29.83 in1010.2 mb 0.00 in0.0 mm 0.00 in0.0 mm 0.00 in0.0 mm
02:10 PM 44.2°F6.8°C 36.0°F2.2°C 73% 3.0 mph NW4.8 kmh NW -- 29.83 in1010.2 mb 0.00 in0.0 mm 0.00 in0.0 mm 0.00 in0.0 mm
02:11 PM 44.8°F7.1°C 36.9°F2.7°C 74% 2.0 mph W3.2 kmh W -- 29.83 in1010.2 mb 0.00 in0.0 mm 0.00 in0.0 mm 0.00 in0.0 mm
02:12 PM 44.6°F7.0°C 36.7°F2.6°C 74% 3.0 mph W4.8 kmh W -- 29.83 in1010.2 mb 0.00 in0.0 mm 0.00 in0.0 mm 0.00 in0.0 mm
02:13 PM 44.0°F6.7°C 36.2°F2.3°C 74% 4.0 mph W6.4 kmh W -- 29.83 in1010.2 mb 0.00 in0.0 mm 0.00 in0.0 mm 0.00 in0.0 mm
02:14 PM 43.6°F6.4°C 36.0°F2.2°C 75% 4.0 mph W6.4 kmh W -- 29.83 in1010.2 mb 0.00 in0.0 mm 0.00 in0.0 mm 0.00 in0.0 mm
02:15 PM 43.4°F6.3°C 35.9°F2.2°C 75% 4.0 mph W6.4 kmh W -- 29.83 in1010.2 mb 0.00 in0.0 mm 0.00 in0.0 mm 0.00 in0.0 mm
02:16 PM 43.9°F6.6°C 36.4°F2.4°C 75% 4.0 mph W6.4 kmh W -- 29.83 in1010.2 mb 0.00 in0.0 mm 0.00 in0.0 mm 0.00 in0.0 mm
02:17 PM 44.0°F6.7°C 36.6°F2.6°C 75% 3.0 mph W4.8 kmh W -- 29.83 in1010.2 mb 0.00 in0.0 mm 0.00 in0.0 mm 0.00 in0.0 mm
02:18 PM 43.6°F6.4°C 36.0°F2.2°C 75% 3.0 mph W4.8 kmh W -- 29.83 in1010.2 mb 0.00 in0.0 mm 0.00 in0.0 mm 0.00 in0.0 mm
02:19 PM 43.6°F6.4°C 36.0°F2.2°C 75% 2.0 mph W3.2 kmh W -- 29.83 in1010.2 mb 0.00 in0.0 mm 0.00 in0.0 mm 0.00 in0.0 mm
02:20 PM 44.0°F6.7°C 36.6°F2.6°C 75% 3.0 mph W4.8 kmh W -- 29.83 in1010.2 mb 0.00 in0.0 mm 0.00 in0.0 mm 0.00 in0.0 mm
02:21 PM 44.8°F7.1°C 36.9°F2.7°C 74% 3.0 mph WNW4.8 kmh WNW -- 29.83 in1010.2 mb 0.00 in0.0 mm 0.00 in0.0 mm 0.00 in0.0 mm
02:22 PM 44.6°F7.0°C 36.7°F2.6°C 74% 2.0 mph W3.2 kmh W -- 29.83 in1010.2 mb 0.00 in0.0 mm 0.00 in0.0 mm 0.00 in0.0 mm
02:23 PM 44.8°F7.1°C 36.9°F2.7°C 74% 2.0 mph WNW3.2 kmh WNW -- 29.83 in1010.2 mb 0.00 in0.0 mm 0.00 in0.0 mm 0.00 in0.0 mm
02:24 PM 45.0°F7.2°C 36.7°F2.6°C 73% 4.0 mph NNW6.4 kmh NNW -- 29.83 in1010.2 mb 0.00 in0.0 mm 0.00 in0.0 mm 0.00 in0.0 mm
02:25 PM 45.5°F7.5°C 36.5°F2.5°C 71% 2.0 mph NNW3.2 kmh NNW -- 29.83 in1010.2 mb 0.00 in0.0 mm 0.00 in0.0 mm 0.00 in0.0 mm
02:26 PM 45.7°F7.6°C 36.7°F2.6°C 71% 3.0 mph W4.8 kmh W -- 29.83 in1010.2 mb 0.00 in0.0 mm 0.00 in0.0 mm 0.00 in0.0 mm
02:27 PM 44.8°F7.1°C 35.8°F2.1°C 71% 3.0 mph NW4.8 kmh NW -- 29.83 in1010.2 mb 0.00 in0.0 mm 0.00 in0.0 mm 0.00 in0.0 mm
02:28 PM 45.9°F7.7°C 36.9°F2.7°C 71% 2.0 mph 3.2 kmh -- 29.83 in1010.2 mb 0.00 in0.0 mm 0.00 in0.0 mm 0.00 in0.0 mm
02:29 PM 45.9°F7.7°C 36.5°F2.5°C 70% 2.0 mph WNW3.2 kmh WNW -- 29.83 in1010.2 mb 0.00 in0.0 mm 0.00 in0.0 mm 0.00 in0.0 mm
02:30 PM 45.9°F7.7°C 36.9°F2.7°C 71% 3.0 mph WNW4.8 kmh WNW -- 29.83 in1010.2 mb 0.00 in0.0 mm 0.00 in0.0 mm 0.00 in0.0 mm
02:31 PM 45.7°F7.6°C 36.7°F2.6°C 71% 2.0 mph NNW3.2 kmh NNW -- 29.83 in1010.2 mb 0.00 in0.0 mm 0.00 in0.0 mm 0.00 in0.0 mm
02:32 PM 46.1°F7.8°C 36.7°F2.6°C 70% 1.0 mph WNW1.6 kmh WNW -- 29.83 in1010.2 mb 0.00 in0.0 mm 0.00 in0.0 mm 0.00 in0.0 mm
02:33 PM 46.4°F8.0°C 37.0°F2.8°C 70% 3.0 mph WNW4.8 kmh WNW -- 29.83 in1010.2 mb 0.00 in0.0 mm 0.00 in0.0 mm 0.00 in0.0 mm
02:34 PM 46.4°F8.0°C 37.0°F2.8°C 70% 2.0 mph WNW3.2 kmh WNW -- 29.83 in1010.2 mb 0.00 in0.0 mm 0.00 in0.0 mm 0.00 in0.0 mm
02:35 PM 45.9°F7.7°C 36.5°F2.5°C 70% 2.0 mph W3.2 kmh W -- 29.83 in1010.2 mb 0.00 in0.0 mm 0.00 in0.0 mm 0.00 in0.0 mm
02:36 PM 45.9°F7.7°C 36.5°F2.5°C 70% 2.0 mph NW3.2 kmh NW -- 29.83 in1010.2 mb 0.00 in0.0 mm 0.00 in0.0 mm 0.00 in0.0 mm
02:37 PM 46.1°F7.8°C 36.7°F2.6°C 70% 3.0 mph NW4.8 kmh NW -- 29.83 in1010.2 mb 0.00 in0.0 mm 0.00 in0.0 mm 0.00 in0.0 mm
02:38 PM 45.9°F7.7°C 36.5°F2.5°C 70% 3.0 mph NW4.8 kmh NW -- 29.83 in1010.2 mb 0.00 in0.0 mm 0.00 in0.0 mm 0.00 in0.0 mm
02:39 PM 45.7°F7.6°C 36.4°F2.4°C 70% 2.0 mph NNW3.2 kmh NNW -- 29.83 in1010.2 mb 0.00 in0.0 mm 0.00 in0.0 mm 0.00 in0.0 mm
02:40 PM 45.7°F7.6°C 36.4°F2.4°C 70% 3.0 mph NNW4.8 kmh NNW -- 29.83 in1010.2 mb 0.00 in0.0 mm 0.00 in0.0 mm 0.00 in0.0 mm
02:41 PM 45.5°F7.5°C 36.2°F2.3°C 70% 3.0 mph NNW4.8 kmh NNW -- 29.83 in1010.2 mb 0.00 in0.0 mm 0.00 in0.0 mm 0.00 in0.0 mm
02:42 PM 45.5°F7.5°C 36.2°F2.3°C 70% 4.0 mph NW6.4 kmh NW -- 29.83 in1010.2 mb 0.00 in0.0 mm 0.00 in0.0 mm 0.00 in0.0 mm
02:43 PM 45.5°F7.5°C 36.2°F2.3°C 70% 4.0 mph NNW6.4 kmh NNW -- 29.83 in1010.2 mb 0.00 in0.0 mm 0.00 in0.0 mm 0.00 in0.0 mm
02:44 PM 45.0°F7.2°C 36.0°F2.2°C 71% 4.0 mph NNW6.4 kmh NNW -- 29.82 in1009.8 mb 0.00 in0.0 mm 0.00 in0.0 mm 0.00 in0.0 mm
02:45 PM 44.6°F7.0°C 35.7°F2.1°C 71% 4.0 mph NNW6.4 kmh NNW -- 29.82 in1009.8 mb 0.00 in0.0 mm 0.00 in0.0 mm 0.00 in0.0 mm
02:46 PM 44.6°F7.0°C 35.7°F2.1°C 71% 3.0 mph NW4.8 kmh NW -- 29.82 in1009.8 mb 0.00 in0.0 mm 0.00 in0.0 mm 0.00 in0.0 mm
02:47 PM 44.8°F7.1°C 36.6°F2.6°C 73% 3.0 mph 4.8 kmh -- 29.82 in1009.8 mb 0.00 in0.0 mm 0.00 in0.0 mm 0.00 in0.0 mm
02:48 PM 45.0°F7.2°C 36.7°F2.6°C 73% 4.0 mph NW6.4 kmh NW -- 29.83 in1010.2 mb 0.00 in0.0 mm 0.00 in0.0 mm 0.00 in0.0 mm
02:49 PM 44.8°F7.1°C 35.8°F2.1°C 71% 4.0 mph NW6.4 kmh NW -- 29.83 in1010.2 mb 0.00 in0.0 mm 0.00 in0.0 mm 0.00 in0.0 mm
02:50 PM 44.4°F6.9°C 35.5°F1.9°C 71% 4.0 mph NW6.4 kmh NW -- 29.82 in1009.8 mb 0.00 in0.0 mm 0.00 in0.0 mm 0.00 in0.0 mm
02:51 PM 44.4°F6.9°C 35.5°F1.9°C 71% 4.0 mph NNW6.4 kmh NNW -- 29.82 in1009.8 mb 0.00 in0.0 mm 0.00 in0.0 mm 0.00 in0.0 mm
02:53 PM 44.6°F7.0°C 35.7°F2.1°C 71% 4.0 mph NNW6.4 kmh NNW -- 29.82 in1009.8 mb 0.00 in0.0 mm 0.00 in0.0 mm 0.00 in0.0 mm
02:55 PM 44.6°F7.0°C 35.7°F2.1°C 71% 4.0 mph NW6.4 kmh NW -- 29.82 in1009.8 mb 0.00 in0.0 mm 0.00 in0.0 mm 0.00 in0.0 mm
02:56 PM 44.6°F7.0°C 35.7°F2.1°C 71% 4.0 mph NNW6.4 kmh NNW -- 29.82 in1009.8 mb 0.00 in0.0 mm 0.00 in0.0 mm 0.00 in0.0 mm
02:57 PM 44.6°F7.0°C 35.7°F2.1°C 71% 3.0 mph NW4.8 kmh NW -- 29.82 in1009.8 mb 0.00 in0.0 mm 0.00 in0.0 mm 0.00 in0.0 mm
02:58 PM 44.8°F7.1°C 35.8°F2.1°C 71% 3.0 mph NNW4.8 kmh NNW -- 29.82 in1009.8 mb 0.00 in0.0 mm 0.00 in0.0 mm 0.00 in0.0 mm
02:59 PM 45.2°F7.3°C 36.2°F2.3°C 71% 3.0 mph 4.8 kmh -- 29.83 in1010.2 mb 0.00 in0.0 mm 0.00 in0.0 mm 0.00 in0.0 mm
03:00 PM 45.2°F7.3°C 35.8°F2.1°C 70% 3.0 mph NNW4.8 kmh NNW -- 29.82 in1009.8 mb 0.00 in0.0 mm 0.00 in0.0 mm 0.00 in0.0 mm
03:02 PM 45.3°F7.4°C 36.4°F2.4°C 71% 3.0 mph NW4.8 kmh NW -- 29.82 in1009.8 mb 0.00 in0.0 mm 0.00 in0.0 mm 0.00 in0.0 mm
03:03 PM 45.5°F7.5°C 36.2°F2.3°C 70% 3.0 mph NNW4.8 kmh NNW -- 29.82 in1009.8 mb 0.00 in0.0 mm 0.00 in0.0 mm 0.00 in0.0 mm
03:04 PM 45.5°F7.5°C 36.2°F2.3°C 70% 4.0 mph NNW6.4 kmh NNW -- 29.82 in1009.8 mb 0.00 in0.0 mm 0.00 in0.0 mm 0.00 in0.0 mm
03:05 PM 45.5°F7.5°C 36.2°F2.3°C 70% 3.0 mph NW4.8 kmh NW -- 29.82 in1009.8 mb 0.00 in0.0 mm 0.00 in0.0 mm 0.00 in0.0 mm
03:06 PM 45.5°F7.5°C 36.2°F2.3°C 70% 3.0 mph NNW4.8 kmh NNW -- 29.82 in1009.8 mb 0.00 in0.0 mm 0.00 in0.0 mm 0.00 in0.0 mm
03:07 PM 45.9°F7.7°C 36.5°F2.5°C 70% 3.0 mph NNW4.8 kmh NNW -- 29.82 in1009.8 mb 0.00 in0.0 mm 0.00 in0.0 mm 0.00 in0.0 mm
03:09 PM 46.1°F7.8°C 36.7°F2.6°C 70% 3.0 mph NNW4.8 kmh NNW -- 29.82 in1009.8 mb 0.00 in0.0 mm 0.00 in0.0 mm 0.00 in0.0 mm
03:10 PM 46.4°F8.0°C 37.0°F2.8°C 70% 3.0 mph NNW4.8 kmh NNW -- 29.82 in1009.8 mb 0.00 in0.0 mm 0.00 in0.0 mm 0.00 in0.0 mm
03:12 PM 46.4°F8.0°C 37.0°F2.8°C 70% 4.0 mph NW6.4 kmh NW -- 29.82 in1009.8 mb 0.00 in0.0 mm 0.00 in0.0 mm 0.00 in0.0 mm
03:13 PM 46.5°F8.1°C 37.2°F2.9°C 70% 3.0 mph NNW4.8 kmh NNW -- 29.82 in1009.8 mb 0.00 in0.0 mm 0.00 in0.0 mm 0.00 in0.0 mm
03:14 PM 46.7°F8.2°C 37.4°F3.0°C 70% 2.0 mph WNW3.2 kmh WNW -- 29.82 in1009.8 mb 0.00 in0.0 mm 0.00 in0.0 mm 0.00 in0.0 mm
03:15 PM 47.5°F8.6°C 38.1°F3.4°C 70% 2.0 mph 3.2 kmh -- 29.82 in1009.8 mb 0.00 in0.0 mm 0.00 in0.0 mm 0.00 in0.0 mm
03:16 PM 47.7°F8.7°C 37.9°F3.3°C 69% 2.0 mph NW3.2 kmh NW -- 29.82 in1009.8 mb 0.00 in0.0 mm 0.00 in0.0 mm 0.00 in0.0 mm
03:17 PM 48.4°F9.1°C 37.4°F3.0°C 66% 2.0 mph NNW3.2 kmh NNW -- 29.82 in1009.8 mb 0.00 in0.0 mm 0.00 in0.0 mm 0.00 in0.0 mm
03:18 PM 48.2°F9.0°C 37.3°F2.9°C 66% 3.0 mph NNW4.8 kmh NNW -- 29.82 in1009.8 mb 0.00 in0.0 mm 0.00 in0.0 mm 0.00 in0.0 mm
03:19 PM 48.0°F8.9°C 37.1°F2.8°C 66% 3.0 mph W4.8 kmh W -- 29.82 in1009.8 mb 0.00 in0.0 mm 0.00 in0.0 mm 0.00 in0.0 mm
03:20 PM 47.6°F8.7°C 36.7°F2.6°C 66% 3.0 mph 4.8 kmh -- 29.82 in1009.8 mb 0.00 in0.0 mm 0.00 in0.0 mm 0.00 in0.0 mm
03:21 PM 47.1°F8.4°C 37.0°F2.8°C 68% 3.0 mph NW4.8 kmh NW -- 29.83 in1010.2 mb 0.00 in0.0 mm 0.00 in0.0 mm 0.00 in0.0 mm
03:22 PM 47.1°F8.4°C 37.0°F2.8°C 68% 4.0 mph NNW6.4 kmh NNW -- 29.82 in1009.8 mb 0.00 in0.0 mm 0.00 in0.0 mm 0.00 in0.0 mm
03:23 PM 46.7°F8.2°C 36.6°F2.6°C 68% 4.0 mph NNW6.4 kmh NNW -- 29.82 in1009.8 mb 0.00 in0.0 mm 0.00 in0.0 mm 0.00 in0.0 mm
03:24 PM 46.5°F8.1°C 36.8°F2.7°C 69% 4.0 mph NNW6.4 kmh NNW -- 29.82 in1009.8 mb 0.00 in0.0 mm 0.00 in0.0 mm 0.00 in0.0 mm
03:25 PM 46.4°F8.0°C 36.7°F2.6°C 69% 4.0 mph NW6.4 kmh NW -- 29.82 in1009.8 mb 0.00 in0.0 mm 0.00 in0.0 mm 0.00 in0.0 mm
03:26 PM 45.9°F7.7°C 36.2°F2.3°C 69% 4.0 mph NNW6.4 kmh NNW -- 29.82 in1009.8 mb 0.00 in0.0 mm 0.00 in0.0 mm 0.00 in0.0 mm
03:27 PM 45.9°F7.7°C 36.2°F2.3°C 69% 3.0 mph NNW4.8 kmh NNW -- 29.82 in1009.8 mb 0.00 in0.0 mm 0.00 in0.0 mm 0.00 in0.0 mm
03:28 PM 45.9°F7.7°C 36.2°F2.3°C 69% 3.0 mph NW4.8 kmh NW -- 29.82 in1009.8 mb 0.00 in0.0 mm 0.00 in0.0 mm 0.00 in0.0 mm
03:30 PM 46.1°F7.8°C 36.3°F2.4°C 69% 3.0 mph NW4.8 kmh NW -- 29.82 in1009.8 mb 0.00 in0.0 mm 0.00 in0.0 mm 0.00 in0.0 mm
03:31 PM 46.1°F7.8°C 36.3°F2.4°C 69% 4.0 mph NNW6.4 kmh NNW -- 29.82 in1009.8 mb 0.00 in0.0 mm 0.00 in0.0 mm 0.00 in0.0 mm
03:32 PM 46.1°F7.8°C 36.3°F2.4°C 69% 3.0 mph NNW4.8 kmh NNW -- 29.82 in1009.8 mb 0.00 in0.0 mm 0.00 in0.0 mm 0.00 in0.0 mm
03:35 PM 46.4°F8.0°C 36.7°F2.6°C 69% 3.0 mph NNW4.8 kmh NNW -- 29.82 in1009.8 mb 0.00 in0.0 mm 0.00 in0.0 mm 0.00 in0.0 mm
03:36 PM 46.5°F8.1°C 36.8°F2.7°C 69% 3.0 mph NNW4.8 kmh NNW -- 29.82 in1009.8 mb 0.00 in0.0 mm 0.00 in0.0 mm 0.00 in0.0 mm
03:37 PM 46.9°F8.3°C 37.2°F2.9°C 69% 2.0 mph NW3.2 kmh NW -- 29.82 in1009.8 mb 0.00 in0.0 mm 0.00 in0.0 mm 0.00 in0.0 mm
03:38 PM 47.5°F8.6°C 37.7°F3.2°C 69% 2.0 mph 3.2 kmh -- 29.82 in1009.8 mb 0.00 in0.0 mm 0.00 in0.0 mm 0.00 in0.0 mm
03:39 PM 47.7°F8.7°C 37.5°F3.1°C 68% Calm Calm -- 29.82 in1009.8 mb 0.00 in0.0 mm 0.00 in0.0 mm 0.00 in0.0 mm
03:40 PM 47.7°F8.7°C 37.5°F3.1°C 68% Calm Calm -- 29.83 in1010.2 mb 0.00 in0.0 mm 0.00 in0.0 mm 0.00 in0.0 mm
03:41 PM 48.6°F9.2°C 37.6°F3.1°C 66% Calm Calm -- 29.83 in1010.2 mb 0.00 in0.0 mm 0.00 in0.0 mm 0.00 in0.0 mm
03:42 PM 48.6°F9.2°C 37.2°F2.9°C 65% Calm Calm -- 29.82 in1009.8 mb 0.00 in0.0 mm 0.00 in0.0 mm 0.00 in0.0 mm
03:44 PM 48.5°F9.2°C 37.2°F2.9°C 65% Calm Calm -- 29.82 in1009.8 mb 0.00 in0.0 mm 0.00 in0.0 mm 0.00 in0.0 mm
03:45 PM 48.6°F9.2°C 37.2°F2.9°C 65% 3.0 mph WNW4.8 kmh WNW -- 29.82 in1009.8 mb 0.00 in0.0 mm 0.00 in0.0 mm 0.00 in0.0 mm
03:46 PM 48.5°F9.2°C 37.2°F2.9°C 65% 3.0 mph NW4.8 kmh NW -- 29.82 in1009.8 mb 0.00 in0.0 mm 0.00 in0.0 mm 0.00 in0.0 mm
03:47 PM 48.0°F8.9°C 36.7°F2.6°C 65% 3.0 mph 4.8 kmh -- 29.82 in1009.8 mb 0.00 in0.0 mm 0.00 in0.0 mm 0.00 in0.0 mm
03:48 PM 48.0°F8.9°C 36.7°F2.6°C 65% 2.0 mph NNW3.2 kmh NNW -- 29.82 in1009.8 mb 0.00 in0.0 mm 0.00 in0.0 mm 0.00 in0.0 mm
03:49 PM 48.2°F9.0°C 37.3°F2.9°C 66% 2.0 mph 3.2 kmh -- 29.82 in1009.8 mb 0.00 in0.0 mm 0.00 in0.0 mm 0.00 in0.0 mm
03:50 PM 48.6°F9.2°C 37.2°F2.9°C 65% 1.0 mph NW1.6 kmh NW -- 29.82 in1009.8 mb 0.00 in0.0 mm 0.00 in0.0 mm 0.00 in0.0 mm
03:51 PM 48.9°F9.4°C 37.6°F3.1°C 65% 2.0 mph NNW3.2 kmh NNW -- 29.82 in1009.8 mb 0.00 in0.0 mm 0.00 in0.0 mm 0.00 in0.0 mm
03:52 PM 49.0°F9.4°C 37.6°F3.1°C 65% 2.0 mph NNW3.2 kmh NNW -- 29.83 in1010.2 mb 0.00 in0.0 mm 0.00 in0.0 mm 0.00 in0.0 mm
03:53 PM 48.9°F9.4°C 37.6°F3.1°C 65% 3.0 mph NNW4.8 kmh NNW -- 29.83 in1010.2 mb 0.00 in0.0 mm 0.00 in0.0 mm 0.00 in0.0 mm
03:54 PM 48.6°F9.2°C 37.2°F2.9°C 65% 3.0 mph NNW4.8 kmh NNW -- 29.83 in1010.2 mb 0.00 in0.0 mm 0.00 in0.0 mm 0.00 in0.0 mm
03:55 PM 48.5°F9.2°C 37.2°F2.9°C 65% 3.0 mph NW4.8 kmh NW -- 29.82 in1009.8 mb 0.00 in0.0 mm 0.00 in0.0 mm 0.00 in0.0 mm
03:56 PM 48.5°F9.2°C 37.2°F2.9°C 65% 3.0 mph NNW4.8 kmh NNW -- 29.83 in1010.2 mb 0.00 in0.0 mm 0.00 in0.0 mm 0.00 in0.0 mm
03:57 PM 48.5°F9.2°C 37.2°F2.9°C 65% 4.0 mph WNW6.4 kmh WNW -- 29.83 in1010.2 mb 0.00 in0.0 mm 0.00 in0.0 mm 0.00 in0.0 mm
03:58 PM 48.4°F9.1°C 37.0°F2.8°C 65% 3.0 mph NNW4.8 kmh NNW -- 29.83 in1010.2 mb 0.00 in0.0 mm 0.00 in0.0 mm 0.00 in0.0 mm
03:59 PM 48.2°F9.0°C 36.9°F2.7°C 65% 2.0 mph NNW3.2 kmh NNW -- 29.83 in1010.2 mb 0.00 in0.0 mm 0.00 in0.0 mm 0.00 in0.0 mm
04:00 PM 48.4°F9.1°C 37.0°F2.8°C 65% 1.0 mph NNW1.6 kmh NNW -- 29.83 in1010.2 mb 0.00 in0.0 mm 0.00 in0.0 mm 0.00 in0.0 mm
04:01 PM 48.9°F9.4°C 37.6°F3.1°C 65% Calm Calm -- 29.83 in1010.2 mb 0.00 in0.0 mm 0.00 in0.0 mm 0.00 in0.0 mm
04:02 PM 49.0°F9.4°C 37.6°F3.1°C 65% Calm Calm -- 29.83 in1010.2 mb 0.00 in0.0 mm 0.00 in0.0 mm 0.00 in0.0 mm
04:03 PM 48.9°F9.4°C 37.6°F3.1°C 65% Calm Calm -- 29.83 in1010.2 mb 0.00 in0.0 mm 0.00 in0.0 mm 0.00 in0.0 mm
04:04 PM 49.4°F9.7°C 38.1°F3.4°C 65% Calm Calm -- 29.83 in1010.2 mb 0.00 in0.0 mm 0.00 in0.0 mm 0.00 in0.0 mm
04:05 PM 50.1°F10.1°C 38.8°F3.8°C 65% Calm Calm -- 29.82 in1009.8 mb 0.00 in0.0 mm 0.00 in0.0 mm 0.00 in0.0 mm
04:06 PM 50.3°F10.2°C 38.9°F3.8°C 65% 2.0 mph 3.2 kmh -- 29.82 in1009.8 mb 0.00 in0.0 mm 0.00 in0.0 mm 0.00 in0.0 mm
04:07 PM 50.1°F10.1°C 37.9°F3.3°C 63% 2.0 mph 3.2 kmh -- 29.82 in1009.8 mb 0.00 in0.0 mm 0.00 in0.0 mm 0.00 in0.0 mm
04:08 PM 50.1°F10.1°C 37.9°F3.3°C 63% 2.0 mph NNW3.2 kmh NNW -- 29.82 in1009.8 mb 0.00 in0.0 mm 0.00 in0.0 mm 0.00 in0.0 mm
04:09 PM 50.1°F10.1°C 37.9°F3.3°C 63% 2.0 mph NW3.2 kmh NW -- 29.82 in1009.8 mb 0.00 in0.0 mm 0.00 in0.0 mm 0.00 in0.0 mm
04:11 PM 50.1°F10.1°C 37.9°F3.3°C 63% 2.0 mph NNW3.2 kmh NNW -- 29.82 in1009.8 mb 0.00 in0.0 mm 0.00 in0.0 mm 0.00 in0.0 mm
04:12 PM 50.0°F10.0°C 37.8°F3.2°C 63% 1.0 mph NW1.6 kmh NW -- 29.82 in1009.8 mb 0.00 in0.0 mm 0.00 in0.0 mm 0.00 in0.0 mm
04:13 PM 50.3°F10.2°C 38.1°F3.4°C 63% Calm Calm -- 29.82 in1009.8 mb 0.00 in0.0 mm 0.00 in0.0 mm 0.00 in0.0 mm
04:14 PM 50.3°F10.2°C 38.1°F3.4°C 63% 1.0 mph W1.6 kmh W -- 29.82 in1009.8 mb 0.00 in0.0 mm 0.00 in0.0 mm 0.00 in0.0 mm
04:15 PM 50.0°F10.0°C 37.8°F3.2°C 63% Calm Calm -- 29.82 in1009.8 mb 0.00 in0.0 mm 0.00 in0.0 mm 0.00 in0.0 mm
04:16 PM 50.1°F10.1°C 37.9°F3.3°C 63% 2.0 mph W3.2 kmh W -- 29.82 in1009.8 mb 0.00 in0.0 mm 0.00 in0.0 mm 0.00 in0.0 mm
04:17 PM 49.6°F9.8°C 38.2°F3.4°C 65% 2.0 mph W3.2 kmh W -- 29.82 in1009.8 mb 0.00 in0.0 mm 0.00 in0.0 mm 0.00 in0.0 mm
04:18 PM 48.5°F9.2°C 37.6°F3.1°C 66% 3.0 mph W4.8 kmh W -- 29.82 in1009.8 mb 0.00 in0.0 mm 0.00 in0.0 mm 0.00 in0.0 mm
04:19 PM 48.5°F9.2°C 37.6°F3.1°C 66% 3.0 mph WSW4.8 kmh WSW -- 29.82 in1009.8 mb 0.00 in0.0 mm 0.00 in0.0 mm 0.00 in0.0 mm
04:20 PM 48.2°F9.0°C 38.0°F3.3°C 68% 4.0 mph W6.4 kmh W -- 29.82 in1009.8 mb 0.00 in0.0 mm 0.00 in0.0 mm 0.00 in0.0 mm
04:21 PM 48.4°F9.1°C 37.4°F3.0°C 66% 3.0 mph W4.8 kmh W -- 29.82 in1009.8 mb 0.00 in0.0 mm 0.00 in0.0 mm 0.00 in0.0 mm
04:22 PM 47.7°F8.7°C 37.5°F3.1°C 68% 3.0 mph W4.8 kmh W -- 29.82 in1009.8 mb 0.00 in0.0 mm 0.00 in0.0 mm 0.00 in0.0 mm
04:24 PM 48.2°F9.0°C 37.3°F2.9°C 66% 3.0 mph W4.8 kmh W -- 29.82 in1009.8 mb 0.00 in0.0 mm 0.00 in0.0 mm 0.00 in0.0 mm
04:26 PM 48.4°F9.1°C 37.4°F3.0°C 66% 3.0 mph W4.8 kmh W -- 29.82 in1009.8 mb 0.00 in0.0 mm 0.00 in0.0 mm 0.00 in0.0 mm
04:27 PM 48.6°F9.2°C 37.2°F2.9°C 65% 4.0 mph W6.4 kmh W -- 29.82 in1009.8 mb 0.00 in0.0 mm 0.00 in0.0 mm 0.00 in0.0 mm
04:28 PM 48.9°F9.4°C 37.6°F3.1°C 65% 2.0 mph W3.2 kmh W -- 29.82 in1009.8 mb 0.00 in0.0 mm 0.00 in0.0 mm 0.00 in0.0 mm
04:29 PM 49.0°F9.4°C 37.6°F3.1°C 65% 2.0 mph W3.2 kmh W -- 29.82 in1009.8 mb 0.00 in0.0 mm 0.00 in0.0 mm 0.00 in0.0 mm
04:30 PM 49.2°F9.6°C 37.9°F3.3°C 65% Calm Calm -- 29.83 in1010.2 mb 0.00 in0.0 mm 0.00 in0.0 mm 0.00 in0.0 mm
04:31 PM 49.0°F9.4°C 37.6°F3.1°C 65% 2.0 mph W3.2 kmh W -- 29.82 in1009.8 mb 0.00 in0.0 mm 0.00 in0.0 mm 0.00 in0.0 mm
04:32 PM 49.2°F9.6°C 37.9°F3.3°C 65% 3.0 mph W4.8 kmh W -- 29.82 in1009.8 mb 0.00 in0.0 mm 0.00 in0.0 mm 0.00 in0.0 mm
04:33 PM 48.9°F9.4°C 37.6°F3.1°C 65% 2.0 mph WSW3.2 kmh WSW -- 29.83 in1010.2 mb 0.00 in0.0 mm 0.00 in0.0 mm 0.00 in0.0 mm
04:34 PM 48.6°F9.2°C 37.6°F3.1°C 66% 3.0 mph W4.8 kmh W -- 29.83 in1010.2 mb 0.00 in0.0 mm 0.00 in0.0 mm 0.00 in0.0 mm
04:35 PM 48.9°F9.4°C 37.9°F3.3°C 66% 3.0 mph W4.8 kmh W -- 29.83 in1010.2 mb 0.00 in0.0 mm 0.00 in0.0 mm 0.00 in0.0 mm
04:36 PM 48.9°F9.4°C 37.9°F3.3°C 66% 4.0 mph W6.4 kmh W -- 29.82 in1009.8 mb 0.00 in0.0 mm 0.00 in0.0 mm 0.00 in0.0 mm
04:37 PM 49.4°F9.7°C 38.5°F3.6°C 66% 2.0 mph W3.2 kmh W -- 29.82 in1009.8 mb 0.00 in0.0 mm 0.00 in0.0 mm 0.00 in0.0 mm
04:38 PM 50.0°F10.0°C 38.6°F3.7°C 65% 3.0 mph W4.8 kmh W -- 29.82 in1009.8 mb 0.00 in0.0 mm 0.00 in0.0 mm 0.00 in0.0 mm
04:40 PM 49.6°F9.8°C 38.2°F3.4°C 65% 3.0 mph WSW4.8 kmh WSW -- 29.83 in1010.2 mb 0.00 in0.0 mm 0.00 in0.0 mm 0.00 in0.0 mm
04:41 PM 49.4°F9.7°C 38.1°F3.4°C 65% 3.0 mph W4.8 kmh W -- 29.83 in1010.2 mb 0.00 in0.0 mm 0.00 in0.0 mm 0.00 in0.0 mm
04:43 PM 49.8°F9.9°C 38.4°F3.6°C 65% 3.0 mph W4.8 kmh W -- 29.83 in1010.2 mb 0.00 in0.0 mm 0.00 in0.0 mm 0.00 in0.0 mm
04:44 PM 48.9°F9.4°C 37.9°F3.3°C 66% 1.0 mph W1.6 kmh W -- 29.82 in1009.8 mb 0.00 in0.0 mm 0.00 in0.0 mm 0.00 in0.0 mm
04:45 PM 48.4°F9.1°C 38.2°F3.4°C 68% 2.0 mph WSW3.2 kmh WSW -- 29.82 in1009.8 mb 0.00 in0.0 mm 0.00 in0.0 mm 0.00 in0.0 mm
04:46 PM 48.0°F8.9°C 37.9°F3.3°C 68% 2.0 mph WSW3.2 kmh WSW -- 29.83 in1010.2 mb 0.00 in0.0 mm 0.00 in0.0 mm 0.00 in0.0 mm
04:47 PM 47.7°F8.7°C 37.9°F3.3°C 69% 2.0 mph W3.2 kmh W -- 29.82 in1009.8 mb 0.00 in0.0 mm 0.00 in0.0 mm 0.00 in0.0 mm
04:48 PM 47.7°F8.7°C 37.9°F3.3°C 69% 3.0 mph WSW4.8 kmh WSW -- 29.83 in1010.2 mb 0.00 in0.0 mm 0.00 in0.0 mm 0.00 in0.0 mm
04:49 PM 48.2°F9.0°C 38.4°F3.6°C 69% 2.0 mph W3.2 kmh W -- 29.83 in1010.2 mb 0.00 in0.0 mm 0.00 in0.0 mm 0.00 in0.0 mm
04:50 PM 48.5°F9.2°C 38.4°F3.6°C 68% 4.0 mph W6.4 kmh W -- 29.83 in1010.2 mb 0.00 in0.0 mm 0.00 in0.0 mm 0.00 in0.0 mm
04:51 PM 48.5°F9.2°C 38.4°F3.6°C 68% 2.0 mph W3.2 kmh W -- 29.83 in1010.2 mb 0.00 in0.0 mm 0.00 in0.0 mm 0.00 in0.0 mm
04:52 PM 48.6°F9.2°C 38.4°F3.6°C 68% 3.0 mph W4.8 kmh W -- 29.83 in1010.2 mb 0.00 in0.0 mm 0.00 in0.0 mm 0.00 in0.0 mm
04:53 PM 49.2°F9.6°C 38.3°F3.5°C 66% 2.0 mph WSW3.2 kmh WSW -- 29.82 in1009.8 mb 0.00 in0.0 mm 0.00 in0.0 mm 0.00 in0.0 mm
04:54 PM 48.4°F9.1°C 38.2°F3.4°C 68% 3.0 mph W4.8 kmh W -- 29.82 in1009.8 mb 0.00 in0.0 mm 0.00 in0.0 mm 0.00 in0.0 mm
04:55 PM 48.0°F8.9°C 37.9°F3.3°C 68% 3.0 mph W4.8 kmh W -- 29.82 in1009.8 mb 0.00 in0.0 mm 0.00 in0.0 mm 0.00 in0.0 mm
04:57 PM 48.5°F9.2°C 38.4°F3.6°C 68% 3.0 mph W4.8 kmh W -- 29.82 in1009.8 mb 0.00 in0.0 mm 0.00 in0.0 mm 0.00 in0.0 mm
04:58 PM 48.4°F9.1°C 38.2°F3.4°C 68% 3.0 mph W4.8 kmh W -- 29.82 in1009.8 mb 0.00 in0.0 mm 0.00 in0.0 mm 0.00 in0.0 mm
04:59 PM 48.2°F9.0°C 38.0°F3.3°C 68% 2.0 mph WNW3.2 kmh WNW -- 29.82 in1009.8 mb 0.00 in0.0 mm 0.00 in0.0 mm 0.00 in0.0 mm
05:00 PM 48.9°F9.4°C 37.9°F3.3°C 66% 3.0 mph W4.8 kmh W -- 29.82 in1009.8 mb 0.00 in0.0 mm 0.00 in0.0 mm 0.00 in0.0 mm
05:01 PM 48.6°F9.2°C 37.6°F3.1°C 66% 3.0 mph W4.8 kmh W -- 29.82 in1009.8 mb 0.00 in0.0 mm 0.00 in0.0 mm 0.00 in0.0 mm
05:02 PM 48.5°F9.2°C 37.6°F3.1°C 66% 3.0 mph W4.8 kmh W -- 29.82 in1009.8 mb 0.00 in0.0 mm 0.00 in0.0 mm 0.00 in0.0 mm
05:03 PM 48.0°F8.9°C 37.1°F2.8°C 66% 3.0 mph W4.8 kmh W -- 29.82 in1009.8 mb 0.00 in0.0 mm 0.00 in0.0 mm 0.00 in0.0 mm
05:04 PM 47.7°F8.7°C 36.7°F2.6°C 66% 3.0 mph W4.8 kmh W -- 29.82 in1009.8 mb 0.00 in0.0 mm 0.00 in0.0 mm 0.00 in0.0 mm
05:05 PM 47.7°F8.7°C 37.5°F3.1°C 68% 3.0 mph W4.8 kmh W -- 29.82 in1009.8 mb 0.00 in0.0 mm 0.00 in0.0 mm 0.00 in0.0 mm
05:06 PM 47.6°F8.7°C 37.5°F3.1°C 68% 3.0 mph W4.8 kmh W -- 29.82 in1009.8 mb 0.00 in0.0 mm 0.00 in0.0 mm 0.00 in0.0 mm
05:07 PM 47.3°F8.5°C 37.5°F3.1°C 69% 3.0 mph W4.8 kmh W -- 29.82 in1009.8 mb 0.00 in0.0 mm 0.00 in0.0 mm 0.00 in0.0 mm
05:08 PM 47.3°F8.5°C 37.9°F3.3°C 70% 2.0 mph W3.2 kmh W -- 29.82 in1009.8 mb 0.00 in0.0 mm 0.00 in0.0 mm 0.00 in0.0 mm
05:09 PM 47.6°F8.7°C 37.9°F3.3°C 69% 3.0 mph W4.8 kmh W -- 29.82 in1009.8 mb 0.00 in0.0 mm 0.00 in0.0 mm 0.00 in0.0 mm
05:11 PM 47.1°F8.4°C 37.4°F3.0°C 69% 3.0 mph W4.8 kmh W -- 29.82 in1009.8 mb 0.00 in0.0 mm 0.00 in0.0 mm 0.00 in0.0 mm
05:12 PM 47.1°F8.4°C 37.7°F3.2°C 70% 4.0 mph W6.4 kmh W -- 29.82 in1009.8 mb 0.00 in0.0 mm 0.00 in0.0 mm 0.00 in0.0 mm
05:13 PM 47.3°F8.5°C 37.9°F3.3°C 70% 3.0 mph W4.8 kmh W -- 29.82 in1009.8 mb 0.00 in0.0 mm 0.00 in0.0 mm 0.00 in0.0 mm
05:14 PM 47.5°F8.6°C 38.1°F3.4°C 70% 3.0 mph W4.8 kmh W -- 29.82 in1009.8 mb 0.00 in0.0 mm 0.00 in0.0 mm 0.00 in0.0 mm
05:15 PM 47.6°F8.7°C 37.9°F3.3°C 69% 3.0 mph W4.8 kmh W -- 29.82 in1009.8 mb 0.00 in0.0 mm 0.00 in0.0 mm 0.00 in0.0 mm
05:16 PM 47.6°F8.7°C 37.9°F3.3°C 69% 4.0 mph W6.4 kmh W -- 29.82 in1009.8 mb 0.00 in0.0 mm 0.00 in0.0 mm 0.00 in0.0 mm
05:17 PM 47.5°F8.6°C 37.7°F3.2°C 69% 4.0 mph W6.4 kmh W -- 29.82 in1009.8 mb 0.00 in0.0 mm 0.00 in0.0 mm 0.00 in0.0 mm
05:18 PM 47.3°F8.5°C 37.9°F3.3°C 70% 3.0 mph W4.8 kmh W -- 29.82 in1009.8 mb 0.00 in0.0 mm 0.00 in0.0 mm 0.00 in0.0 mm
05:19 PM 47.1°F8.4°C 37.7°F3.2°C 70% 2.0 mph WNW3.2 kmh WNW -- 29.82 in1009.8 mb 0.00 in0.0 mm 0.00 in0.0 mm 0.00 in0.0 mm
05:20 PM 47.3°F8.5°C 37.9°F3.3°C 70% 2.0 mph NW3.2 kmh NW -- 29.82 in1009.8 mb 0.00 in0.0 mm 0.00 in0.0 mm 0.00 in0.0 mm
05:21 PM 47.6°F8.7°C 38.3°F3.5°C 70% 2.0 mph WNW3.2 kmh WNW -- 29.82 in1009.8 mb 0.00 in0.0 mm 0.00 in0.0 mm 0.00 in0.0 mm
05:22 PM 47.8°F8.8°C 38.4°F3.6°C 70% 2.0 mph ESE3.2 kmh ESE -- 29.82 in1009.8 mb 0.00 in0.0 mm 0.00 in0.0 mm 0.00 in0.0 mm
05:23 PM 48.4°F9.1°C 38.2°F3.4°C 68% 3.0 mph W4.8 kmh W -- 29.82 in1009.8 mb 0.00 in0.0 mm 0.00 in0.0 mm 0.00 in0.0 mm
05:24 PM 48.5°F9.2°C 38.4°F3.6°C 68% 2.0 mph W3.2 kmh W -- 29.82 in1009.8 mb 0.00 in0.0 mm 0.00 in0.0 mm 0.00 in0.0 mm
05:25 PM 48.6°F9.2°C 38.4°F3.6°C 68% 4.0 mph W6.4 kmh W -- 29.82 in1009.8 mb 0.00 in0.0 mm 0.00 in0.0 mm 0.00 in0.0 mm
05:26 PM 48.6°F9.2°C 37.6°F3.1°C 66% 3.0 mph W4.8 kmh W -- 29.82 in1009.8 mb 0.00 in0.0 mm 0.00 in0.0 mm 0.00 in0.0 mm
05:27 PM 48.2°F9.0°C 38.0°F3.3°C 68% 2.0 mph WNW3.2 kmh WNW -- 29.82 in1009.8 mb 0.00 in0.0 mm 0.00 in0.0 mm 0.00 in0.0 mm
05:28 PM 48.5°F9.2°C 38.4°F3.6°C 68% 1.0 mph W1.6 kmh W -- 29.82 in1009.8 mb 0.00 in0.0 mm 0.00 in0.0 mm 0.00 in0.0 mm
05:29 PM 48.6°F9.2°C 38.4°F3.6°C 68% 2.0 mph W3.2 kmh W -- 29.82 in1009.8 mb 0.00 in0.0 mm 0.00 in0.0 mm 0.00 in0.0 mm
05:30 PM 48.6°F9.2°C 38.4°F3.6°C 68% 1.0 mph WNW1.6 kmh WNW -- 29.82 in1009.8 mb 0.00 in0.0 mm 0.00 in0.0 mm 0.00 in0.0 mm
05:31 PM 48.9°F9.4°C 38.7°F3.7°C 68% Calm Calm -- 29.82 in1009.8 mb 0.00 in0.0 mm 0.00 in0.0 mm 0.00 in0.0 mm
05:32 PM 48.6°F9.2°C 38.4°F3.6°C 68% Calm Calm -- 29.82 in1009.8 mb 0.00 in0.0 mm 0.00 in0.0 mm 0.00 in0.0 mm
05:33 PM 48.9°F9.4°C 38.7°F3.7°C 68% Calm Calm -- 29.82 in1009.8 mb 0.00 in0.0 mm 0.00 in0.0 mm 0.00 in0.0 mm
05:34 PM 49.0°F9.4°C 38.7°F3.7°C 68% Calm Calm -- 29.83 in1010.2 mb 0.00 in0.0 mm 0.00 in0.0 mm 0.00 in0.0 mm
05:35 PM 49.0°F9.4°C 38.7°F3.7°C 68% Calm Calm -- 29.82 in1009.8 mb 0.00 in0.0 mm 0.00 in0.0 mm 0.00 in0.0 mm
05:36 PM 48.5°F9.2°C 38.4°F3.6°C 68% 2.0 mph WSW3.2 kmh WSW -- 29.82 in1009.8 mb 0.00 in0.0 mm 0.00 in0.0 mm 0.00 in0.0 mm
05:37 PM 48.4°F9.1°C 38.2°F3.4°C 68% Calm Calm -- 29.82 in1009.8 mb 0.00 in0.0 mm 0.00 in0.0 mm 0.00 in0.0 mm
05:38 PM 48.2°F9.0°C 38.0°F3.3°C 68% 2.0 mph W3.2 kmh W -- 29.82 in1009.8 mb 0.00 in0.0 mm 0.00 in0.0 mm 0.00 in0.0 mm
05:39 PM 48.2°F9.0°C 38.0°F3.3°C 68% Calm Calm -- 29.82 in1009.8 mb 0.00 in0.0 mm 0.00 in0.0 mm 0.00 in0.0 mm
05:40 PM 48.6°F9.2°C 38.4°F3.6°C 68% Calm Calm -- 29.82 in1009.8 mb 0.00 in0.0 mm 0.00 in0.0 mm 0.00 in0.0 mm
05:41 PM 48.9°F9.4°C 37.9°F3.3°C 66% 1.0 mph WNW1.6 kmh WNW -- 29.82 in1009.8 mb 0.00 in0.0 mm 0.00 in0.0 mm 0.00 in0.0 mm
05:42 PM 48.9°F9.4°C 37.9°F3.3°C 66% 2.0 mph W3.2 kmh W -- 29.82 in1009.8 mb 0.00 in0.0 mm 0.00 in0.0 mm 0.00 in0.0 mm
05:43 PM 49.0°F9.4°C 37.9°F3.3°C 66% 2.0 mph W3.2 kmh W -- 29.83 in1010.2 mb 0.00 in0.0 mm 0.00 in0.0 mm 0.00 in0.0 mm
05:44 PM 48.9°F9.4°C 37.9°F3.3°C 66% 1.0 mph W1.6 kmh W -- 29.83 in1010.2 mb 0.00 in0.0 mm 0.00 in0.0 mm 0.00 in0.0 mm
05:45 PM 49.0°F9.4°C 37.9°F3.3°C 66% Calm Calm -- 29.82 in1009.8 mb 0.00 in0.0 mm 0.00 in0.0 mm 0.00 in0.0 mm
05:46 PM 48.9°F9.4°C 37.9°F3.3°C 66% Calm Calm -- 29.82 in1009.8 mb 0.00 in0.0 mm 0.00 in0.0 mm 0.00 in0.0 mm
05:47 PM 48.6°F9.2°C 37.6°F3.1°C 66% Calm Calm -- 29.82 in1009.8 mb 0.00 in0.0 mm 0.00 in0.0 mm 0.00 in0.0 mm
05:48 PM 48.9°F9.4°C 37.9°F3.3°C 66% Calm Calm -- 29.82 in1009.8 mb 0.00 in0.0 mm 0.00 in0.0 mm 0.00 in0.0 mm
05:49 PM 48.9°F9.4°C 37.9°F3.3°C 66% Calm Calm -- 29.82 in1009.8 mb 0.00 in0.0 mm 0.00 in0.0 mm 0.00 in0.0 mm
05:50 PM 48.6°F9.2°C 37.6°F3.1°C 66% 3.0 mph NNW4.8 kmh NNW -- 29.82 in1009.8 mb 0.00 in0.0 mm 0.00 in0.0 mm 0.00 in0.0 mm
05:51 PM 48.6°F9.2°C 37.6°F3.1°C 66% 2.0 mph NNW3.2 kmh NNW -- 29.82 in1009.8 mb 0.00 in0.0 mm 0.00 in0.0 mm 0.00 in0.0 mm
05:52 PM 48.6°F9.2°C 37.6°F3.1°C 66% 3.0 mph NW4.8 kmh NW -- 29.82 in1009.8 mb 0.00 in0.0 mm 0.00 in0.0 mm 0.00 in0.0 mm
05:53 PM 48.6°F9.2°C 37.6°F3.1°C 66% 2.0 mph NW3.2 kmh NW -- 29.82 in1009.8 mb 0.00 in0.0 mm 0.00 in0.0 mm 0.00 in0.0 mm
05:55 PM 48.5°F9.2°C 37.6°F3.1°C 66% 2.0 mph NW3.2 kmh NW -- 29.81 in1009.5 mb 0.00 in0.0 mm 0.00 in0.0 mm 0.00 in0.0 mm
05:56 PM 48.6°F9.2°C 37.6°F3.1°C 66% 2.0 mph NW3.2 kmh NW -- 29.81 in1009.5 mb 0.00 in0.0 mm 0.00 in0.0 mm 0.00 in0.0 mm
05:57 PM 48.5°F9.2°C 37.6°F3.1°C 66% Calm Calm -- 29.81 in1009.5 mb 0.00 in0.0 mm 0.00 in0.0 mm 0.00 in0.0 mm
05:58 PM 48.4°F9.1°C 37.4°F3.0°C 66% Calm Calm -- 29.82 in1009.8 mb 0.00 in0.0 mm 0.00 in0.0 mm 0.00 in0.0 mm
06:01 PM 48.4°F9.1°C 37.4°F3.0°C 66% Calm Calm -- 29.82 in1009.8 mb 0.00 in0.0 mm 0.00 in0.0 mm 0.00 in0.0 mm
06:02 PM 48.2°F9.0°C 38.0°F3.3°C 68% Calm Calm -- 29.82 in1009.8 mb 0.00 in0.0 mm 0.00 in0.0 mm 0.00 in0.0 mm
06:03 PM 48.2°F9.0°C 38.0°F3.3°C 68% Calm Calm -- 29.82 in1009.8 mb 0.00 in0.0 mm 0.00 in0.0 mm 0.00 in0.0 mm
06:04 PM 48.0°F8.9°C 37.9°F3.3°C 68% Calm Calm -- 29.82 in1009.8 mb 0.00 in0.0 mm 0.00 in0.0 mm 0.00 in0.0 mm
06:05 PM 47.7°F8.7°C 37.5°F3.1°C 68% Calm Calm -- 29.82 in1009.8 mb 0.00 in0.0 mm 0.00 in0.0 mm 0.00 in0.0 mm
06:07 PM 47.7°F8.7°C 37.5°F3.1°C 68% Calm Calm -- 29.81 in1009.5 mb 0.00 in0.0 mm 0.00 in0.0 mm 0.00 in0.0 mm
06:08 PM 48.0°F8.9°C 37.9°F3.3°C 68% Calm Calm -- 29.81 in1009.5 mb 0.00 in0.0 mm 0.00 in0.0 mm 0.00 in0.0 mm
06:09 PM 48.2°F9.0°C 38.0°F3.3°C 68% Calm Calm -- 29.81 in1009.5 mb 0.00 in0.0 mm 0.00 in0.0 mm 0.00 in0.0 mm
06:10 PM 48.0°F8.9°C 37.9°F3.3°C 68% Calm Calm -- 29.82 in1009.8 mb 0.00 in0.0 mm 0.00 in0.0 mm 0.00 in0.0 mm
06:11 PM 48.2°F9.0°C 38.0°F3.3°C 68% Calm Calm -- 29.82 in1009.8 mb 0.00 in0.0 mm 0.00 in0.0 mm 0.00 in0.0 mm
06:12 PM 48.5°F9.2°C 38.4°F3.6°C 68% Calm Calm -- 29.82 in1009.8 mb 0.00 in0.0 mm 0.00 in0.0 mm 0.00 in0.0 mm
06:13 PM 48.5°F9.2°C 38.4°F3.6°C 68% Calm Calm -- 29.81 in1009.5 mb 0.00 in0.0 mm 0.00 in0.0 mm 0.00 in0.0 mm
06:14 PM 48.6°F9.2°C 37.6°F3.1°C 66% Calm Calm -- 29.81 in1009.5 mb 0.00 in0.0 mm 0.00 in0.0 mm 0.00 in0.0 mm
06:15 PM 48.6°F9.2°C 37.6°F3.1°C 66% Calm Calm -- 29.82 in1009.8 mb 0.00 in0.0 mm 0.00 in0.0 mm 0.00 in0.0 mm
06:16 PM 48.9°F9.4°C 37.9°F3.3°C 66% Calm Calm -- 29.82 in1009.8 mb 0.00 in0.0 mm 0.00 in0.0 mm 0.00 in0.0 mm
06:17 PM 48.9°F9.4°C 37.9°F3.3°C 66% Calm Calm -- 29.81 in1009.5 mb 0.00 in0.0 mm 0.00 in0.0 mm 0.00 in0.0 mm
06:19 PM 49.0°F9.4°C 37.9°F3.3°C 66% Calm Calm -- 29.82 in1009.8 mb 0.00 in0.0 mm 0.00 in0.0 mm 0.00 in0.0 mm
06:20 PM 49.0°F9.4°C 37.9°F3.3°C 66% 1.0 mph NW1.6 kmh NW -- 29.81 in1009.5 mb 0.00 in0.0 mm 0.00 in0.0 mm 0.00 in0.0 mm
06:21 PM 48.9°F9.4°C 37.9°F3.3°C 66% 2.0 mph NW3.2 kmh NW -- 29.82 in1009.8 mb 0.00 in0.0 mm 0.00 in0.0 mm 0.00 in0.0 mm
06:22 PM 48.5°F9.2°C 37.6°F3.1°C 66% 2.0 mph NNW3.2 kmh NNW -- 29.81 in1009.5 mb 0.00 in0.0 mm 0.00 in0.0 mm 0.00 in0.0 mm
06:23 PM 48.5°F9.2°C 37.6°F3.1°C 66% 2.0 mph NW3.2 kmh NW -- 29.81 in1009.5 mb 0.00 in0.0 mm 0.00 in0.0 mm 0.00 in0.0 mm
06:25 PM 48.4°F9.1°C 37.4°F3.0°C 66% 2.0 mph NNW3.2 kmh NNW -- 29.81 in1009.5 mb 0.00 in0.0 mm 0.00 in0.0 mm 0.00 in0.0 mm
06:26 PM 48.2°F9.0°C 37.3°F2.9°C 66% 2.0 mph NW3.2 kmh NW -- 29.81 in1009.5 mb 0.00 in0.0 mm 0.00 in0.0 mm 0.00 in0.0 mm
06:27 PM 48.0°F8.9°C 37.1°F2.8°C 66% 2.0 mph NW3.2 kmh NW -- 29.81 in1009.5 mb 0.00 in0.0 mm 0.00 in0.0 mm 0.00 in0.0 mm
06:28 PM 48.0°F8.9°C 37.1°F2.8°C 66% 2.0 mph NNW3.2 kmh NNW -- 29.81 in1009.5 mb 0.00 in0.0 mm 0.00 in0.0 mm 0.00 in0.0 mm
06:30 PM 47.7°F8.7°C 36.7°F2.6°C 66% 2.0 mph NNW3.2 kmh NNW -- 29.81 in1009.5 mb 0.00 in0.0 mm 0.00 in0.0 mm 0.00 in0.0 mm
06:31 PM 47.7°F8.7°C 36.7°F2.6°C 66% 2.0 mph WNW3.2 kmh WNW -- 29.81 in1009.5 mb 0.00 in0.0 mm 0.00 in0.0 mm 0.00 in0.0 mm
06:32 PM 47.5°F8.6°C 37.3°F2.9°C 68% 1.0 mph W1.6 kmh W -- 29.81 in1009.5 mb 0.00 in0.0 mm 0.00 in0.0 mm 0.00 in0.0 mm
06:33 PM 47.5°F8.6°C 37.3°F2.9°C 68% 1.0 mph WNW1.6 kmh WNW -- 29.81 in1009.5 mb 0.00 in0.0 mm 0.00 in0.0 mm 0.00 in0.0 mm
06:34 PM 47.6°F8.7°C 37.5°F3.1°C 68% 1.0 mph NW1.6 kmh NW -- 29.81 in1009.5 mb 0.00 in0.0 mm 0.00 in0.0 mm 0.00 in0.0 mm
06:35 PM 47.6°F8.7°C 37.5°F3.1°C 68% 1.0 mph WNW1.6 kmh WNW -- 29.81 in1009.5 mb 0.00 in0.0 mm 0.00 in0.0 mm 0.00 in0.0 mm
06:36 PM 47.6°F8.7°C 37.5°F3.1°C 68% 1.0 mph NW1.6 kmh NW -- 29.81 in1009.5 mb 0.00 in0.0 mm 0.00 in0.0 mm 0.00 in0.0 mm
06:37 PM 47.5°F8.6°C 37.3°F2.9°C 68% Calm Calm -- 29.81 in1009.5 mb 0.00 in0.0 mm 0.00 in0.0 mm 0.00 in0.0 mm
06:38 PM 47.5°F8.6°C 37.7°F3.2°C 69% Calm Calm -- 29.81 in1009.5 mb 0.00 in0.0 mm 0.00 in0.0 mm 0.00 in0.0 mm
06:39 PM 47.5°F8.6°C 37.7°F3.2°C 69% Calm Calm -- 29.81 in1009.5 mb 0.00 in0.0 mm 0.00 in0.0 mm 0.00 in0.0 mm
06:40 PM 47.1°F8.4°C 37.4°F3.0°C 69% Calm Calm -- 29.81 in1009.5 mb 0.00 in0.0 mm 0.00 in0.0 mm 0.00 in0.0 mm
06:41 PM 47.5°F8.6°C 37.7°F3.2°C 69% Calm Calm -- 29.81 in1009.5 mb 0.00 in0.0 mm 0.00 in0.0 mm 0.00 in0.0 mm
06:42 PM 47.5°F8.6°C 37.7°F3.2°C 69% Calm Calm -- 29.81 in1009.5 mb 0.00 in0.0 mm 0.00 in0.0 mm 0.00 in0.0 mm
06:44 PM 47.5°F8.6°C 37.7°F3.2°C 69% Calm Calm -- 29.82 in1009.8 mb 0.00 in0.0 mm 0.00 in0.0 mm 0.00 in0.0 mm
06:45 PM 47.5°F8.6°C 37.7°F3.2°C 69% Calm Calm -- 29.81 in1009.5 mb 0.00 in0.0 mm 0.00 in0.0 mm 0.00 in0.0 mm
06:46 PM 47.1°F8.4°C 37.4°F3.0°C 69% Calm Calm -- 29.81 in1009.5 mb 0.00 in0.0 mm 0.00 in0.0 mm 0.00 in0.0 mm
06:47 PM 47.1°F8.4°C 37.4°F3.0°C 69% 1.0 mph W1.6 kmh W -- 29.81 in1009.5 mb 0.00 in0.0 mm 0.00 in0.0 mm 0.00 in0.0 mm
06:48 PM 46.7°F8.2°C 37.4°F3.0°C 70% 1.0 mph WNW1.6 kmh WNW -- 29.81 in1009.5 mb 0.00 in0.0 mm 0.00 in0.0 mm 0.00 in0.0 mm
06:49 PM 46.5°F8.1°C 37.2°F2.9°C 70% Calm Calm -- 29.82 in1009.8 mb 0.00 in0.0 mm 0.00 in0.0 mm 0.00 in0.0 mm
06:50 PM 46.5°F8.1°C 37.2°F2.9°C 70% Calm Calm -- 29.81 in1009.5 mb 0.00 in0.0 mm 0.00 in0.0 mm 0.00 in0.0 mm
06:51 PM 46.4°F8.0°C 37.0°F2.8°C 70% Calm Calm -- 29.81 in1009.5 mb 0.00 in0.0 mm 0.00 in0.0 mm 0.00 in0.0 mm
06:52 PM 46.4°F8.0°C 37.0°F2.8°C 70% Calm Calm -- 29.81 in1009.5 mb 0.00 in0.0 mm 0.00 in0.0 mm 0.00 in0.0 mm
06:53 PM 46.7°F8.2°C 37.4°F3.0°C 70% Calm Calm -- 29.81 in1009.5 mb 0.00 in0.0 mm 0.00 in0.0 mm 0.00 in0.0 mm
06:54 PM 46.4°F8.0°C 37.0°F2.8°C 70% Calm Calm -- 29.81 in1009.5 mb 0.00 in0.0 mm 0.00 in0.0 mm 0.00 in0.0 mm
06:55 PM 45.9°F7.7°C 36.9°F2.7°C 71% Calm Calm -- 29.82 in1009.8 mb 0.00 in0.0 mm 0.00 in0.0 mm 0.00 in0.0 mm
06:56 PM 46.1°F7.8°C 36.7°F2.6°C 70% Calm Calm -- 29.81 in1009.5 mb 0.00 in0.0 mm 0.00 in0.0 mm 0.00 in0.0 mm
06:57 PM 45.9°F7.7°C 36.5°F2.5°C 70% Calm Calm -- 29.81 in1009.5 mb 0.00 in0.0 mm 0.00 in0.0 mm 0.00 in0.0 mm
06:59 PM 45.0°F7.2°C 36.0°F2.2°C 71% Calm Calm -- 29.82 in1009.8 mb 0.00 in0.0 mm 0.00 in0.0 mm 0.00 in0.0 mm
07:00 PM 45.5°F7.5°C 36.5°F2.5°C 71% Calm Calm -- 29.81 in1009.5 mb 0.00 in0.0 mm 0.00 in0.0 mm 0.00 in0.0 mm
07:01 PM 45.5°F7.5°C 36.5°F2.5°C 71% Calm Calm -- 29.81 in1009.5 mb 0.00 in0.0 mm 0.00 in0.0 mm 0.00 in0.0 mm
07:02 PM 45.9°F7.7°C 36.9°F2.7°C 71% Calm Calm -- 29.81 in1009.5 mb 0.00 in0.0 mm 0.00 in0.0 mm 0.00 in0.0 mm
07:03 PM 45.9°F7.7°C 36.9°F2.7°C 71% Calm Calm -- 29.81 in1009.5 mb 0.00 in0.0 mm 0.00 in0.0 mm 0.00 in0.0 mm
07:04 PM 45.9°F7.7°C 36.9°F2.7°C 71% 2.0 mph NW3.2 kmh NW -- 29.81 in1009.5 mb 0.00 in0.0 mm 0.00 in0.0 mm 0.00 in0.0 mm
07:06 PM 45.7°F7.6°C 36.7°F2.6°C 71% 1.0 mph NW1.6 kmh NW -- 29.81 in1009.5 mb 0.00 in0.0 mm 0.00 in0.0 mm 0.00 in0.0 mm
07:07 PM 45.5°F7.5°C 36.5°F2.5°C 71% 1.0 mph NW1.6 kmh NW -- 29.81 in1009.5 mb 0.00 in0.0 mm 0.00 in0.0 mm 0.00 in0.0 mm
07:08 PM 45.2°F7.3°C 36.2°F2.3°C 71% 1.0 mph NW1.6 kmh NW -- 29.81 in1009.5 mb 0.00 in0.0 mm 0.00 in0.0 mm 0.00 in0.0 mm
07:09 PM 45.2°F7.3°C 36.2°F2.3°C 71% Calm Calm -- 29.81 in1009.5 mb 0.00 in0.0 mm 0.00 in0.0 mm 0.00 in0.0 mm
07:10 PM 45.0°F7.2°C 36.0°F2.2°C 71% Calm Calm -- 29.81 in1009.5 mb 0.00 in0.0 mm 0.00 in0.0 mm 0.00 in0.0 mm
07:12 PM 44.8°F7.1°C 35.8°F2.1°C 71% Calm Calm -- 29.81 in1009.5 mb 0.00 in0.0 mm 0.00 in0.0 mm 0.00 in0.0 mm
07:13 PM 44.4°F6.9°C 36.2°F2.3°C 73% Calm Calm -- 29.81 in1009.5 mb 0.00 in0.0 mm 0.00 in0.0 mm 0.00 in0.0 mm
07:14 PM 44.0°F6.7°C 36.2°F2.3°C 74% Calm Calm -- 29.81 in1009.5 mb 0.00 in0.0 mm 0.00 in0.0 mm 0.00 in0.0 mm
07:15 PM 43.9°F6.6°C 36.0°F2.2°C 74% Calm Calm -- 29.81 in1009.5 mb 0.00 in0.0 mm 0.00 in0.0 mm 0.00 in0.0 mm
07:16 PM 43.9°F6.6°C 36.0°F2.2°C 74% Calm Calm -- 29.81 in1009.5 mb 0.00 in0.0 mm 0.00 in0.0 mm 0.00 in0.0 mm
07:17 PM 43.4°F6.3°C 35.9°F2.2°C 75% Calm Calm -- 29.81 in1009.5 mb 0.00 in0.0 mm 0.00 in0.0 mm 0.00 in0.0 mm
07:18 PM 43.2°F6.2°C 35.7°F2.1°C 75% Calm Calm -- 29.81 in1009.5 mb 0.00 in0.0 mm 0.00 in0.0 mm 0.00 in0.0 mm
07:19 PM 43.2°F6.2°C 35.7°F2.1°C 75% Calm Calm -- 29.81 in1009.5 mb 0.00 in0.0 mm 0.00 in0.0 mm 0.00 in0.0 mm
07:20 PM 43.0°F6.1°C 35.5°F1.9°C 75% Calm Calm -- 29.81 in1009.5 mb 0.00 in0.0 mm 0.00 in0.0 mm 0.00 in0.0 mm
07:21 PM 42.7°F5.9°C 35.2°F1.8°C 75% Calm Calm -- 29.81 in1009.5 mb 0.00 in0.0 mm 0.00 in0.0 mm 0.00 in0.0 mm
07:22 PM 42.5°F5.8°C 35.0°F1.7°C 75% Calm Calm -- 29.81 in1009.5 mb 0.00 in0.0 mm 0.00 in0.0 mm 0.00 in0.0 mm
07:23 PM 42.4°F5.8°C 35.0°F1.7°C 75% Calm Calm -- 29.81 in1009.5 mb 0.00 in0.0 mm 0.00 in0.0 mm 0.00 in0.0 mm
07:24 PM 42.1°F5.6°C 34.6°F1.4°C 75% Calm Calm -- 29.81 in1009.5 mb 0.00 in0.0 mm 0.00 in0.0 mm 0.00 in0.0 mm
07:26 PM 42.1°F5.6°C 34.6°F1.4°C 75% Calm Calm -- 29.81 in1009.5 mb 0.00 in0.0 mm 0.00 in0.0 mm 0.00 in0.0 mm
07:27 PM 42.3°F5.7°C 34.8°F1.6°C 75% Calm Calm -- 29.81 in1009.5 mb 0.00 in0.0 mm 0.00 in0.0 mm 0.00 in0.0 mm
07:28 PM 42.5°F5.8°C 35.0°F1.7°C 75% Calm Calm -- 29.81 in1009.5 mb 0.00 in0.0 mm 0.00 in0.0 mm 0.00 in0.0 mm
07:29 PM 43.0°F6.1°C 35.5°F1.9°C 75% Calm Calm -- 29.81 in1009.5 mb 0.00 in0.0 mm 0.00 in0.0 mm 0.00 in0.0 mm
07:30 PM 43.2°F6.2°C 35.3°F1.8°C 74% Calm Calm -- 29.81 in1009.5 mb 0.00 in0.0 mm 0.00 in0.0 mm 0.00 in0.0 mm
07:31 PM 43.6°F6.4°C 35.7°F2.1°C 74% Calm Calm -- 29.81 in1009.5 mb 0.00 in0.0 mm 0.00 in0.0 mm 0.00 in0.0 mm
07:32 PM 43.9°F6.6°C 35.7°F2.1°C 73% Calm Calm -- 29.81 in1009.5 mb 0.00 in0.0 mm 0.00 in0.0 mm 0.00 in0.0 mm
07:36 PM 43.6°F6.4°C 35.3°F1.8°C 73% Calm Calm -- 29.81 in1009.5 mb 0.00 in0.0 mm 0.00 in0.0 mm 0.00 in0.0 mm
07:38 PM 43.2°F6.2°C 35.0°F1.7°C 73% Calm Calm -- 29.81 in1009.5 mb 0.00 in0.0 mm 0.00 in0.0 mm 0.00 in0.0 mm
07:39 PM 43.0°F6.1°C 34.8°F1.6°C 73% Calm Calm -- 29.82 in1009.8 mb 0.00 in0.0 mm 0.00 in0.0 mm 0.00 in0.0 mm
07:40 PM 42.7°F5.9°C 34.5°F1.4°C 73% Calm Calm -- 29.81 in1009.5 mb 0.00 in0.0 mm 0.00 in0.0 mm 0.00 in0.0 mm
07:41 PM 42.4°F5.8°C 35.0°F1.7°C 75% Calm Calm -- 29.81 in1009.5 mb 0.00 in0.0 mm 0.00 in0.0 mm 0.00 in0.0 mm
07:42 PM 41.9°F5.5°C 34.5°F1.4°C 75% Calm Calm -- 29.81 in1009.5 mb 0.00 in0.0 mm 0.00 in0.0 mm 0.00 in0.0 mm
07:43 PM 41.7°F5.4°C 34.3°F1.3°C 75% Calm Calm -- 29.81 in1009.5 mb 0.00 in0.0 mm 0.00 in0.0 mm 0.00 in0.0 mm
07:44 PM 41.5°F5.3°C 34.1°F1.2°C 75% Calm Calm -- 29.81 in1009.5 mb 0.00 in0.0 mm 0.00 in0.0 mm 0.00 in0.0 mm
07:45 PM 40.9°F4.9°C 33.8°F1.0°C 76% Calm Calm -- 29.82 in1009.8 mb 0.00 in0.0 mm 0.00 in0.0 mm 0.00 in0.0 mm
07:46 PM 40.7°F4.8°C 33.6°F0.9°C 76% Calm Calm -- 29.81 in1009.5 mb 0.00 in0.0 mm 0.00 in0.0 mm 0.00 in0.0 mm
07:47 PM 40.5°F4.7°C 34.1°F1.2°C 78% Calm Calm -- 29.81 in1009.5 mb 0.00 in0.0 mm 0.00 in0.0 mm 0.00 in0.0 mm
07:48 PM 40.2°F4.6°C 33.9°F1.1°C 78% Calm Calm -- 29.82 in1009.8 mb 0.00 in0.0 mm 0.00 in0.0 mm 0.00 in0.0 mm
07:50 PM 40.0°F4.4°C 33.5°F0.8°C 78% Calm Calm -- 29.81 in1009.5 mb 0.00 in0.0 mm 0.00 in0.0 mm 0.00 in0.0 mm
07:51 PM 39.9°F4.4°C 33.5°F0.8°C 78% Calm Calm -- 29.82 in1009.8 mb 0.00 in0.0 mm 0.00 in0.0 mm 0.00 in0.0 mm
07:52 PM 39.7°F4.3°C 33.4°F0.8°C 78% Calm Calm -- 29.82 in1009.8 mb 0.00 in0.0 mm 0.00 in0.0 mm 0.00 in0.0 mm
07:53 PM 39.4°F4.1°C 33.3°F0.7°C 79% Calm Calm -- 29.82 in1009.8 mb 0.00 in0.0 mm 0.00 in0.0 mm 0.00 in0.0 mm
07:55 PM 39.2°F4.0°C 33.2°F0.7°C 79% Calm Calm -- 29.82 in1009.8 mb 0.00 in0.0 mm 0.00 in0.0 mm 0.00 in0.0 mm
07:56 PM 38.7°F3.7°C 32.9°F0.5°C 80% Calm Calm -- 29.82 in1009.8 mb 0.00 in0.0 mm 0.00 in0.0 mm 0.00 in0.0 mm
07:57 PM 38.4°F3.6°C 32.8°F0.4°C 80% Calm Calm -- 29.82 in1009.8 mb 0.00 in0.0 mm 0.00 in0.0 mm 0.00 in0.0 mm
07:58 PM 38.0°F3.3°C 32.6°F0.3°C 81% Calm Calm -- 29.82 in1009.8 mb 0.00 in0.0 mm 0.00 in0.0 mm 0.00 in0.0 mm
07:59 PM 37.8°F3.2°C 32.4°F0.2°C 81% Calm Calm -- 29.82 in1009.8 mb 0.00 in0.0 mm 0.00 in0.0 mm 0.00 in0.0 mm
08:01 PM 37.7°F3.2°C 32.4°F0.2°C 81% Calm Calm -- 29.82 in1009.8 mb 0.00 in0.0 mm 0.00 in0.0 mm 0.00 in0.0 mm
08:07 PM 37.5°F3.1°C 32.2°F0.1°C 81% Calm Calm -- 29.82 in1009.8 mb 0.00 in0.0 mm 0.00 in0.0 mm 0.00 in0.0 mm
08:08 PM 37.2°F2.9°C 31.9°F-0.1°C 81% Calm Calm -- 29.82 in1009.8 mb 0.00 in0.0 mm 0.00 in0.0 mm 0.00 in0.0 mm
08:09 PM 36.9°F2.7°C 31.5°F-0.3°C 81% Calm Calm -- 29.82 in1009.8 mb 0.00 in0.0 mm 0.00 in0.0 mm 0.00 in0.0 mm
08:10 PM 36.7°F2.6°C 31.9°F-0.1°C 83% Calm Calm -- 29.82 in1009.8 mb 0.00 in0.0 mm 0.00 in0.0 mm 0.00 in0.0 mm
08:11 PM 36.5°F2.5°C 31.8°F-0.1°C 83% Calm Calm -- 29.82 in1009.8 mb 0.00 in0.0 mm 0.00 in0.0 mm 0.00 in0.0 mm
08:14 PM 36.2°F2.3°C 31.4°F-0.3°C 83% Calm Calm -- 29.82 in1009.8 mb 0.00 in0.0 mm 0.00 in0.0 mm 0.00 in0.0 mm
08:15 PM 35.9°F2.2°C 31.2°F-0.4°C 83% Calm Calm -- 29.82 in1009.8 mb 0.00 in0.0 mm 0.00 in0.0 mm 0.00 in0.0 mm
08:16 PM 35.7°F2.1°C 31.1°F-0.5°C 83% Calm Calm -- 29.82 in1009.8 mb 0.00 in0.0 mm 0.00 in0.0 mm 0.00 in0.0 mm
08:17 PM 35.8°F2.1°C 31.4°F-0.3°C 84% Calm Calm -- 29.81 in1009.5 mb 0.00 in0.0 mm 0.00 in0.0 mm 0.00 in0.0 mm
08:18 PM 35.4°F1.9°C 30.7°F-0.7°C 83% Calm Calm -- 29.82 in1009.8 mb 0.00 in0.0 mm 0.00 in0.0 mm 0.00 in0.0 mm
08:21 PM 35.0°F1.7°C 30.4°F-0.9°C 83% Calm Calm -- 29.81 in1009.5 mb 0.00 in0.0 mm 0.00 in0.0 mm 0.00 in0.0 mm
08:22 PM 35.1°F1.7°C 30.7°F-0.7°C 84% Calm Calm -- 29.81 in1009.5 mb 0.00 in0.0 mm 0.00 in0.0 mm 0.00 in0.0 mm
08:24 PM 34.7°F1.5°C 30.6°F-0.8°C 85% Calm Calm -- 29.82 in1009.8 mb 0.00 in0.0 mm 0.00 in0.0 mm 0.00 in0.0 mm
08:26 PM 34.2°F1.2°C 30.1°F-1.1°C 85% Calm Calm -- 29.82 in1009.8 mb 0.00 in0.0 mm 0.00 in0.0 mm 0.00 in0.0 mm
08:27 PM 34.2°F1.2°C 30.4°F-0.9°C 86% Calm Calm -- 29.82 in1009.8 mb 0.00 in0.0 mm 0.00 in0.0 mm 0.00 in0.0 mm
08:28 PM 34.2°F1.2°C 30.4°F-0.9°C 86% Calm Calm -- 29.82 in1009.8 mb 0.00 in0.0 mm 0.00 in0.0 mm 0.00 in0.0 mm
08:30 PM 34.0°F1.1°C 30.2°F-1.0°C 86% Calm Calm -- 29.82 in1009.8 mb 0.00 in0.0 mm 0.00 in0.0 mm 0.00 in0.0 mm
08:31 PM 33.8°F1.0°C 30.0°F-1.1°C 86% Calm Calm -- 29.82 in1009.8 mb 0.00 in0.0 mm 0.00 in0.0 mm 0.00 in0.0 mm
08:32 PM 33.4°F0.8°C 29.7°F-1.3°C 86% Calm Calm -- 29.82 in1009.8 mb 0.00 in0.0 mm 0.00 in0.0 mm 0.00 in0.0 mm
08:33 PM 33.4°F0.8°C 29.7°F-1.3°C 86% Calm Calm -- 29.82 in1009.8 mb 0.00 in0.0 mm 0.00 in0.0 mm 0.00 in0.0 mm
08:35 PM 33.2°F0.7°C 29.2°F-1.6°C 85% Calm Calm -- 29.82 in1009.8 mb 0.00 in0.0 mm 0.00 in0.0 mm 0.00 in0.0 mm
08:37 PM 33.0°F0.6°C 29.0°F-1.7°C 85% Calm Calm -- 29.82 in1009.8 mb 0.00 in0.0 mm 0.00 in0.0 mm 0.00 in0.0 mm
08:38 PM 33.0°F0.6°C 29.0°F-1.7°C 85% Calm Calm -- 29.82 in1009.8 mb 0.00 in0.0 mm 0.00 in0.0 mm 0.00 in0.0 mm
08:41 PM 33.0°F0.6°C 29.3°F-1.5°C 86% Calm Calm -- 29.82 in1009.8 mb 0.00 in0.0 mm 0.00 in0.0 mm 0.00 in0.0 mm
08:44 PM 33.0°F0.6°C 29.9°F-1.2°C 88% Calm Calm -- 29.82 in1009.8 mb 0.00 in0.0 mm 0.00 in0.0 mm 0.00 in0.0 mm
08:45 PM 32.9°F0.5°C 29.7°F-1.3°C 88% Calm Calm -- 29.82 in1009.8 mb 0.00 in0.0 mm 0.00 in0.0 mm 0.00 in0.0 mm
08:46 PM 32.6°F0.3°C 29.3°F-1.5°C 88% Calm Calm -- 29.82 in1009.8 mb 0.00 in0.0 mm 0.00 in0.0 mm 0.00 in0.0 mm
08:48 PM 32.6°F0.3°C 29.3°F-1.5°C 88% Calm Calm -- 29.82 in1009.8 mb 0.00 in0.0 mm 0.00 in0.0 mm 0.00 in0.0 mm
08:50 PM 32.6°F0.3°C 29.3°F-1.5°C 88% Calm Calm -- 29.82 in1009.8 mb 0.00 in0.0 mm 0.00 in0.0 mm 0.00 in0.0 mm
08:52 PM 32.5°F0.3°C 29.6°F-1.3°C 89% Calm Calm -- 29.82 in1009.8 mb 0.00 in0.0 mm 0.00 in0.0 mm 0.00 in0.0 mm
08:54 PM 32.5°F0.3°C 29.6°F-1.3°C 89% Calm Calm -- 29.82 in1009.8 mb 0.00 in0.0 mm 0.00 in0.0 mm 0.00 in0.0 mm
08:55 PM 31.9°F-0.1°C 28.6°F-1.9°C 88% Calm Calm -- 29.82 in1009.8 mb 0.00 in0.0 mm 0.00 in0.0 mm 0.00 in0.0 mm
08:56 PM 31.7°F-0.2°C 28.4°F-2.0°C 88% Calm Calm -- 29.82 in1009.8 mb 0.00 in0.0 mm 0.00 in0.0 mm 0.00 in0.0 mm
08:57 PM 31.8°F-0.1°C 28.6°F-1.9°C 88% Calm Calm -- 29.82 in1009.8 mb 0.00 in0.0 mm 0.00 in0.0 mm 0.00 in0.0 mm
08:59 PM 31.2°F-0.4°C 28.1°F-2.2°C 88% Calm Calm -- 29.82 in1009.8 mb 0.00 in0.0 mm 0.00 in0.0 mm 0.00 in0.0 mm
09:00 PM 31.1°F-0.5°C 27.9°F-2.3°C 88% Calm Calm -- 29.82 in1009.8 mb 0.00 in0.0 mm 0.00 in0.0 mm 0.00 in0.0 mm
09:02 PM 31.1°F-0.5°C 28.2°F-2.1°C 89% Calm Calm -- 29.82 in1009.8 mb 0.00 in0.0 mm 0.00 in0.0 mm 0.00 in0.0 mm
09:04 PM 31.1°F-0.5°C 27.9°F-2.3°C 88% Calm Calm -- 29.82 in1009.8 mb 0.00 in0.0 mm 0.00 in0.0 mm 0.00 in0.0 mm
09:05 PM 31.1°F-0.5°C 28.5°F-1.9°C 90% Calm Calm -- 29.83 in1010.2 mb 0.00 in0.0 mm 0.00 in0.0 mm 0.00 in0.0 mm
09:10 PM 31.1°F-0.5°C 28.5°F-1.9°C 90% Calm Calm -- 29.82 in1009.8 mb 0.00 in0.0 mm 0.00 in0.0 mm 0.00 in0.0 mm
09:11 PM 30.8°F-0.7°C 28.1°F-2.2°C 90% Calm Calm -- 29.82 in1009.8 mb 0.00 in0.0 mm 0.00 in0.0 mm 0.00 in0.0 mm
09:12 PM 30.7°F-0.7°C 28.1°F-2.2°C 90% Calm Calm -- 29.82 in1009.8 mb 0.00 in0.0 mm 0.00 in0.0 mm 0.00 in0.0 mm
09:14 PM 30.5°F-0.8°C 27.9°F-2.3°C 90% Calm Calm -- 29.83 in1010.2 mb 0.00 in0.0 mm 0.00 in0.0 mm 0.00 in0.0 mm
09:17 PM 30.3°F-0.9°C 27.8°F-2.3°C 90% Calm Calm -- 29.82 in1009.8 mb 0.00 in0.0 mm 0.00 in0.0 mm 0.00 in0.0 mm
09:19 PM 30.1°F-1.1°C 27.4°F-2.6°C 90% Calm Calm -- 29.83 in1010.2 mb 0.00 in0.0 mm 0.00 in0.0 mm 0.00 in0.0 mm
09:20 PM 30.0°F-1.1°C 27.4°F-2.6°C 90% Calm Calm -- 29.82 in1009.8 mb 0.00 in0.0 mm 0.00 in0.0 mm 0.00 in0.0 mm
09:21 PM 30.0°F-1.1°C 27.4°F-2.6°C 90% Calm Calm -- 29.83 in1010.2 mb 0.00 in0.0 mm 0.00 in0.0 mm 0.00 in0.0 mm
09:22 PM 29.8°F-1.2°C 27.2°F-2.7°C 90% Calm Calm -- 29.83 in1010.2 mb 0.00 in0.0 mm 0.00 in0.0 mm 0.00 in0.0 mm
09:23 PM 29.6°F-1.3°C 27.0°F-2.8°C 90% Calm Calm -- 29.83 in1010.2 mb 0.00 in0.0 mm 0.00 in0.0 mm 0.00 in0.0 mm
09:25 PM 29.6°F-1.3°C 27.0°F-2.8°C 90% Calm Calm -- 29.82 in1009.8 mb 0.00 in0.0 mm 0.00 in0.0 mm 0.00 in0.0 mm
09:26 PM 29.6°F-1.3°C 27.0°F-2.8°C 90% Calm Calm -- 29.83 in1010.2 mb 0.00 in0.0 mm 0.00 in0.0 mm 0.00 in0.0 mm
09:31 PM 29.5°F-1.4°C 26.9°F-2.8°C 90% Calm Calm -- 29.83 in1010.2 mb 0.00 in0.0 mm 0.00 in0.0 mm 0.00 in0.0 mm
09:32 PM 29.5°F-1.4°C 26.9°F-2.8°C 90% Calm Calm -- 29.83 in1010.2 mb 0.00 in0.0 mm 0.00 in0.0 mm 0.00 in0.0 mm
09:33 PM 29.5°F-1.4°C 26.9°F-2.8°C 90% Calm Calm -- 29.83 in1010.2 mb 0.00 in0.0 mm 0.00 in0.0 mm 0.00 in0.0 mm
09:34 PM 29.2°F-1.6°C 26.5°F-3.1°C 90% Calm Calm -- 29.82 in1009.8 mb 0.00 in0.0 mm 0.00 in0.0 mm 0.00 in0.0 mm
09:36 PM 29.1°F-1.6°C 26.5°F-3.1°C 90% Calm Calm -- 29.83 in1010.2 mb 0.00 in0.0 mm 0.00 in0.0 mm 0.00 in0.0 mm
09:37 PM 29.1°F-1.6°C 26.8°F-2.9°C 91% Calm Calm -- 29.83 in1010.2 mb 0.00 in0.0 mm 0.00 in0.0 mm 0.00 in0.0 mm
09:39 PM 28.8°F-1.8°C 26.4°F-3.1°C 91% Calm Calm -- 29.83 in1010.2 mb 0.00 in0.0 mm 0.00 in0.0 mm 0.00 in0.0 mm
09:47 PM 28.9°F-1.7°C 26.9°F-2.8°C 92% Calm Calm -- 29.83 in1010.2 mb 0.00 in0.0 mm 0.00 in0.0 mm 0.00 in0.0 mm
09:48 PM 28.7°F-1.8°C 26.4°F-3.1°C 91% Calm Calm -- 29.83 in1010.2 mb 0.00 in0.0 mm 0.00 in0.0 mm 0.00 in0.0 mm
09:51 PM 28.6°F-1.9°C 26.3°F-3.2°C 91% Calm Calm -- 29.83 in1010.2 mb 0.00 in0.0 mm 0.00 in0.0 mm 0.00 in0.0 mm
09:59 PM 28.3°F-2.1°C 25.9°F-3.4°C 91% Calm Calm -- 29.83 in1010.2 mb 0.00 in0.0 mm 0.00 in0.0 mm 0.00 in0.0 mm
10:03 PM 28.2°F-2.1°C 25.9°F-3.4°C 91% Calm Calm -- 29.83 in1010.2 mb 0.00 in0.0 mm 0.00 in0.0 mm 0.00 in0.0 mm
10:04 PM 28.2°F-2.1°C 25.9°F-3.4°C 91% Calm Calm -- 29.83 in1010.2 mb 0.00 in0.0 mm 0.00 in0.0 mm 0.00 in0.0 mm
10:05 PM 28.2°F-2.1°C 25.9°F-3.4°C 91% Calm Calm -- 29.83 in1010.2 mb 0.00 in0.0 mm 0.00 in0.0 mm 0.00 in0.0 mm
10:07 PM 27.9°F-2.3°C 25.5°F-3.6°C 91% Calm Calm -- 29.83 in1010.2 mb 0.00 in0.0 mm 0.00 in0.0 mm 0.00 in0.0 mm
10:09 PM 27.8°F-2.3°C 25.5°F-3.6°C 91% Calm Calm -- 29.83 in1010.2 mb 0.00 in0.0 mm 0.00 in0.0 mm 0.00 in0.0 mm
10:11 PM 27.8°F-2.3°C 25.5°F-3.6°C 91% Calm Calm -- 29.83 in1010.2 mb 0.00 in0.0 mm 0.00 in0.0 mm 0.00 in0.0 mm
10:12 PM 27.8°F-2.3°C 25.5°F-3.6°C 91% Calm Calm -- 29.84 in1010.5 mb 0.00 in0.0 mm 0.00 in0.0 mm 0.00 in0.0 mm
10:14 PM 27.8°F-2.3°C 25.5°F-3.6°C 91% Calm Calm -- 29.83 in1010.2 mb 0.00 in0.0 mm 0.00 in0.0 mm 0.00 in0.0 mm
10:15 PM 27.8°F-2.3°C 25.5°F-3.6°C 91% Calm Calm -- 29.84 in1010.5 mb 0.00 in0.0 mm 0.00 in0.0 mm 0.00 in0.0 mm
10:16 PM 27.6°F-2.4°C 25.4°F-3.7°C 91% Calm Calm -- 29.84 in1010.5 mb 0.00 in0.0 mm 0.00 in0.0 mm 0.00 in0.0 mm
10:17 PM 27.6°F-2.4°C 25.4°F-3.7°C 91% Calm Calm -- 29.83 in1010.2 mb 0.00 in0.0 mm 0.00 in0.0 mm 0.00 in0.0 mm
10:18 PM 27.8°F-2.3°C 25.5°F-3.6°C 91% Calm Calm -- 29.83 in1010.2 mb 0.00 in0.0 mm 0.00 in0.0 mm 0.00 in0.0 mm
10:20 PM 27.6°F-2.4°C 25.4°F-3.7°C 91% Calm Calm -- 29.83 in1010.2 mb 0.00 in0.0 mm 0.00 in0.0 mm 0.00 in0.0 mm
10:22 PM 27.6°F-2.4°C 25.4°F-3.7°C 91% Calm Calm -- 29.84 in1010.5 mb 0.00 in0.0 mm 0.00 in0.0 mm 0.00 in0.0 mm
10:24 PM 27.6°F-2.4°C 25.4°F-3.7°C 91% Calm Calm -- 29.84 in1010.5 mb 0.00 in0.0 mm 0.00 in0.0 mm 0.00 in0.0 mm
10:25 PM 27.6°F-2.4°C 25.4°F-3.7°C 91% Calm Calm -- 29.83 in1010.2 mb 0.00 in0.0 mm 0.00 in0.0 mm 0.00 in0.0 mm
10:26 PM 27.6°F-2.4°C 25.9°F-3.4°C 93% Calm Calm -- 29.84 in1010.5 mb 0.00 in0.0 mm 0.00 in0.0 mm 0.00 in0.0 mm
10:28 PM 27.5°F-2.5°C 25.7°F-3.5°C 93% Calm Calm -- 29.84 in1010.5 mb 0.00 in0.0 mm 0.00 in0.0 mm 0.00 in0.0 mm
10:29 PM 27.5°F-2.5°C 25.7°F-3.5°C 93% Calm Calm -- 29.83 in1010.2 mb 0.00 in0.0 mm 0.00 in0.0 mm 0.00 in0.0 mm
10:31 PM 27.3°F-2.6°C 25.5°F-3.6°C 93% Calm Calm -- 29.83 in1010.2 mb 0.00 in0.0 mm 0.00 in0.0 mm 0.00 in0.0 mm
10:32 PM 27.3°F-2.6°C 25.5°F-3.6°C 93% Calm Calm -- 29.84 in1010.5 mb 0.00 in0.0 mm 0.00 in0.0 mm 0.00 in0.0 mm
10:34 PM 27.3°F-2.6°C 25.5°F-3.6°C 93% Calm Calm -- 29.84 in1010.5 mb 0.00 in0.0 mm 0.00 in0.0 mm 0.00 in0.0 mm
10:35 PM 27.3°F-2.6°C 25.5°F-3.6°C 93% Calm Calm -- 29.83 in1010.2 mb 0.00 in0.0 mm 0.00 in0.0 mm 0.00 in0.0 mm
10:36 PM 27.3°F-2.6°C 25.5°F-3.6°C 93% Calm Calm -- 29.84 in1010.5 mb 0.00 in0.0 mm 0.00 in0.0 mm 0.00 in0.0 mm
10:45 PM 27.1°F-2.7°C 25.4°F-3.7°C 93% Calm Calm -- 29.84 in1010.5 mb 0.00 in0.0 mm 0.00 in0.0 mm 0.00 in0.0 mm
10:50 PM 27.1°F-2.7°C 25.4°F-3.7°C 93% 1.0 mph W1.6 kmh W -- 29.84 in1010.5 mb 0.00 in0.0 mm 0.00 in0.0 mm 0.00 in0.0 mm
10:51 PM 27.1°F-2.7°C 25.4°F-3.7°C 93% Calm Calm -- 29.84 in1010.5 mb 0.00 in0.0 mm 0.00 in0.0 mm 0.00 in0.0 mm
10:54 PM 27.1°F-2.7°C 25.9°F-3.4°C 95% Calm Calm -- 29.84 in1010.5 mb 0.00 in0.0 mm 0.00 in0.0 mm 0.00 in0.0 mm
11:05 PM 27.1°F-2.7°C 25.9°F-3.4°C 95% Calm Calm -- 29.83 in1010.2 mb 0.00 in0.0 mm 0.00 in0.0 mm 0.00 in0.0 mm
11:07 PM 27.0°F-2.8°C 25.7°F-3.5°C 95% Calm Calm -- 29.83 in1010.2 mb 0.00 in0.0 mm 0.00 in0.0 mm 0.00 in0.0 mm
11:10 PM 27.0°F-2.8°C 25.7°F-3.5°C 95% Calm Calm -- 29.84 in1010.5 mb 0.00 in0.0 mm 0.00 in0.0 mm 0.00 in0.0 mm
11:12 PM 26.7°F-2.9°C 25.5°F-3.6°C 95% Calm Calm -- 29.84 in1010.5 mb 0.00 in0.0 mm 0.00 in0.0 mm 0.00 in0.0 mm
11:13 PM 26.7°F-2.9°C 25.5°F-3.6°C 95% Calm Calm -- 29.83 in1010.2 mb 0.00 in0.0 mm 0.00 in0.0 mm 0.00 in0.0 mm
11:15 PM 26.7°F-2.9°C 25.5°F-3.6°C 95% Calm Calm -- 29.84 in1010.5 mb 0.00 in0.0 mm 0.00 in0.0 mm 0.00 in0.0 mm
11:19 PM 26.7°F-2.9°C 25.5°F-3.6°C 95% Calm Calm -- 29.83 in1010.2 mb 0.00 in0.0 mm 0.00 in0.0 mm 0.00 in0.0 mm
11:22 PM 26.8°F-2.9°C 25.5°F-3.6°C 95% Calm Calm -- 29.83 in1010.2 mb 0.00 in0.0 mm 0.00 in0.0 mm 0.00 in0.0 mm
11:23 PM 26.7°F-2.9°C 25.5°F-3.6°C 95% Calm Calm -- 29.83 in1010.2 mb 0.00 in0.0 mm 0.00 in0.0 mm 0.00 in0.0 mm
11:24 PM 26.6°F-3.0°C 25.3°F-3.7°C 95% Calm Calm -- 29.83 in1010.2 mb 0.00 in0.0 mm 0.00 in0.0 mm 0.00 in0.0 mm
11:27 PM 26.6°F-3.0°C 25.3°F-3.7°C 95% Calm Calm -- 29.84 in1010.5 mb 0.00 in0.0 mm 0.00 in0.0 mm 0.00 in0.0 mm
11:28 PM 26.6°F-3.0°C 25.3°F-3.7°C 95% Calm Calm -- 29.83 in1010.2 mb 0.00 in0.0 mm 0.00 in0.0 mm 0.00 in0.0 mm
11:29 PM 26.3°F-3.2°C 25.0°F-3.9°C 95% Calm Calm -- 29.83 in1010.2 mb 0.00 in0.0 mm 0.00 in0.0 mm 0.00 in0.0 mm
11:30 PM 26.3°F-3.2°C 25.0°F-3.9°C 95% Calm Calm -- 29.84 in1010.5 mb 0.00 in0.0 mm 0.00 in0.0 mm 0.00 in0.0 mm
11:32 PM 26.2°F-3.2°C 25.0°F-3.9°C 95% Calm Calm -- 29.83 in1010.2 mb 0.00 in0.0 mm 0.00 in0.0 mm 0.00 in0.0 mm
11:35 PM 26.2°F-3.2°C 25.0°F-3.9°C 95% Calm Calm -- 29.84 in1010.5 mb 0.00 in0.0 mm 0.00 in0.0 mm 0.00 in0.0 mm
11:39 PM 26.2°F-3.2°C 25.0°F-3.9°C 95% Calm Calm -- 29.84 in1010.5 mb 0.00 in0.0 mm 0.00 in0.0 mm 0.00 in0.0 mm
11:40 PM 26.1°F-3.3°C 24.8°F-4.0°C 95% Calm Calm -- 29.84 in1010.5 mb 0.00 in0.0 mm 0.00 in0.0 mm 0.00 in0.0 mm
11:42 PM 26.1°F-3.3°C 24.8°F-4.0°C 95% Calm Calm -- 29.84 in1010.5 mb 0.00 in0.0 mm 0.00 in0.0 mm 0.00 in0.0 mm
11:43 PM 26.2°F-3.2°C 25.0°F-3.9°C 95% Calm Calm -- 29.84 in1010.5 mb 0.00 in0.0 mm 0.00 in0.0 mm 0.00 in0.0 mm
11:44 PM 26.2°F-3.2°C 25.0°F-3.9°C 95% Calm Calm -- 29.84 in1010.5 mb 0.00 in0.0 mm 0.00 in0.0 mm 0.00 in0.0 mm
11:48 PM 26.1°F-3.3°C 24.8°F-4.0°C 95% Calm Calm -- 29.84 in1010.5 mb 0.00 in0.0 mm 0.00 in0.0 mm 0.00 in0.0 mm
11:49 PM 26.1°F-3.3°C 24.8°F-4.0°C 95% Calm Calm -- 29.83 in1010.2 mb 0.00 in0.0 mm 0.00 in0.0 mm 0.00 in0.0 mm
11:50 PM 26.1°F-3.3°C 24.8°F-4.0°C 95% Calm Calm -- 29.84 in1010.5 mb 0.00 in0.0 mm 0.00 in0.0 mm 0.00 in0.0 mm
11:51 PM 26.1°F-3.3°C 24.8°F-4.0°C 95% Calm Calm -- 29.83 in1010.2 mb 0.00 in0.0 mm 0.00 in0.0 mm 0.00 in0.0 mm
11:52 PM 25.9°F-3.4°C 24.6°F-4.1°C 95% Calm Calm -- 29.83 in1010.2 mb 0.00 in0.0 mm 0.00 in0.0 mm 0.00 in0.0 mm
11:54 PM 25.9°F-3.4°C 24.6°F-4.1°C 95% Calm Calm -- 29.84 in1010.5 mb 0.00 in0.0 mm 0.00 in0.0 mm 0.00 in0.0 mm
11:55 PM 25.7°F-3.5°C 24.4°F-4.2°C 95% Calm Calm -- 29.83 in1010.2 mb 0.00 in0.0 mm 0.00 in0.0 mm 0.00 in0.0 mm
11:56 PM 25.7°F-3.5°C 24.4°F-4.2°C 95% Calm Calm -- 29.84 in1010.5 mb 0.00 in0.0 mm 0.00 in0.0 mm 0.00 in0.0 mm
11:58 PM 25.4°F-3.7°C 24.1°F-4.4°C 95% Calm Calm -- 29.84 in1010.5 mb 0.00 in0.0 mm 0.00 in0.0 mm 0.00 in0.0 mm
11:59 PM 25.4°F-3.7°C 24.1°F-4.4°C 95% Calm Calm -- 29.83 in1010.2 mb 0.00 in0.0 mm 0.00 in0.0 mm 0.00 in0.0 mm